Branch Tests

Title Release Link VCS Identifier Last received Last requested Last testedsort icon
Extendable Object Faces (API) - DRUPAL-6--1 Release link DRUPAL-6--1 03/11/2010 - 12:00:28 03/11/2010 - 12:02:01 03/11/2010 - 12:02:46
Node displays - DRUPAL-7--1 Release link DRUPAL-7--1 04/06/2010 - 17:40:20 04/06/2010 - 17:42:01 04/06/2010 - 17:42:21
Media - DRUPAL-7--1 Release link DRUPAL-7--1 05/06/2010 - 14:30:20 05/06/2010 - 14:32:01 05/06/2010 - 14:32:18
Secure Pages Hijack Prevention - 6.x-1.x Release link 6.x-1.x 05/06/2010 - 18:20:36 05/06/2010 - 18:22:01 05/06/2010 - 18:22:21
Poormanscron - DRUPAL-6--2 Release link DRUPAL-6--2 05/08/2010 - 23:44:02 05/08/2010 - 23:44:02 05/08/2010 - 23:44:17
Media - HEAD Release link HEAD 05/14/2010 - 11:30:17 05/14/2010 - 11:31:37 05/14/2010 - 11:32:15
Password change confirm - DRUPAL-6--1 Release link DRUPAL-6--1 05/29/2010 - 17:00:15 05/29/2010 - 17:00:48 05/29/2010 - 17:01:02
Path redirect - HEAD Release link HEAD 08/07/2010 - 20:30:26 08/07/2010 - 20:31:01 08/07/2010 - 20:31:50
Auto Assign Role - 6.x-1.x Release link 6.x-1.x 09/08/2010 - 15:40:27 09/08/2010 - 15:41:01 09/08/2010 - 15:41:21
Drupal core - HEAD Release link HEAD 09/12/2010 - 14:59:24 09/14/2010 - 15:23:08 09/14/2010 - 15:25:58
Image - DRUPAL-6--1-0-BETA6 Release link DRUPAL-6--1-0-BETA6 09/19/2010 - 22:38:42 09/19/2010 - 22:39:01 09/19/2010 - 22:39:26
Google Analytics - DRUPAL-6--2 Release link DRUPAL-6--2 09/23/2010 - 19:30:34 09/23/2010 - 19:31:02 09/23/2010 - 19:31:17
User Delete - 6.x-2.x Release link 6.x-2.x 10/08/2010 - 09:20:21 10/08/2010 - 09:21:01 10/08/2010 - 09:21:11
Skinr - 7.x-1.x Release link 7.x-1.x 11/10/2010 - 21:50:28 11/10/2010 - 21:51:01 11/10/2010 - 21:51:28
Porter-Stemmer - HEAD Release link HEAD 11/11/2010 - 00:20:19 11/11/2010 - 00:21:01 11/11/2010 - 00:22:42
Plugin Manager - DRUPAL-6--2 Release link DRUPAL-6--2 11/16/2010 - 02:20:17 11/16/2010 - 02:21:01 11/16/2010 - 02:21:18
Smart Crop - 7.x-1.x Release link 7.x-1.x 12/07/2010 - 19:40:53 12/07/2010 - 19:40:57 12/07/2010 - 19:41:59
Translation template extractor - DRUPAL-6--2 Release link DRUPAL-6--2 01/03/2011 - 02:21:06 01/03/2011 - 02:22:01 01/03/2011 - 02:22:16
CAPTCHA - DRUPAL-6--1 Release link DRUPAL-6--1 01/08/2011 - 00:21:01 01/08/2011 - 00:21:02 01/08/2011 - 00:21:25
Poormanscron - master Release link master 02/25/2011 - 08:11:20 02/25/2011 - 08:15:15 02/25/2011 - 08:15:44
Smart Crop - 6.x-1.x Release link 6.x-1.x 02/25/2011 - 08:11:22 02/25/2011 - 08:12:01 02/25/2011 - 08:17:54
ErrorNot notifier - master Release link master 02/25/2011 - 08:11:21 02/25/2011 - 08:17:56 02/25/2011 - 08:18:29
Profile permission - master Release link master 02/25/2011 - 08:11:24 02/25/2011 - 08:16:23 02/25/2011 - 08:19:34
Admin role - 6.x-1.x Release link 6.x-1.x 02/25/2011 - 08:11:22 02/25/2011 - 08:18:29 02/25/2011 - 08:21:41
References - master Release link master 02/25/2011 - 08:11:24 02/25/2011 - 08:22:46 02/25/2011 - 08:22:52
Extendable Object Faces (API) - 7.x-1.x Release link 7.x-1.x 02/25/2011 - 08:11:20 02/25/2011 - 08:29:16 02/25/2011 - 08:30:33
Content translation - master Release link master 02/25/2011 - 08:11:22 02/25/2011 - 08:30:33 02/25/2011 - 08:30:52
OpenLayers - 6.x-1.x Release link 6.x-1.x 02/25/2011 - 08:11:21 02/25/2011 - 08:34:31 02/25/2011 - 08:37:46
Variable API - 6.x-1.x Release link 6.x-1.x 02/25/2011 - 08:11:22 02/25/2011 - 08:34:58 02/25/2011 - 08:38:09
Rules Transformers - 7.x-1.x Release link 7.x-1.x 03/03/2011 - 11:41:30 03/03/2011 - 11:42:02 03/03/2011 - 11:42:32
Project Issue File Review - 6.x-3.x Release link 6.x-3.x 03/11/2011 - 21:32:05 03/11/2011 - 21:33:01 03/11/2011 - 21:33:42
Contact - 6.x-2.x Release link 6.x-2.x 04/09/2011 - 18:42:17 04/09/2011 - 18:43:02 04/09/2011 - 18:43:12
Examples for Developers - master Release link master 04/13/2011 - 15:04:12 04/13/2011 - 15:39:15 04/13/2011 - 15:39:18
CAS - 6.x-2.x Release link 6.x-2.x 04/25/2011 - 05:52:20 04/25/2011 - 05:53:02 04/25/2011 - 05:53:13
Comment Notify - 6.x-1.x Release link 6.x-1.x 04/26/2011 - 18:02:34 04/26/2011 - 18:03:03 04/26/2011 - 18:03:13
Privatemsg - 6.x-1.x Release link 6.x-1.x 04/28/2011 - 21:52:33 04/28/2011 - 22:21:07 04/28/2011 - 22:21:43
Plugin Manager - 6.x-1.x Release link 6.x-1.x 05/08/2011 - 14:52:20 05/08/2011 - 14:53:02 05/08/2011 - 14:53:09
Plugin Manager - 7.x-1.x Release link 7.x-1.x 05/08/2011 - 14:52:20 05/08/2011 - 14:53:02 05/08/2011 - 14:53:19
Path redirect - 6.x-1.x Release link 6.x-1.x 05/19/2011 - 18:22:40 05/19/2011 - 18:24:23 05/19/2011 - 18:24:41
Mailhandler - 6.x-1.x Release link 6.x-1.x 05/19/2011 - 18:52:39 05/19/2011 - 18:53:02 05/19/2011 - 18:53:22
Better Exposed Filters - 7.x-1.x Release link 7.x-1.x 05/25/2011 - 20:42:31 05/25/2011 - 20:43:02 05/25/2011 - 21:19:04
SimpleTest - 6.x-2.x Release link 6.x-2.x 06/03/2011 - 03:44:56 06/03/2011 - 03:45:03 06/03/2011 - 03:45:26
Better Exposed Filters - 6.x-1.x Release link 6.x-1.x 06/09/2011 - 02:47:55 06/09/2011 - 02:48:03 06/09/2011 - 02:48:12
Enabled Modules - 6.x-1.x Release link 6.x-1.x 06/11/2011 - 21:02:07 06/11/2011 - 21:03:04 06/11/2011 - 21:03:15
Services - 6.x-2.x Release link 6.x-2.x 06/18/2011 - 17:08:00 06/18/2011 - 17:08:02 06/18/2011 - 17:08:11
Nodewords - 6.x-2.x Release link 6.x-2.x 06/26/2011 - 03:15:58 06/26/2011 - 03:41:49 06/26/2011 - 03:42:23
Grammar Parser - master Release link master 06/27/2011 - 12:02:45 06/27/2011 - 12:03:03 06/27/2011 - 12:03:25
Taxonomy Filter - 6.x-1.x Release link 6.x-1.x 06/28/2011 - 15:57:55 06/28/2011 - 16:18:29 06/28/2011 - 16:18:42
Taxonomy Menu - master Release link master 07/20/2011 - 02:48:56 07/20/2011 - 02:49:03 07/20/2011 - 03:25:58
Translation template extractor - 7.x-2.x Release link 7.x-2.x 07/20/2011 - 16:04:56 07/20/2011 - 16:05:03 07/20/2011 - 16:39:57
MySpace Sync - 6.x-1.x Release link 6.x-1.x 07/26/2011 - 02:44:56 07/26/2011 - 02:45:03 07/26/2011 - 02:45:12
CCK Signup - 6.x-1.x Release link 6.x-1.x 07/27/2011 - 01:38:55 07/27/2011 - 01:52:16 07/27/2011 - 01:52:30
Classified Ads - 6.x-2.x Release link 6.x-2.x 08/03/2011 - 09:37:55 08/03/2011 - 09:38:03 08/03/2011 - 09:38:17
Feeds namespaces - 7.x-1.x Release link 7.x-1.x 08/18/2011 - 12:40:56 08/18/2011 - 12:41:03 08/18/2011 - 12:41:41
Taxonomy Filter - 7.x-1.x Release link 7.x-1.x 08/23/2011 - 13:32:09 08/23/2011 - 13:33:02 08/23/2011 - 13:33:40
Contact - 7.x-2.x Release link 7.x-2.x 08/25/2011 - 15:23:56 08/25/2011 - 15:24:03 08/25/2011 - 15:24:55
Chessboard Renderer - 6.x-1.x Release link 6.x-1.x 08/27/2011 - 14:53:56 08/27/2011 - 14:54:01 08/27/2011 - 14:54:28
Comment closer - 6.x-1.x Release link 6.x-1.x 08/28/2011 - 23:14:56 08/28/2011 - 23:15:03 08/28/2011 - 23:15:14
@font-your-face - 7.x-1.x Release link 7.x-1.x 08/28/2011 - 23:21:57 08/28/2011 - 23:22:48 08/28/2011 - 23:23:31
G2 Glossary - 6.x-1.x Release link 6.x-1.x 08/29/2011 - 16:15:55 08/29/2011 - 16:16:03 08/29/2011 - 16:16:14
Comment closer - 7.x-1.x Release link 7.x-1.x 08/31/2011 - 02:48:56 08/31/2011 - 02:49:02 08/31/2011 - 02:49:09
Taxonomy Filter - 6.x-1.x Release link 6.x-1.x 08/31/2011 - 20:42:56 08/31/2011 - 20:43:03 08/31/2011 - 20:43:35
Workbench Files - 7.x-1.x Release link 7.x-1.x 09/19/2011 - 20:02:05 09/19/2011 - 20:03:03 09/19/2011 - 20:03:45
Project Issue File Review - 6.x-2.x Release link 6.x-2.x 09/25/2011 - 03:09:42 09/25/2011 - 03:10:02 09/25/2011 - 03:10:27
Administration menu - 6.x-1.x Release link 6.x-1.x 09/25/2011 - 18:49:42 09/25/2011 - 18:50:02 09/25/2011 - 18:50:14
Variable API - 7.x-1.x Release link 7.x-1.x 10/04/2011 - 05:10:43 10/04/2011 - 05:11:03 10/04/2011 - 05:11:56
File entity (fieldable files) - 7.x-1.x Release link 7.x-1.x 10/07/2011 - 23:35:43 10/07/2011 - 23:36:02 10/07/2011 - 23:36:57
Display suite - 7.x-1.x Release link 7.x-1.x 10/14/2011 - 16:30:33 10/14/2011 - 16:31:03 10/14/2011 - 16:32:27
Clock - 7.x-1.x Release link 7.x-1.x 10/16/2011 - 11:08:34 10/16/2011 - 11:09:02 10/16/2011 - 11:09:11
Clock - 6.x-1.x Release link 6.x-1.x 10/16/2011 - 11:09:33 10/16/2011 - 11:10:02 10/16/2011 - 11:10:26
Clock - 7.x-2.x Release link 7.x-2.x 10/16/2011 - 11:14:34 10/16/2011 - 11:15:02 10/16/2011 - 11:15:14
Variable API - 7.x-2.x Release link 7.x-2.x 10/18/2011 - 20:09:29 10/18/2011 - 20:10:03 10/18/2011 - 20:10:30
Variable API - 6.x-2.x Release link 6.x-2.x 10/18/2011 - 20:10:54 10/18/2011 - 20:11:02 10/18/2011 - 20:11:11
Testbot Exercise - 7.x-1.x Release link 7.x-1.x 10/25/2011 - 21:26:24 10/25/2011 - 21:26:27 10/25/2011 - 21:41:00
Meta tags - 7.x-1.x Release link 7.x-1.x 10/26/2011 - 19:55:29 10/26/2011 - 19:56:03 10/26/2011 - 19:57:04
Talk - 6.x-1.x Release link 6.x-1.x 11/11/2011 - 21:55:29 11/11/2011 - 21:56:02 11/11/2011 - 21:56:13
Blog API - master Release link master 11/14/2011 - 06:20:38 11/14/2011 - 06:21:02 11/14/2011 - 06:21:14
UC Recurring Payments and Subscriptions - 6.x-2.x Release link 6.x-2.x 11/15/2011 - 14:45:37 11/15/2011 - 14:46:03 11/15/2011 - 14:46:35
Phone Number - 7.x-1.x Release link 7.x-1.x 11/15/2011 - 15:06:12 11/15/2011 - 15:07:03 11/15/2011 - 15:07:29
Phone Number - 6.x-1.x Release link 6.x-1.x 11/15/2011 - 15:15:38 11/15/2011 - 15:15:42 11/15/2011 - 15:16:23
Klout - 7.x-1.x Release link 7.x-1.x 11/15/2011 - 16:12:29 11/15/2011 - 16:28:21 11/15/2011 - 16:28:51
Cricket Score Widget - 7.x-1.1 Release link 7.x-1.1 11/15/2011 - 16:13:28 11/15/2011 - 16:28:51 11/15/2011 - 16:29:43
Invite - 7.x-2.x Release link 7.x-2.x 11/15/2011 - 18:08:29 11/15/2011 - 18:08:37 11/15/2011 - 18:09:04
Mail2All - 6.x-1.x Release link 6.x-1.x 11/15/2011 - 18:17:29 11/15/2011 - 18:18:03 11/15/2011 - 18:18:20
Context Node - 6.x-1.x Release link 6.x-1.x 11/15/2011 - 18:18:29 11/15/2011 - 18:19:03 11/15/2011 - 18:19:03
Errors - 6.x-1.x Release link 6.x-1.x 11/15/2011 - 18:18:29 11/15/2011 - 18:19:03 11/15/2011 - 18:19:03
Context Node - 7.x-1.x Release link 7.x-1.x 11/15/2011 - 18:18:29 11/15/2011 - 18:19:03 11/15/2011 - 18:19:27
Fit Text - 7.x-1.0 Release link 7.x-1.0 11/15/2011 - 18:28:29 11/15/2011 - 18:29:03 11/15/2011 - 18:29:03
Fit Text - 6.x-1.0 Release link 6.x-1.0 11/15/2011 - 18:28:29 11/15/2011 - 18:29:03 11/15/2011 - 18:29:17
Feedback Simple - 6.x-1.x Release link 6.x-1.x 11/15/2011 - 19:50:34 11/15/2011 - 19:51:03 11/15/2011 - 19:51:18
Voting API Autoremove - 6.x-2.x Release link 6.x-2.x 11/15/2011 - 19:54:29 11/15/2011 - 19:55:38 11/15/2011 - 19:55:59
Voting API Autoremove - 7.x-2.x Release link 7.x-2.x 11/15/2011 - 19:54:29 11/15/2011 - 19:55:55 11/15/2011 - 19:56:21
OG Announce - 6.x-1.x Release link 6.x-1.x 11/15/2011 - 19:54:29 11/15/2011 - 19:56:00 11/15/2011 - 19:56:34
Fool's Rules - 7.x-1.x Release link 7.x-1.x 11/15/2011 - 20:10:35 11/15/2011 - 20:11:02 11/15/2011 - 20:12:00
Serial Field - 7.x-1.x Release link 7.x-1.x 11/15/2011 - 21:30:57 11/15/2011 - 21:31:03 11/15/2011 - 21:31:29
Serial Field - 6.x-1.x Release link 6.x-1.x 11/15/2011 - 21:30:57 11/15/2011 - 21:31:29 11/15/2011 - 21:31:51
Syndeploy - 6.x-1.x Release link 6.x-1.x 11/15/2011 - 21:32:29 11/15/2011 - 21:33:03 11/15/2011 - 21:33:51
BuzzGrowl - 7.x-1.x Release link 7.x-1.x 11/15/2011 - 21:56:04 11/15/2011 - 21:57:03 11/15/2011 - 21:57:28
Anonymous Posting - 7.x-1.x Release link 7.x-1.x 11/15/2011 - 22:09:23 11/15/2011 - 22:10:03 11/15/2011 - 22:10:28
Taxonomy CSV import/export - 6.x-5.x Release link 6.x-5.x 11/15/2011 - 22:21:00 11/15/2011 - 22:21:02 11/15/2011 - 22:21:19
CCK IP Address - 6.x-1.x Release link 6.x-1.x 11/16/2011 - 00:25:31 11/16/2011 - 00:26:03 11/16/2011 - 00:26:27
Entity API - 7.x-1.0-rc1 Release link 7.x-1.0-rc1 11/16/2011 - 03:42:52 11/16/2011 - 03:43:02 11/16/2011 - 03:45:13
Flag entity - 7.x-1.x Release link 7.x-1.x 11/16/2011 - 09:38:55 11/16/2011 - 09:39:02 11/16/2011 - 09:39:33
Spaces - 7.x-1.x Release link 7.x-1.x 11/16/2011 - 09:45:45 11/16/2011 - 09:46:02 11/16/2011 - 09:46:37
Apache Solr Attachments - 7.x-1.0 Release link 7.x-1.0 11/16/2011 - 09:57:46 11/16/2011 - 09:58:03 11/16/2011 - 09:58:38
Relation - 7.x-1.0-beta3 Release link 7.x-1.0-beta3 11/16/2011 - 12:21:04 11/16/2011 - 12:22:03 11/16/2011 - 12:23:49
Commerce Order Reference - 7.x-1.x Release link 7.x-1.x 11/16/2011 - 12:49:00 11/16/2011 - 12:49:03 11/16/2011 - 12:49:53
Whois lookup - 7.x-1.x Release link 7.x-1.x 11/16/2011 - 15:45:57 11/16/2011 - 15:46:03 11/16/2011 - 15:46:53
IP Ranges - 7.x-1.1 Release link 7.x-1.1 11/16/2011 - 19:35:36 11/16/2011 - 19:36:03 11/16/2011 - 19:36:28
IP Ranges - 7.x-1.x Release link 7.x-1.x 11/16/2011 - 19:35:36 11/16/2011 - 19:36:03 11/16/2011 - 19:36:28
Brain Forum - 7.x-1.x Release link 7.x-1.x 11/16/2011 - 19:35:16 11/16/2011 - 19:36:03 11/16/2011 - 19:36:44
Vote Up/Down - 6.x-1.x Release link 6.x-1.x 11/17/2011 - 05:57:36 11/17/2011 - 05:58:03 11/17/2011 - 05:58:28
Drush - 7.x-4.x Release link 7.x-4.x 11/17/2011 - 05:58:37 11/17/2011 - 05:59:03 11/17/2011 - 05:59:34
scroll to top - 7.x-2.x Release link 7.x-2.x 11/17/2011 - 10:08:41 11/17/2011 - 10:09:02 11/17/2011 - 10:09:27
scroll to top - 6.x-2.x Release link 6.x-2.x 11/17/2011 - 10:11:13 11/17/2011 - 10:12:03 11/17/2011 - 10:12:15
Recommender API - 7.x-4.0-alpha4 Release link 7.x-4.0-alpha4 11/17/2011 - 12:37:38 11/17/2011 - 12:38:03 11/17/2011 - 12:38:36
Where I Am - 7.x-1.x Release link 7.x-1.x 11/17/2011 - 16:19:37 11/17/2011 - 16:20:02 11/17/2011 - 16:20:25
Context by Node - 6.x-1.3 Release link 6.x-1.3 11/17/2011 - 18:26:36 11/17/2011 - 18:27:02 11/17/2011 - 18:27:30
Menu Settings per Content Type - 6.x-2.x Release link 6.x-2.x 11/17/2011 - 19:27:37 11/17/2011 - 19:28:03 11/17/2011 - 19:28:16
Multi-Factor Authentication - 6.x-1.0-beta1 Release link 6.x-1.0-beta1 11/17/2011 - 19:48:37 11/17/2011 - 19:49:02 11/17/2011 - 19:49:16
Apache Solr Custom Path - 6.x-2.4 Release link 6.x-2.4 11/18/2011 - 02:26:36 11/18/2011 - 02:27:03 11/18/2011 - 02:27:29
SinaWeibo - 7.x-1.x Release link 7.x-1.x 11/18/2011 - 02:59:37 11/18/2011 - 03:00:02 11/18/2011 - 03:00:26
Apache Solr Custom Path - 6.x-2.x Release link 6.x-2.x 11/18/2011 - 03:13:37 11/18/2011 - 03:14:02 11/18/2011 - 03:14:34
Media: TED - 6.x-1.0-beta2 Release link 6.x-1.0-beta2 11/18/2011 - 10:20:39 11/18/2011 - 10:21:04 11/18/2011 - 10:21:26
Profile Complete Percent - 7.x-1.x Release link 7.x-1.x 11/19/2011 - 20:24:36 11/19/2011 - 20:25:00 11/19/2011 - 20:25:24
Easy authcache - 6.x-2.x Release link 6.x-2.x 11/20/2011 - 07:54:36 11/20/2011 - 07:55:03 11/20/2011 - 07:55:26
jQuery Msg Alert - 7.x-2.x Release link 7.x-2.x 11/20/2011 - 12:12:38 11/20/2011 - 12:13:03 11/20/2011 - 12:13:29
jQuery Msg Alert - 6.x-2.x Release link 6.x-2.x 11/20/2011 - 12:12:38 11/20/2011 - 12:13:03 11/20/2011 - 12:13:30
Brain Forum Moderation - 7.x-1.x Release link 7.x-1.x 11/20/2011 - 22:23:03 11/20/2011 - 22:23:03 11/20/2011 - 22:23:26
Visual Website Optimizer - 6.x-1.x Release link 6.x-1.x 11/21/2011 - 02:44:37 11/21/2011 - 02:45:03 11/21/2011 - 02:45:16
Profile2 Registration Path - 7.x-1.0-beta2 Release link 7.x-1.0-beta2 11/21/2011 - 05:44:37 11/21/2011 - 05:45:03 11/21/2011 - 05:45:26
Maintenance - 6.x-1.x Release link 6.x-1.x 11/21/2011 - 11:27:37 11/21/2011 - 11:28:03 11/21/2011 - 11:28:55
Profile Checkboxes - 6.x-1.x Release link 6.x-1.x 11/21/2011 - 15:29:36 11/21/2011 - 15:30:03 11/21/2011 - 15:30:23
UC Attribute Stock - 7.x-1.x Release link 7.x-1.x 11/21/2011 - 17:42:38 11/21/2011 - 17:43:04 11/21/2011 - 17:43:47
Block Title Link - 7.x-1.2 Release link 7.x-1.2 11/21/2011 - 21:44:11 11/21/2011 - 21:44:11 11/21/2011 - 21:44:26
Translatable Regions - 7.x-1.x Release link 7.x-1.x 11/21/2011 - 22:32:37 11/21/2011 - 22:33:28 11/21/2011 - 22:33:54
Google Maps API V3 - 7.x-1.x Release link 7.x-1.x 11/22/2011 - 12:43:38 11/22/2011 - 12:49:00 11/22/2011 - 12:49:39
Slickgrid - 7.x-1.x Release link 7.x-1.x 11/22/2011 - 14:32:37 11/22/2011 - 14:33:03 11/22/2011 - 14:34:26
Paypal API - 7.x-1.2-beta3 Release link 7.x-1.2-beta3 11/22/2011 - 16:34:37 11/22/2011 - 16:35:02 11/22/2011 - 16:35:26
Stepper Field - 7.x-1.0-beta2 Release link 7.x-1.0-beta2 11/22/2011 - 20:00:53 11/22/2011 - 20:01:03 11/22/2011 - 20:01:28
YIID Like/Dislike widget - 6.x-1.x Release link 6.x-1.x 11/23/2011 - 08:06:36 11/23/2011 - 08:07:03 11/23/2011 - 08:07:17
Freightquote - 6.x-1.x Release link 6.x-1.x 11/23/2011 - 08:06:36 11/23/2011 - 08:07:17 11/23/2011 - 08:07:52
Taskbar - 6.x-1.0-beta6 Release link 6.x-1.0-beta6 11/23/2011 - 08:06:36 11/23/2011 - 08:07:03 11/23/2011 - 08:08:11
OpenX Manager - 6.x-1.01 Release link 6.x-1.01 11/23/2011 - 08:09:37 11/23/2011 - 08:10:03 11/23/2011 - 08:10:17
OpenX Manager - 6.x-1.02 Release link 6.x-1.02 11/23/2011 - 08:09:37 11/23/2011 - 08:10:03 11/23/2011 - 08:10:30
OpenX Manager - 7.x-1.x Release link 7.x-1.x 11/23/2011 - 08:09:37 11/23/2011 - 08:10:03 11/23/2011 - 08:11:02
Commerce Checkout Progress - 7.x-1.1 Release link 7.x-1.1 11/23/2011 - 08:09:37 11/23/2011 - 08:10:30 11/23/2011 - 08:11:55
Commerce Checkout Progress - 7.x-1.x Release link 7.x-1.x 11/23/2011 - 08:09:37 11/23/2011 - 08:10:17 11/23/2011 - 08:11:56
Email Field - 7.x-1.x Release link 7.x-1.x 11/23/2011 - 17:04:22 11/23/2011 - 17:05:03 11/23/2011 - 17:05:27
Ajax Blocks - 6.x-1.6 Release link 6.x-1.6 11/23/2011 - 18:35:37 11/23/2011 - 18:36:03 11/23/2011 - 18:36:15
Ajax Blocks - 7.x-1.1 Release link 7.x-1.1 11/23/2011 - 18:36:36 11/23/2011 - 18:37:02 11/23/2011 - 18:37:26
Gallery formatter - 7.x-1.x Release link 7.x-1.x 11/24/2011 - 00:01:12 11/24/2011 - 00:04:49 11/24/2011 - 00:05:21
Views Accordion - 6.x-1.x Release link 6.x-1.x 11/24/2011 - 00:01:12 11/24/2011 - 00:02:13 11/24/2011 - 00:05:40
Views Accordion - 7.x-1.x Release link 7.x-1.x 11/24/2011 - 00:01:12 11/24/2011 - 00:05:21 11/24/2011 - 00:06:46
Validation functions - 7.x-0.x Release link 7.x-0.x 11/24/2011 - 10:31:08 11/24/2011 - 10:32:02 11/24/2011 - 10:32:26
AddThis - 7.x-4.x Release link 7.x-4.x 11/24/2011 - 11:25:38 11/24/2011 - 11:26:02 11/24/2011 - 11:26:27
Voting API - 6.x-2.x Release link 6.x-2.x 11/24/2011 - 16:55:38 11/24/2011 - 16:56:02 11/24/2011 - 16:56:23
Voting API - 7.x-2.x Release link 7.x-2.x 11/24/2011 - 16:55:38 11/24/2011 - 16:56:02 11/24/2011 - 16:56:53
Commerce platnosci.pl - 7.x-1.x Release link 7.x-1.x 11/24/2011 - 17:19:37 11/24/2011 - 17:20:03 11/24/2011 - 17:20:45
Comment whitelist - 6.x-1.0-rc1 Release link 6.x-1.0-rc1 11/25/2011 - 11:24:37 11/25/2011 - 11:25:02 11/25/2011 - 11:25:15
Twitter import - 7.x-1.x Release link 7.x-1.x 11/25/2011 - 14:13:37 11/25/2011 - 14:14:02 11/25/2011 - 14:14:26
Views Watchdog - 7.x-3.x Release link 7.x-3.x 11/26/2011 - 11:27:37 11/26/2011 - 11:28:03 11/26/2011 - 11:28:50
Twitter Profile Widget - 7.x-1.x Release link 7.x-1.x 11/27/2011 - 10:58:37 11/27/2011 - 10:59:03 11/27/2011 - 10:59:27
Notifications - 6.x-4.0-alpha3 Release link 6.x-4.0-alpha3 11/28/2011 - 12:09:36 11/28/2011 - 12:10:02 11/28/2011 - 12:11:00
XML sitemap - 6.x-1.x Release link 6.x-1.x 11/28/2011 - 16:43:38 11/28/2011 - 16:49:01 11/28/2011 - 16:49:09
Commerce PDF Invoice - 7.x-1.x Release link 7.x-1.x 11/29/2011 - 05:47:36 11/29/2011 - 05:48:02 11/29/2011 - 05:49:17
Commerce File - 7.x-1.x Release link 7.x-1.x 11/29/2011 - 20:45:37 11/29/2011 - 20:46:03 11/29/2011 - 20:46:53
Views Quicksand - 7.x-1.x Release link 7.x-1.x 11/29/2011 - 23:22:38 11/29/2011 - 23:22:54 11/29/2011 - 23:23:44
Media: tvbrussel - 6.x-1.x Release link 6.x-1.x 11/30/2011 - 08:13:38 11/30/2011 - 08:14:03 11/30/2011 - 08:14:50
Elements - 6.x-1.x Release link 6.x-1.x 11/30/2011 - 09:04:37 11/30/2011 - 09:05:03 11/30/2011 - 09:05:23
Author Pane - 7.x-2.0-alpha1 Release link 7.x-2.0-alpha1 11/30/2011 - 21:39:36 11/30/2011 - 21:40:03 11/30/2011 - 21:40:29
EHS Ad Bridge - 6.x-1.x Release link 6.x-1.x 12/01/2011 - 01:55:37 12/01/2011 - 01:56:03 12/01/2011 - 01:56:16
Object cache - 6.x-1.x Release link 6.x-1.x 12/01/2011 - 08:53:37 12/01/2011 - 08:54:03 12/01/2011 - 08:54:32
Comment Upload - 6.x-1.x Release link 6.x-1.x 12/01/2011 - 10:04:37 12/01/2011 - 10:10:57 12/01/2011 - 10:11:12
Chaos tool suite (ctools) - 7.x-1.0-rc1 Release link 7.x-1.0-rc1 12/01/2011 - 10:16:37 12/01/2011 - 10:16:47 12/01/2011 - 10:17:24
Clientside Validation - 7.x-1.x Release link 7.x-1.x 12/01/2011 - 13:18:37 12/01/2011 - 13:19:03 12/01/2011 - 13:19:53
Contextual Block Hide - 7.x-1.x Release link 7.x-1.x 12/01/2011 - 13:27:37 12/01/2011 - 13:28:02 12/01/2011 - 13:28:29
Country codes API - 6.x-1.2-beta1 Release link 6.x-1.2-beta1 12/01/2011 - 15:05:38 12/01/2011 - 15:06:03 12/01/2011 - 15:07:09
Bundle copy - 7.x-1.x Release link 7.x-1.x 12/02/2011 - 03:20:40 12/02/2011 - 03:21:03 12/02/2011 - 03:21:38
Steps - 6.x-1.1 Release link 6.x-1.1 12/02/2011 - 10:08:36 12/02/2011 - 10:09:03 12/02/2011 - 10:09:15
OpenSearch feed - 6.x-2.x Release link 6.x-2.x 12/03/2011 - 01:04:37 12/03/2011 - 01:05:03 12/03/2011 - 01:05:18
OpenSearch feed - 7.x-2.x Release link 7.x-2.x 12/03/2011 - 02:04:36 12/03/2011 - 02:05:02 12/03/2011 - 02:05:31
Content API - 6.x-1.x Release link 6.x-1.x 12/03/2011 - 03:07:38 12/03/2011 - 03:08:03 12/03/2011 - 03:08:10
OpenSearch feed - 6.x-1.x Release link 6.x-1.x 12/03/2011 - 15:33:36 12/03/2011 - 15:34:03 12/03/2011 - 15:34:18
Default Content - 7.x-1.0-alpha4 Release link 7.x-1.0-alpha4 12/03/2011 - 19:03:38 12/03/2011 - 19:04:03 12/03/2011 - 19:04:32
User Details - 7.x-1.3 Release link 7.x-1.3 12/04/2011 - 13:20:39 12/04/2011 - 13:21:03 12/04/2011 - 13:21:26
Ubuntu Drupal Countdown - 6.x-6.x Release link 6.x-6.x 12/04/2011 - 21:12:38 12/04/2011 - 21:13:02 12/04/2011 - 21:13:14
Kerberos Authentication - 6.x-1.x Release link 6.x-1.x 12/04/2011 - 21:21:06 12/04/2011 - 21:21:20 12/04/2011 - 21:21:28
Kerberos Authentication - 6.x-2.0-alpha1 Release link 6.x-2.0-alpha1 12/04/2011 - 21:21:37 12/04/2011 - 21:21:56 12/04/2011 - 21:22:03
Rooms - 7.x-1.x Release link 7.x-1.x 12/05/2011 - 01:34:38 12/05/2011 - 01:35:03 12/05/2011 - 01:36:34
Textile - 7.x-2.x Release link 7.x-2.x 12/05/2011 - 15:42:38 12/05/2011 - 15:43:03 12/05/2011 - 15:43:28
Textile - 6.x-3.0-alpha1 Release link 6.x-3.0-alpha1 12/05/2011 - 15:43:37 12/05/2011 - 15:44:03 12/05/2011 - 15:44:16
EIM - 7.x-1.1 Release link 7.x-1.1 12/05/2011 - 22:17:38 12/05/2011 - 22:18:03 12/05/2011 - 22:18:26
EHS Ad Bridge - 6.x-1.3 Release link 6.x-1.3 12/05/2011 - 23:29:37 12/05/2011 - 23:30:02 12/05/2011 - 23:30:15
LESS CSS Preprocessor - 7.x-2.x Release link 7.x-2.x 12/06/2011 - 08:20:39 12/06/2011 - 08:21:03 12/06/2011 - 08:21:32
Apache Solr Views - 7.x-1.x Release link 7.x-1.x 12/06/2011 - 08:56:38 12/06/2011 - 08:57:03 12/06/2011 - 08:58:22
OpenLayers - 7.x-2.0-beta1 Release link 7.x-2.0-beta1 12/06/2011 - 14:47:36 12/06/2011 - 14:48:03 12/06/2011 - 14:49:16
Excommunicate - 6.x-1.x Release link 6.x-1.x 12/06/2011 - 15:54:38 12/06/2011 - 15:55:03 12/06/2011 - 15:55:15
Calendar - 6.x-2.x Release link 6.x-2.x 12/06/2011 - 19:01:10 12/06/2011 - 19:01:30 12/06/2011 - 19:01:59
Calendar - 7.x-3.x Release link 7.x-3.x 12/06/2011 - 19:01:10 12/06/2011 - 19:01:39 12/06/2011 - 19:02:33
Trademark - 7.x-1.0 Release link 7.x-1.0 12/07/2011 - 00:03:39 12/07/2011 - 00:04:03 12/07/2011 - 00:04:33
Gallery formatter - 6.x-1.x Release link 6.x-1.x 12/07/2011 - 12:51:36 12/07/2011 - 12:52:03 12/07/2011 - 12:53:00
Menu position - 7.x-1.x Release link 7.x-1.x 12/07/2011 - 14:54:37 12/07/2011 - 14:55:03 12/07/2011 - 14:55:10
Steps - 6.x-2.x Release link 6.x-2.x 12/07/2011 - 16:30:48 12/07/2011 - 16:31:03 12/07/2011 - 16:31:24
Check Profile - 7.x-1.x Release link 7.x-1.x 12/08/2011 - 11:10:40 12/08/2011 - 11:11:03 12/08/2011 - 11:11:38
Context Metadata - 6.x-1.x Release link 6.x-1.x 12/08/2011 - 16:45:37 12/08/2011 - 16:46:03 12/08/2011 - 16:46:37
Hotel Booking System for Ubercart - 7.x-1.x Release link 7.x-1.x 12/09/2011 - 20:02:03 12/09/2011 - 20:02:04 12/09/2011 - 20:02:15
Hierarchical Select - 7.x-3.0-alpha5 Release link 7.x-3.0-alpha5 12/10/2011 - 13:39:37 12/10/2011 - 13:40:03 12/10/2011 - 13:41:15
Hierarchical Select - 7.x-3.x Release link 7.x-3.x 12/10/2011 - 13:40:40 12/10/2011 - 13:41:15 12/10/2011 - 13:42:01
OM Maximenu - 7.x-1.39 Release link 7.x-1.39 12/11/2011 - 14:21:37 12/11/2011 - 14:22:03 12/11/2011 - 14:22:36
OM Maximenu - 6.x-1.39 Release link 6.x-1.39 12/11/2011 - 14:22:38 12/11/2011 - 14:23:03 12/11/2011 - 14:23:22
Commerce Credits - 7.x-1.x Release link 7.x-1.x 12/12/2011 - 09:31:40 12/12/2011 - 09:32:03 12/12/2011 - 09:32:52
Internationalization - 7.x-1.2 Release link 7.x-1.2 12/12/2011 - 11:10:10 12/12/2011 - 11:10:31 12/12/2011 - 11:11:02
Views - 7.x-3.0-rc3 Release link 7.x-3.0-rc3 12/12/2011 - 11:16:03 12/12/2011 - 11:16:15 12/12/2011 - 11:22:33
Domain Menu Block - 7.x-1.x Release link 7.x-1.x 12/12/2011 - 21:53:38 12/12/2011 - 21:54:03 12/12/2011 - 21:54:26
Country codes API - 6.x-1.x Release link 6.x-1.x 12/13/2011 - 06:38:37 12/13/2011 - 06:39:03 12/13/2011 - 06:40:16
Salesforce Suite - 7.x-2.x Release link 7.x-2.x 12/14/2011 - 11:23:38 12/14/2011 - 11:24:03 12/14/2011 - 11:24:39
External Links - 7.x-1.12 Release link 7.x-1.12 12/14/2011 - 11:58:37 12/14/2011 - 11:59:03 12/14/2011 - 11:59:26
CMIS API - 7.x-1.x Release link 7.x-1.x 12/14/2011 - 17:56:37 12/14/2011 - 17:57:03 12/14/2011 - 17:57:28
Menu block - 7.x-2.x Release link 7.x-2.x 12/15/2011 - 14:48:36 12/15/2011 - 14:49:03 12/15/2011 - 14:49:16
Ubercart ajax cart - 6.x-2.x Release link 6.x-2.x 12/15/2011 - 14:49:37 12/15/2011 - 14:50:03 12/15/2011 - 14:50:29
Book made simple - 7.x-3.3 Release link 7.x-3.3 12/15/2011 - 14:59:36 12/15/2011 - 15:00:19 12/15/2011 - 15:00:27
OG Tasks - 7.x-1.x Release link 7.x-1.x 12/16/2011 - 05:02:36 12/16/2011 - 05:03:03 12/16/2011 - 05:03:50
Drupal Ipsum - 7.x-1.x Release link 7.x-1.x 12/16/2011 - 07:21:37 12/16/2011 - 07:22:02 12/16/2011 - 07:22:39
G2 Glossary - 7.x-1.x Release link 7.x-1.x 12/16/2011 - 13:18:36 12/16/2011 - 13:19:03 12/16/2011 - 13:19:47
Ubercart Cart Login Flow - 6.x-1.x Release link 6.x-1.x 12/16/2011 - 19:12:37 12/16/2011 - 19:24:07 12/16/2011 - 19:24:13
Ubercart Cart Login Flow - 7.x-1.x Release link 7.x-1.x 12/16/2011 - 19:13:37 12/16/2011 - 19:24:13 12/16/2011 - 19:24:18
Settings Menu Link - 7.x-1.0 Release link 7.x-1.0 12/17/2011 - 18:02:22 12/17/2011 - 18:03:03 12/17/2011 - 18:03:28
Settings Menu Link - 7.x-1.x Release link 7.x-1.x 12/17/2011 - 18:14:37 12/17/2011 - 18:15:03 12/17/2011 - 18:15:28
Module Grants - 6.x-3.x Release link 6.x-3.x 12/18/2011 - 11:27:37 12/18/2011 - 11:28:03 12/18/2011 - 11:28:19
PMB Connector - 7.x-1.0-alpha2 Release link 7.x-1.0-alpha2 12/18/2011 - 14:43:03 12/18/2011 - 14:43:03 12/18/2011 - 14:43:09
PMB Connector - 6.x-1.0-alpha3 Release link 6.x-1.0-alpha3 12/18/2011 - 14:43:37 12/18/2011 - 14:44:02 12/18/2011 - 14:44:27
PMB Connector - 6.x-1.0-alpha2 Release link 6.x-1.0-alpha2 12/18/2011 - 14:43:37 12/18/2011 - 14:44:18 12/18/2011 - 14:44:32
PMB Connector - 7.x-1.0-alpha3 Release link 7.x-1.0-alpha3 12/18/2011 - 14:43:37 12/18/2011 - 14:44:04 12/18/2011 - 14:44:32
E-Publish - 6.x-1.x Release link 6.x-1.x 12/19/2011 - 00:25:37 12/19/2011 - 00:26:03 12/19/2011 - 00:26:34
Views - 7.x-3.0 Release link 7.x-3.0 12/19/2011 - 06:29:37 12/19/2011 - 06:30:03 12/19/2011 - 06:36:13
Pirobox - 7.x-1.x Release link 7.x-1.x 12/19/2011 - 10:29:36 12/19/2011 - 10:30:03 12/19/2011 - 10:30:10
Ad Flash - 6.x-2.8-alpha1 Release link 6.x-2.8-alpha1 12/19/2011 - 10:50:39 12/19/2011 - 10:51:03 12/19/2011 - 10:51:28
PagePeeker Screenshots - 7.x-1.0 Release link 7.x-1.0 12/20/2011 - 13:09:36 12/20/2011 - 13:10:03 12/20/2011 - 13:10:28
Ad Flash - 6.x-2.8-beta2 Release link 6.x-2.8-beta2 12/20/2011 - 14:58:37 12/20/2011 - 14:59:14 12/20/2011 - 14:59:21
Feeds PHP array parser - 7.x-1.x Release link 7.x-1.x 12/20/2011 - 16:07:37 12/20/2011 - 16:08:03 12/20/2011 - 16:08:27
Optional mail on register - 6.x-1.x Release link 6.x-1.x 12/20/2011 - 21:40:39 12/20/2011 - 21:41:03 12/20/2011 - 21:41:16
Drupal Commerce - 7.x-1.0 Release link 7.x-1.0 12/21/2011 - 14:14:11 12/21/2011 - 14:20:25 12/21/2011 - 14:31:34
Organic Group Statistics - 6.x-1.0-rc5 Release link 6.x-1.0-rc5 12/21/2011 - 23:15:37 12/21/2011 - 23:16:36 12/21/2011 - 23:16:38
Sarnia - 7.x-1.x Release link 7.x-1.x 12/22/2011 - 05:36:37 12/22/2011 - 05:37:03 12/22/2011 - 05:37:12
Amazon Web Services API - 6.x-1.x Release link 6.x-1.x 12/22/2011 - 05:49:36 12/22/2011 - 05:50:03 12/22/2011 - 05:50:29
Amazon Web Services API - 6.x-1.2 Release link 6.x-1.2 12/22/2011 - 05:50:39 12/22/2011 - 05:51:03 12/22/2011 - 05:51:30
REST Client - 6.x-1.0 Release link 6.x-1.0 12/22/2011 - 05:52:38 12/22/2011 - 05:53:00 12/22/2011 - 05:53:05
Couchbase - 7.x-1.x Release link 7.x-1.x 12/22/2011 - 10:13:37 12/22/2011 - 10:15:23 12/22/2011 - 10:15:30
Cloud - 6.x-1.2 Release link 6.x-1.2 12/22/2011 - 18:53:03 12/22/2011 - 18:53:08 12/22/2011 - 18:53:24
Pushtape Features - 7.x-1.x Release link 7.x-1.x 12/23/2011 - 06:27:36 12/23/2011 - 06:29:34 12/23/2011 - 06:29:42
Cloud - 6.x-1.x Release link 6.x-1.x 12/23/2011 - 06:56:03 12/23/2011 - 06:56:05 12/23/2011 - 06:56:38
One Click Upload - 7.x-1.x Release link 7.x-1.x 12/25/2011 - 15:46:37 12/25/2011 - 15:47:03 12/25/2011 - 15:47:26
Facebook Application Framework - 6.x-1.x Release link 6.x-1.x 12/27/2011 - 03:15:37 12/27/2011 - 03:16:02 12/27/2011 - 03:16:36
Commerce price table - 7.x-1.x Release link 7.x-1.x 12/27/2011 - 08:14:37 12/27/2011 - 08:15:03 12/27/2011 - 08:16:25
Textualizer - Text Animation Effect - 7.x-1.x Release link 7.x-1.x 12/28/2011 - 20:42:38 12/28/2011 - 20:43:03 12/28/2011 - 20:43:28
Gallery Assist X Formatters - 6.x-1.x Release link 6.x-1.x 12/30/2011 - 19:56:37 12/30/2011 - 19:57:02 12/30/2011 - 19:57:23
User categories - 7.x-1.x Release link 7.x-1.x 12/31/2011 - 09:56:37 12/31/2011 - 09:57:04 12/31/2011 - 09:57:38
Data Visualization API - 7.x-1.x Release link 7.x-1.x 01/01/2012 - 00:15:37 01/01/2012 - 00:39:30 01/01/2012 - 00:39:40
SocialFlow - 7.x-1.x Release link 7.x-1.x 01/01/2012 - 01:20:13 01/01/2012 - 01:21:21 01/01/2012 - 01:21:29
Text or Nodereference - 6.x-1.0 Release link 6.x-1.0 01/02/2012 - 18:23:38 01/02/2012 - 18:24:03 01/02/2012 - 18:24:25
MyMenu - 7.x-1.x Release link 7.x-1.x 01/03/2012 - 08:01:26 01/03/2012 - 08:04:49 01/03/2012 - 08:04:57
Ubercart ConsTriv - 6.x-1.x Release link 6.x-1.x 01/03/2012 - 14:42:37 01/03/2012 - 14:43:03 01/03/2012 - 14:43:26
Gist Input Filter - 7.x-1.1 Release link 7.x-1.1 01/04/2012 - 00:21:13 01/04/2012 - 00:22:54 01/04/2012 - 00:23:02
Contextual links - 7.x-2.0-alpha1 Release link 7.x-2.0-alpha1 01/04/2012 - 00:55:38 01/04/2012 - 01:01:47 01/04/2012 - 01:01:52
Fixed Field - 7.x-1.x Release link 7.x-1.x 01/04/2012 - 05:19:38 01/04/2012 - 05:20:03 01/04/2012 - 05:20:33
Wysiwyg Extra - 6.x-1.x Release link 6.x-1.x 01/04/2012 - 17:09:37 01/04/2012 - 17:10:02 01/04/2012 - 17:10:18
Internal Nodes - 7.x-1.1 Release link 7.x-1.1 01/04/2012 - 21:13:36 01/04/2012 - 21:14:49 01/04/2012 - 21:14:57
Corresponding node references - 7.x-4.1 Release link 7.x-4.1 01/04/2012 - 23:52:38 01/04/2012 - 23:53:03 01/04/2012 - 23:53:27
User Points - 6.x-1.x Release link 6.x-1.x 01/06/2012 - 06:36:36 01/06/2012 - 06:37:03 01/06/2012 - 06:38:07
PHPExcel - 6.x-1.x Release link 6.x-1.x 01/06/2012 - 12:21:36 01/06/2012 - 12:22:20 01/06/2012 - 12:22:32
Media: Yandex Video - 7.x-1.x Release link 7.x-1.x 01/06/2012 - 16:50:39 01/06/2012 - 16:51:03 01/06/2012 - 16:51:28
Page Title - 7.x-2.x Release link 7.x-2.x 01/06/2012 - 18:12:25 01/06/2012 - 18:13:41 01/06/2012 - 18:13:53
Page Title - 6.x-2.x Release link 6.x-2.x 01/06/2012 - 18:14:03 01/06/2012 - 18:14:04 01/06/2012 - 18:14:37
Views Supertable - 7.x-1.x Release link 7.x-1.x 01/06/2012 - 19:30:06 01/06/2012 - 19:30:29 01/06/2012 - 19:30:37
jSlider Forms API - 6.x-1.x Release link 6.x-1.x 01/07/2012 - 14:32:37 01/07/2012 - 14:33:03 01/07/2012 - 14:33:17
jSlider Forms API - 6.x-1.0 Release link 6.x-1.0 01/07/2012 - 14:33:37 01/07/2012 - 14:34:03 01/07/2012 - 14:34:22
Contact Forms - 7.x-1.x Release link 7.x-1.x 01/07/2012 - 19:00:54 01/07/2012 - 19:01:32 01/07/2012 - 19:01:39
Gravatar integration - 6.x-1.x Release link 6.x-1.x 01/07/2012 - 19:58:36 01/07/2012 - 19:59:03 01/07/2012 - 19:59:22
Views Global Filter - 7.x-1.x Release link 7.x-1.x 01/08/2012 - 01:32:38 01/08/2012 - 01:33:03 01/08/2012 - 01:33:29
Poll Blocks - 7.x-1.x Release link 7.x-1.x 01/09/2012 - 05:58:36 01/09/2012 - 05:59:03 01/09/2012 - 05:59:25
Quote - 7.x-1.x Release link 7.x-1.x 01/09/2012 - 18:35:04 01/09/2012 - 18:35:52 01/09/2012 - 18:36:00
SSH Login - 7.x-1.x Release link 7.x-1.x 01/09/2012 - 20:15:37 01/09/2012 - 20:16:03 01/09/2012 - 20:16:25
Guiders-JS - 7.x-1.2 Release link 7.x-1.2 01/10/2012 - 12:30:52 01/10/2012 - 12:31:28 01/10/2012 - 12:31:34
Guiders-JS - 7.x-1.x Release link 7.x-1.x 01/10/2012 - 13:12:38 01/10/2012 - 13:13:03 01/10/2012 - 13:13:28
Evanced Events Importer - 6.x-2.x Release link 6.x-2.x 01/10/2012 - 17:12:37 01/10/2012 - 17:13:17 01/10/2012 - 17:13:24
Field Permissions - 7.x-1.x Release link 7.x-1.x 01/10/2012 - 21:07:37 01/10/2012 - 21:08:03 01/10/2012 - 21:09:00
Vote Up/Down - 6.x-2.x Release link 6.x-2.x 01/11/2012 - 03:06:37 01/11/2012 - 03:07:03 01/11/2012 - 03:07:32
Mode - 7.x-1.0-alpha1 Release link 7.x-1.0-alpha1 01/11/2012 - 05:49:37 01/11/2012 - 05:50:03 01/11/2012 - 05:50:30
LoginToboggan - 7.x-1.3 Release link 7.x-1.3 01/11/2012 - 13:03:37 01/11/2012 - 13:04:04 01/11/2012 - 13:04:36
FullCalendar - 7.x-2.x Release link 7.x-2.x 01/11/2012 - 19:51:36 01/11/2012 - 19:52:03 01/11/2012 - 19:53:03
mojeID integration - 7.x-1.x Release link 7.x-1.x 01/11/2012 - 23:15:36 01/11/2012 - 23:16:03 01/11/2012 - 23:16:27
mojeID integration - 6.x-1.x Release link 6.x-1.x 01/11/2012 - 23:15:36 01/11/2012 - 23:16:03 01/11/2012 - 23:16:40
mojeID integration - 7.x-1.1 Release link 7.x-1.1 01/11/2012 - 23:15:36 01/11/2012 - 23:16:27 01/11/2012 - 23:16:45
mojeID integration - 6.x-1.0-beta3 Release link 6.x-1.0-beta3 01/11/2012 - 23:15:36 01/11/2012 - 23:16:13 01/11/2012 - 23:16:54
Mongodb - 6.x-1.x Release link 6.x-1.x 01/13/2012 - 15:26:37 01/13/2012 - 15:27:52 01/13/2012 - 15:28:00
Node Accessibility - 7.x-1.x Release link 7.x-1.x 01/13/2012 - 15:56:37 01/13/2012 - 15:58:24 01/13/2012 - 15:58:30
Menu Views - 7.x-1.1 Release link 7.x-1.1 01/13/2012 - 19:35:09 01/13/2012 - 19:35:48 01/13/2012 - 19:35:53
Profile2 Registration Path - 7.x-1.0 Release link 7.x-1.0 01/14/2012 - 04:13:36 01/14/2012 - 04:14:03 01/14/2012 - 04:14:31
Profile2 Registration Path - 7.x-1.0-alpha1 Release link 7.x-1.0-alpha1 01/14/2012 - 04:19:37 01/14/2012 - 04:20:03 01/14/2012 - 04:20:31
Profile2 Registration Path - 7.x-1.2 Release link 7.x-1.2 01/14/2012 - 04:53:36 01/14/2012 - 04:54:03 01/14/2012 - 04:54:26
Password reset - 7.x-1.x Release link 7.x-1.x 01/14/2012 - 19:44:36 01/14/2012 - 19:45:03 01/14/2012 - 19:46:14
Date picker formatter - 7.x-2.x Release link 7.x-2.x 01/15/2012 - 00:21:36 01/15/2012 - 00:22:35 01/15/2012 - 00:22:42
Date picker formatter - 6.x-2.x Release link 6.x-2.x 01/15/2012 - 00:36:37 01/15/2012 - 00:37:03 01/15/2012 - 00:38:56
Sms payments Mobio - 6.x-1.x Release link 6.x-1.x 01/15/2012 - 11:18:36 01/15/2012 - 11:19:03 01/15/2012 - 11:19:25
Mapstraction - 6.x-2.x Release link 6.x-2.x 01/15/2012 - 12:12:36 01/15/2012 - 12:13:02 01/15/2012 - 12:13:43
Iframe - 6.x-1.8 Release link 6.x-1.8 01/15/2012 - 20:04:37 01/15/2012 - 20:21:42 01/15/2012 - 20:21:49
Nivo Formatter - 7.x-1.x Release link 7.x-1.x 01/16/2012 - 02:40:38 01/16/2012 - 02:41:33 01/16/2012 - 02:41:42
Dwolla - 7.x-1.x Release link 7.x-1.x 01/16/2012 - 13:50:38 01/16/2012 - 13:51:02 01/16/2012 - 13:51:37
easyrec for ubercart - 7.x-1.4 Release link 7.x-1.4 01/16/2012 - 14:15:37 01/16/2012 - 14:16:03 01/16/2012 - 14:16:25
Profile2 Registration Path - 7.x-1.3 Release link 7.x-1.3 01/16/2012 - 19:01:39 01/16/2012 - 19:02:03 01/16/2012 - 19:02:26
Content Construction Kit (CCK) - 6.x-3.x Release link 6.x-3.x 01/17/2012 - 15:01:53 01/17/2012 - 15:02:03 01/17/2012 - 15:02:44
Field display weights (per node) - 7.x-1.x Release link 7.x-1.x 01/18/2012 - 14:12:37 01/18/2012 - 14:16:53 01/18/2012 - 14:16:59
Hostip - 6.x-1.x Release link 6.x-1.x 01/18/2012 - 16:34:37 01/18/2012 - 16:35:17 01/18/2012 - 16:35:25
jRumble - 7.x-1.x Release link 7.x-1.x 01/19/2012 - 09:43:36 01/19/2012 - 09:44:30 01/19/2012 - 09:44:36
Service links - 7.x-2.x Release link 7.x-2.x 01/19/2012 - 11:17:37 01/19/2012 - 11:18:03 01/19/2012 - 11:19:21
JSnippets - 7.x-1.0-alpha1 Release link 7.x-1.0-alpha1 01/20/2012 - 15:56:37 01/20/2012 - 16:01:58 01/20/2012 - 16:02:17
Password reset - 7.x-1.0-beta1 Release link 7.x-1.0-beta1 01/20/2012 - 15:54:37 01/20/2012 - 16:02:05 01/20/2012 - 16:02:18
Storm Knowledge Base - 6.x-2.x Release link 6.x-2.x 01/21/2012 - 13:48:36 01/21/2012 - 13:48:55 01/21/2012 - 13:49:01
CTools Auto-modal - 7.x-1.x Release link 7.x-1.x 01/22/2012 - 07:08:37 01/22/2012 - 07:20:49 01/22/2012 - 07:20:57
OAuth - 7.x-3.x Release link 7.x-3.x 01/22/2012 - 22:30:52 01/22/2012 - 22:31:03 01/22/2012 - 22:31:29
Google Reader API - 7.x-1.x Release link 7.x-1.x 01/24/2012 - 02:47:37 01/24/2012 - 02:48:03 01/24/2012 - 02:48:38
Remember me - 6.x-2.2 Release link 6.x-2.2 01/24/2012 - 09:34:37 01/24/2012 - 09:35:03 01/24/2012 - 09:35:18
Content Profile - 6.x-1.x Release link 6.x-1.x 01/24/2012 - 23:26:37 01/24/2012 - 23:27:03 01/24/2012 - 23:27:30
Diagnostic Tools - 6.x-1.x Release link 6.x-1.x 01/24/2012 - 23:27:37 01/24/2012 - 23:27:39 01/24/2012 - 23:27:56
Booking Time Slots - 6.x-1.x Release link 6.x-1.x 01/24/2012 - 23:26:37 01/24/2012 - 23:27:30 01/24/2012 - 23:28:46
Taxonomy Access Control - 6.x-1.x Release link 6.x-1.x 01/25/2012 - 04:08:37 01/25/2012 - 04:09:02 01/25/2012 - 04:09:14
Remember me - 6.x-2.x Release link 6.x-2.x 01/25/2012 - 18:31:31 01/25/2012 - 18:32:03 01/25/2012 - 18:32:09
Remember me - 7.x-1.x Release link 7.x-1.x 01/25/2012 - 18:31:31 01/25/2012 - 18:32:03 01/25/2012 - 18:32:27
Porter-Stemmer - 7.x-1.x Release link 7.x-1.x 01/26/2012 - 00:53:04 01/26/2012 - 00:55:00 01/26/2012 - 00:55:02
Porter-Stemmer - 6.x-2.x Release link 6.x-2.x 01/26/2012 - 00:44:36 01/26/2012 - 00:55:47 01/26/2012 - 00:55:50
Commerce Payment Novalnet - 7.x-1.x Release link 7.x-1.x 01/26/2012 - 09:07:37 01/26/2012 - 09:08:03 01/26/2012 - 09:08:35
Drush Compass - 7.x-1.0 Release link 7.x-1.0 01/26/2012 - 11:35:37 01/26/2012 - 11:36:27 01/26/2012 - 11:36:34
VKontakte CrossPoster - 7.x-1.x Release link 7.x-1.x 01/26/2012 - 13:59:36 01/26/2012 - 14:20:49 01/26/2012 - 14:20:58
TagCloud - 7.x-1.x Release link 7.x-1.x 01/26/2012 - 17:38:36 01/26/2012 - 17:46:15 01/26/2012 - 17:46:22
Link - 7.x-1.x Release link 7.x-1.x 01/27/2012 - 08:16:36 01/27/2012 - 08:17:02 01/27/2012 - 08:21:18
Search by Page - 6.x-1.x Release link 6.x-1.x 01/27/2012 - 22:55:37 01/27/2012 - 22:56:03 01/27/2012 - 22:57:10
Profile2 Registration Path - 7.x-1.4 Release link 7.x-1.4 01/28/2012 - 01:40:41 01/28/2012 - 01:41:03 01/28/2012 - 01:41:34
Profile2 Registration Path - 7.x-1.5 Release link 7.x-1.5 01/28/2012 - 03:01:19 01/28/2012 - 03:02:02 01/28/2012 - 03:02:30
Storm - 6.x-1.x Release link 6.x-1.x 01/28/2012 - 10:15:47 01/28/2012 - 10:16:03 01/28/2012 - 10:16:36
HTTP Parallel Request Library - 6.x-1.x Release link 6.x-1.x 01/29/2012 - 00:01:26 01/29/2012 - 00:02:03 01/29/2012 - 00:03:14
HTTP Parallel Request Library - 7.x-1.x Release link 7.x-1.x 01/29/2012 - 00:01:26 01/29/2012 - 00:02:04 01/29/2012 - 00:03:14
Enabled Modules - 7.x-1.x Release link 7.x-1.x 01/29/2012 - 00:24:36 01/29/2012 - 00:25:03 01/29/2012 - 00:27:08
Multi-Language Link and Redirect (MultiLink) - 7.x-2.8 Release link 7.x-2.8 01/30/2012 - 08:50:41 01/30/2012 - 08:51:03 01/30/2012 - 08:51:29
Multi-Language Link and Redirect (MultiLink) - 6.x-2.7 Release link 6.x-2.7 01/30/2012 - 08:51:11 01/30/2012 - 08:51:43 01/30/2012 - 08:51:51
Multi-Language Link and Redirect (MultiLink) - 7.x-2.x Release link 7.x-2.x 01/30/2012 - 11:30:53 01/30/2012 - 11:31:04 01/30/2012 - 11:31:30
Ubercart Custom Sized Products - 6.x-2.x Release link 6.x-2.x 01/30/2012 - 13:04:37 01/30/2012 - 13:05:03 01/30/2012 - 13:05:55
Entity Construction Kit (ECK) - 7.x-2.0-alpha1 Release link 7.x-2.0-alpha1 01/31/2012 - 20:52:37 01/31/2012 - 20:53:04 01/31/2012 - 20:54:09
Just Another Social Module (JASM) - 7.x-1.2-alpha1 Release link 7.x-1.2-alpha1 02/01/2012 - 13:26:36 02/01/2012 - 13:27:35 02/01/2012 - 13:27:45
Views Field View - 7.x-1.0-rc1 Release link 7.x-1.0-rc1 02/02/2012 - 00:41:26 02/02/2012 - 00:44:46 02/02/2012 - 00:44:53
Barcode - 7.x-2.x Release link 7.x-2.x 02/02/2012 - 07:07:37 02/02/2012 - 07:08:03 02/02/2012 - 07:08:38
Barcode - 7.x-2.1 Release link 7.x-2.1 02/02/2012 - 07:08:37 02/02/2012 - 07:09:03 02/02/2012 - 07:09:15
Picon - 6.x-1.x Release link 6.x-1.x 02/02/2012 - 18:17:37 02/02/2012 - 18:18:14 02/02/2012 - 18:18:20
Picon - 6.x-1.0 Release link 6.x-1.0 02/02/2012 - 18:23:37 02/02/2012 - 18:24:14 02/02/2012 - 18:24:20
Picon - 6.x-1.1 Release link 6.x-1.1 02/02/2012 - 19:05:49 02/02/2012 - 19:06:03 02/02/2012 - 19:06:14
Quote - 7.x-1.1-alpha2 Release link 7.x-1.1-alpha2 02/02/2012 - 21:42:36 02/02/2012 - 21:43:51 02/02/2012 - 21:43:59
Examples for Developers - 8.x-1.x Release link 8.x-1.x 02/03/2012 - 07:11:06 02/03/2012 - 07:12:02 02/03/2012 - 07:12:26
Commerce Emporiki Bank - 7.x-1.x Release link 7.x-1.x 02/04/2012 - 11:05:37 02/04/2012 - 11:06:03 02/04/2012 - 11:06:26
Taxonomy CSV import/export - 6.x-5.9 Release link 6.x-5.9 02/04/2012 - 13:34:37 02/04/2012 - 13:35:16 02/04/2012 - 13:35:26
Taxonomy CSV import/export - 7.x-5.9 Release link 7.x-5.9 02/04/2012 - 13:34:37 02/04/2012 - 13:35:03 02/04/2012 - 13:35:28
Feeds URL Fetcher - 7.x-1.x Release link 7.x-1.x 02/06/2012 - 07:15:56 02/06/2012 - 07:16:03 02/06/2012 - 07:17:05
MARC - 6.x-2.x Release link 6.x-2.x 02/06/2012 - 10:31:21 02/06/2012 - 10:32:03 02/06/2012 - 10:32:15
WebID - 7.x-1.x Release link 7.x-1.x 02/07/2012 - 03:40:41 02/07/2012 - 03:41:02 02/07/2012 - 03:41:48
Taxonomy CSV import/export - 7.x-5.x Release link 7.x-5.x 02/08/2012 - 09:17:36 02/08/2012 - 09:18:04 02/08/2012 - 09:18:31
Certify - 6.x-2.0-beta3 Release link 6.x-2.0-beta3 02/08/2012 - 13:18:37 02/08/2012 - 13:19:04 02/08/2012 - 13:19:39
Views RSS: Google Products Elements - 6.x-1.x Release link 6.x-1.x 02/08/2012 - 17:32:36 02/08/2012 - 17:39:27 02/08/2012 - 17:39:34
Views RSS: Google Products Elements - 7.x-1.x Release link 7.x-1.x 02/08/2012 - 17:32:36 02/08/2012 - 17:39:35 02/08/2012 - 17:39:42
Simple Field - 7.x-1.x Release link 7.x-1.x 02/08/2012 - 17:58:37 02/08/2012 - 17:59:02 02/08/2012 - 18:00:46
Campaign Monitor - 7.x-1.x Release link 7.x-1.x 02/08/2012 - 20:32:37 02/08/2012 - 20:37:23 02/08/2012 - 20:37:33
Evanced Events Importer - 7.x-1.x Release link 7.x-1.x 02/08/2012 - 21:24:37 02/08/2012 - 21:25:03 02/08/2012 - 21:25:25
GoToWebinar - 7.x-1.x Release link 7.x-1.x 02/09/2012 - 04:43:36 02/09/2012 - 04:44:02 02/09/2012 - 04:44:29
Rules forms support - 7.x-1.x Release link 7.x-1.x 02/09/2012 - 08:53:37 02/09/2012 - 08:54:02 02/09/2012 - 08:54:40
Storage API - 7.x-1.x Release link 7.x-1.x 02/09/2012 - 08:57:37 02/09/2012 - 08:58:03 02/09/2012 - 08:58:41
Evanced Events Importer - 7.x-2.x Release link 7.x-2.x 02/09/2012 - 21:33:37 02/09/2012 - 21:34:03 02/09/2012 - 21:34:25
ImageCache Token - 7.x-1.x Release link 7.x-1.x 02/09/2012 - 21:47:37 02/09/2012 - 21:48:03 02/09/2012 - 21:48:27
Date Popup Authored - 6.x-1.x Release link 6.x-1.x 02/11/2012 - 00:51:37 02/11/2012 - 00:52:02 02/11/2012 - 00:52:20
Newsletter commerce - 7.x-1.x Release link 7.x-1.x 02/11/2012 - 15:45:48 02/11/2012 - 15:46:02 02/11/2012 - 15:46:47
imce watermark - 7.x-1.x Release link 7.x-1.x 02/13/2012 - 00:13:37 02/13/2012 - 00:14:03 02/13/2012 - 00:14:39
Facebook Photo Sync - 6.x-1.0-beta1 Release link 6.x-1.0-beta1 02/14/2012 - 12:37:38 02/14/2012 - 12:38:03 02/14/2012 - 12:39:00
Facebook Photo Sync - 7.x-1.0-beta1 Release link 7.x-1.0-beta1 02/15/2012 - 22:32:37 02/15/2012 - 22:33:03 02/15/2012 - 22:33:30
ImageCache Actions - 7.x-1.x Release link 7.x-1.x 02/16/2012 - 01:23:37 02/16/2012 - 01:24:03 02/16/2012 - 01:24:32
Geo - 6.x-1.x Release link 6.x-1.x 02/16/2012 - 12:52:37 02/16/2012 - 12:53:03 02/16/2012 - 12:53:33
Route Planner - 6.x-1.x Release link 6.x-1.x 02/16/2012 - 20:47:37 02/16/2012 - 20:47:55 02/16/2012 - 20:48:01
Publications for UCSF Profiles - 6.x-1.0 Release link 6.x-1.0 02/17/2012 - 03:33:36 02/17/2012 - 03:34:02 02/17/2012 - 03:34:44
Alexa Widgets - 6.x-1.x Release link 6.x-1.x 02/18/2012 - 01:51:19 02/18/2012 - 01:52:03 02/18/2012 - 01:52:16
Alexa Widgets - 7.x-1.x Release link 7.x-1.x 02/18/2012 - 01:51:19 02/18/2012 - 01:52:13 02/18/2012 - 01:52:38
Alexa Widgets - 6.x-1.0 Release link 6.x-1.0 02/18/2012 - 01:52:36 02/18/2012 - 01:52:41 02/18/2012 - 01:52:53
Exclude node title - 6.x-1.x Release link 6.x-1.x 02/18/2012 - 11:26:36 02/18/2012 - 11:27:03 02/18/2012 - 11:27:21
Exclude node title - 7.x-1.x Release link 7.x-1.x 02/18/2012 - 11:26:36 02/18/2012 - 11:27:22 02/18/2012 - 11:27:40
Exclude node title - 6.x-1.7 Release link 6.x-1.7 02/19/2012 - 11:26:37 02/19/2012 - 11:27:02 02/19/2012 - 11:27:22
Exclude node title - 7.x-1.4 Release link 7.x-1.4 02/19/2012 - 11:26:37 02/19/2012 - 11:27:09 02/19/2012 - 11:27:32
pclzip_zip_node_files - 7.x-1.x Release link 7.x-1.x 02/20/2012 - 21:39:36 02/20/2012 - 21:42:31 02/20/2012 - 21:42:37
Variable - 7.x-1.x Release link 7.x-1.x 02/21/2012 - 12:21:36 02/21/2012 - 12:22:02 02/21/2012 - 12:22:41
e-Commerce - master Release link master 02/21/2012 - 14:07:37 02/21/2012 - 14:08:03 02/21/2012 - 14:09:35
PostGIS - 7.x-1.x Release link 7.x-1.x 02/21/2012 - 14:37:37 02/21/2012 - 14:38:03 02/21/2012 - 14:38:29
Role Export - 6.x-1.0 Release link 6.x-1.0 02/21/2012 - 22:31:18 02/21/2012 - 22:33:18 02/21/2012 - 22:33:27
Role Export - 6.x-1.x Release link 6.x-1.x 02/22/2012 - 04:32:37 02/22/2012 - 04:33:03 02/22/2012 - 04:33:17
PURL Static - 6.x-1.x Release link 6.x-1.x 02/22/2012 - 06:34:38 02/22/2012 - 06:35:03 02/22/2012 - 06:35:17
Publications for UCSF Profiles - 6.x-2.0 Release link 6.x-2.0 02/22/2012 - 16:07:36 02/22/2012 - 16:08:03 02/22/2012 - 16:08:15
Gist Input Filter - 7.x-1.x Release link 7.x-1.x 02/24/2012 - 03:15:37 02/24/2012 - 03:16:03 02/24/2012 - 03:16:55
Gist Input Filter - 6.x-1.x Release link 6.x-1.x 02/24/2012 - 03:16:36 02/24/2012 - 03:17:02 02/24/2012 - 03:17:10
CCK Multifield help - 6.x-1.x Release link 6.x-1.x 02/24/2012 - 06:00:57 02/24/2012 - 06:01:02 02/24/2012 - 06:01:15
Facebook Connect - 7.x-2.x Release link 7.x-2.x 02/25/2012 - 00:31:02 02/25/2012 - 00:31:03 02/25/2012 - 00:31:30
Canpar Shipping Quotes - 7.x-1.x Release link 7.x-1.x 02/26/2012 - 02:16:36 02/26/2012 - 02:17:03 02/26/2012 - 02:18:13
Canpar Shipping Quotes - 6.x-1.x Release link 6.x-1.x 02/26/2012 - 08:17:36 02/26/2012 - 08:18:02 02/26/2012 - 08:18:17
Alfahosting SMS - 6.x-1.1 Release link 6.x-1.1 02/26/2012 - 14:42:37 02/26/2012 - 14:43:02 02/26/2012 - 14:43:20
Alfahosting SMS - 7.x-1.1 Release link 7.x-1.1 02/26/2012 - 14:42:37 02/26/2012 - 14:43:03 02/26/2012 - 14:43:33
Kerberos Authentication - 7.x-2.0-alpha2 Release link 7.x-2.0-alpha2 02/27/2012 - 22:41:09 02/27/2012 - 22:41:40 02/27/2012 - 22:41:46
Get Locations - 6.x-2.x Release link 6.x-2.x 02/28/2012 - 21:32:37 02/28/2012 - 21:33:02 02/28/2012 - 21:33:28
Remove Generator META tag - 7.x-1.x Release link 7.x-1.x 02/29/2012 - 16:53:37 02/29/2012 - 16:54:54 02/29/2012 - 16:55:01
User Delete - 6.x-1.x Release link 6.x-1.x 03/02/2012 - 14:48:37 03/02/2012 - 14:49:02 03/02/2012 - 14:49:17
Disable breadcrumbs - 7.x-1.x Release link 7.x-1.x 03/03/2012 - 22:58:36 03/03/2012 - 22:59:03 03/03/2012 - 22:59:43
Node import - 6.x-1.x Release link 6.x-1.x 03/04/2012 - 01:59:37 03/04/2012 - 02:38:54 03/04/2012 - 02:39:06
Context Accordion - 7.x-1.x Release link 7.x-1.x 03/04/2012 - 17:12:37 03/04/2012 - 17:13:03 03/04/2012 - 17:13:54
Views Tooltip - 7.x-1.x Release link 7.x-1.x 03/04/2012 - 19:43:37 03/04/2012 - 19:44:03 03/04/2012 - 19:45:00
CCK Signup - 7.x-1.x Release link 7.x-1.x 03/07/2012 - 03:29:03 03/07/2012 - 05:56:09 03/07/2012 - 05:56:19
DataTables - 7.x-1.x Release link 7.x-1.x 03/07/2012 - 09:47:37 03/07/2012 - 09:48:03 03/07/2012 - 09:50:12
Node registration - 7.x-1.x Release link 7.x-1.x 03/07/2012 - 14:07:02 03/07/2012 - 14:07:03 03/07/2012 - 14:07:37
Frequently Asked Questions - 6.x-1.13 Release link 6.x-1.13 03/07/2012 - 14:28:37 03/07/2012 - 14:29:03 03/07/2012 - 14:29:24
User history - 6.x-1.x Release link 6.x-1.x 03/08/2012 - 10:05:39 03/08/2012 - 10:06:19 03/08/2012 - 10:06:25
Download - 7.x-2.1 Release link 7.x-2.1 03/08/2012 - 13:47:36 03/08/2012 - 13:48:03 03/08/2012 - 13:48:28
Download - 7.x-2.x Release link 7.x-2.x 03/08/2012 - 14:58:43 03/08/2012 - 14:59:03 03/08/2012 - 14:59:27
FileField Role Limit - 6.x-1.x Release link 6.x-1.x 03/10/2012 - 15:22:37 03/10/2012 - 15:23:03 03/10/2012 - 15:23:17
himuesgallery - 7.x-1.13-beta3 Release link 7.x-1.13-beta3 03/11/2012 - 00:47:36 03/11/2012 - 00:48:03 03/11/2012 - 00:48:34
Alfahosting SMS - 6.x-1.x Release link 6.x-1.x 03/12/2012 - 10:54:37 03/12/2012 - 10:55:03 03/12/2012 - 10:55:23
Alfahosting SMS - 7.x-1.x Release link 7.x-1.x 03/12/2012 - 10:54:37 03/12/2012 - 10:55:03 03/12/2012 - 10:55:35
UC WePay - 6.x-1.x Release link 6.x-1.x 03/12/2012 - 11:06:36 03/12/2012 - 11:07:03 03/12/2012 - 11:07:23
Configurable Box - 7.x-1.x Release link 7.x-1.x 03/12/2012 - 19:35:37 03/12/2012 - 19:36:30 03/12/2012 - 19:36:37
NodeStream Core - 7.x-2.x Release link 7.x-2.x 03/14/2012 - 14:10:47 03/14/2012 - 14:11:03 03/14/2012 - 14:15:12
Views - 7.x-3.3 Release link 7.x-3.3 03/14/2012 - 17:50:41 03/14/2012 - 18:00:52 03/14/2012 - 18:01:56
Nodereference Views Multifield - 6.x-1.x Release link 6.x-1.x 03/14/2012 - 21:48:37 03/14/2012 - 21:53:28 03/14/2012 - 21:53:50
Views Table Highlighter - 7.x-1.x Release link 7.x-1.x 03/15/2012 - 03:38:36 03/15/2012 - 03:39:04 03/15/2012 - 03:39:59
DSpace - 7.x-1.x Release link 7.x-1.x 03/15/2012 - 14:44:38 03/15/2012 - 14:46:28 03/15/2012 - 14:46:35
Entity Registrations - 7.x-1.0-alpha1 Release link 7.x-1.0-alpha1 03/16/2012 - 15:38:36 03/16/2012 - 15:51:50 03/16/2012 - 15:52:03
Flag Cool Note - 6.x-1.x Release link 6.x-1.x 03/17/2012 - 10:39:37 03/17/2012 - 10:44:15 03/17/2012 - 10:44:21
Search Thai - 7.x-1.x Release link 7.x-1.x 03/17/2012 - 15:43:37 03/17/2012 - 15:44:13 03/17/2012 - 15:44:19
LayoutManager - 7.x-1.x Release link 7.x-1.x 03/17/2012 - 20:33:37 03/17/2012 - 20:34:03 03/17/2012 - 20:34:32
Taxonomy menu - 6.x-2.x Release link 6.x-2.x 03/19/2012 - 06:08:37 03/19/2012 - 06:09:03 03/19/2012 - 06:09:18
Just Another Social Module (JASM) - 6.x-1.3 Release link 6.x-1.3 03/19/2012 - 15:36:37 03/19/2012 - 15:37:03 03/19/2012 - 15:37:17
Just Another Social Module (JASM) - 7.x-1.3-beta2 Release link 7.x-1.3-beta2 03/19/2012 - 15:36:37 03/19/2012 - 15:37:03 03/19/2012 - 15:37:29
Just Another Social Module (JASM) - 6.x-1.x Release link 6.x-1.x 03/19/2012 - 15:37:36 03/19/2012 - 15:38:03 03/19/2012 - 15:38:15
Just Another Social Module (JASM) - 7.x-1.x Release link 7.x-1.x 03/19/2012 - 15:37:36 03/19/2012 - 15:38:04 03/19/2012 - 15:38:28
Alternative Templates - 7.x-1.x Release link 7.x-1.x 03/20/2012 - 16:12:37 03/20/2012 - 16:13:03 03/20/2012 - 16:13:27
Features - 7.x-1.0-rc1 Release link 7.x-1.0-rc1 03/21/2012 - 16:53:37 03/21/2012 - 16:54:03 03/21/2012 - 16:54:33
List field predefined options - 7.x-1.x Release link 7.x-1.x 03/22/2012 - 02:21:36 03/22/2012 - 02:22:03 03/22/2012 - 02:22:28
Proxy - master Release link master 03/22/2012 - 14:43:37 03/22/2012 - 14:44:03 03/22/2012 - 14:44:28
Ubercart - 7.x-3.0 Release link 7.x-3.0 03/23/2012 - 01:15:37 03/23/2012 - 01:16:03 03/23/2012 - 01:17:49
AJAX Picture Preview - 6.x-2.x Release link 6.x-2.x 03/23/2012 - 03:44:37 03/23/2012 - 03:45:03 03/23/2012 - 03:45:16
Prepopulate - 7.x-2.x Release link 7.x-2.x 03/23/2012 - 07:06:38 03/23/2012 - 07:07:01 03/23/2012 - 07:09:44
Gallery link - 7.x-1.x Release link 7.x-1.x 03/23/2012 - 12:42:38 03/23/2012 - 12:43:02 03/23/2012 - 12:46:05
Fusion Accelerator - 7.x-2.x Release link 7.x-2.x 03/23/2012 - 15:00:54 03/23/2012 - 15:01:02 03/23/2012 - 15:04:46
Simple Field Formatter - 7.x-1.0 Release link 7.x-1.0 03/23/2012 - 17:19:37 03/23/2012 - 17:20:01 03/23/2012 - 17:22:41
Security Questions - 7.x-1.x Release link 7.x-1.x 03/23/2012 - 18:11:38 03/23/2012 - 18:12:03 03/23/2012 - 18:12:29
Inline Ajax Comments - 7.x-1.x Release link 7.x-1.x 03/23/2012 - 21:50:44 03/23/2012 - 21:51:01 03/23/2012 - 21:59:14
Menu token - 7.x-1.x Release link 7.x-1.x 03/24/2012 - 01:10:47 03/24/2012 - 01:11:01 03/24/2012 - 01:16:32
Video.js (HTML5 Video Player) - 7.x-1.x Release link 7.x-1.x 03/25/2012 - 11:47:38 03/25/2012 - 11:48:03 03/25/2012 - 11:48:29
Video.js (HTML5 Video Player) - 6.x-1.x Release link 6.x-1.x 03/25/2012 - 11:47:38 03/25/2012 - 11:48:29 03/25/2012 - 11:48:37
Commerce CCAvenue Payment Gateway - 7.x-1.x Release link 7.x-1.x 03/25/2012 - 15:17:38 03/25/2012 - 15:18:03 03/25/2012 - 15:18:27
Spider Slap - 7.x-1.0-rc2 Release link 7.x-1.0-rc2 03/25/2012 - 18:27:38 03/25/2012 - 18:28:03 03/25/2012 - 18:28:32
Administer Users by Role - 6.x-1.x Release link 6.x-1.x 03/25/2012 - 21:51:05 03/25/2012 - 21:52:03 03/25/2012 - 21:52:36
Captcha-free Form Protection - 7.x-1.1 Release link 7.x-1.1 03/25/2012 - 22:05:39 03/25/2012 - 22:06:03 03/25/2012 - 22:06:30
Inline Ajax Comments - 7.x-1.0-beta2 Release link 7.x-1.0-beta2 03/25/2012 - 22:46:37 03/25/2012 - 22:47:03 03/25/2012 - 22:48:27
Guiders-JS - 7.x-1.3 Release link 7.x-1.3 03/26/2012 - 12:24:38 03/26/2012 - 12:25:03 03/26/2012 - 12:25:27
Facebook OAuth - 7.x-1.x Release link 7.x-1.x 03/26/2012 - 21:53:37 03/26/2012 - 21:54:06 03/26/2012 - 21:54:13
regbar - 7.x-1.x Release link 7.x-1.x 03/27/2012 - 14:37:38 03/27/2012 - 14:51:35 03/27/2012 - 14:51:43
regbar - 6.x-1.x Release link 6.x-1.x 03/27/2012 - 14:38:37 03/27/2012 - 14:53:02 03/27/2012 - 14:53:09
Site map - 7.x-1.0-beta1 Release link 7.x-1.0-beta1 03/27/2012 - 17:45:37 03/27/2012 - 17:46:29 03/27/2012 - 17:46:39
Content Taxonomy - 7.x-1.x Release link 7.x-1.x 03/27/2012 - 21:02:37 03/27/2012 - 21:03:26 03/27/2012 - 21:03:34
Query-Based Views (Q-Views) - 6.x-1.x Release link 6.x-1.x 03/27/2012 - 22:09:37 03/27/2012 - 22:23:11 03/27/2012 - 22:23:22
Calendar Systems - 6.x-1.x Release link 6.x-1.x 03/27/2012 - 22:34:37 03/27/2012 - 22:35:18 03/27/2012 - 22:35:32
Views jQFX Nivo Slider - 7.x-1.x Release link 7.x-1.x 03/28/2012 - 01:24:38 03/28/2012 - 01:25:03 03/28/2012 - 01:26:32
Menu Force - 7.x-1.x Release link 7.x-1.x 03/28/2012 - 20:34:37 03/28/2012 - 20:35:03 03/28/2012 - 20:35:28
Termcase - 7.x-1.x Release link 7.x-1.x 03/28/2012 - 20:35:38 03/28/2012 - 20:36:03 03/28/2012 - 20:36:27
Private Taxonomy Terms - 6.x-1.x Release link 6.x-1.x 03/29/2012 - 00:46:37 03/29/2012 - 00:47:03 03/29/2012 - 00:47:23
NLM Field - 7.x-1.x Release link 7.x-1.x 03/30/2012 - 09:55:37 03/30/2012 - 09:56:03 03/30/2012 - 09:56:29
UC WePay - 6.x-1.1 Release link 6.x-1.1 03/31/2012 - 00:11:38 03/31/2012 - 00:12:03 03/31/2012 - 00:12:18
Context: Menu Block - 7.x-3.x Release link 7.x-3.x 03/31/2012 - 05:54:37 03/31/2012 - 05:55:03 03/31/2012 - 05:56:00
Check Profile - 7.x-1.0-beta1 Release link 7.x-1.0-beta1 03/31/2012 - 16:20:46 03/31/2012 - 16:21:03 03/31/2012 - 16:21:37
Commerce Paybox - 7.x-1.0-alpha1 Release link 7.x-1.0-alpha1 04/02/2012 - 13:27:38 04/02/2012 - 13:28:03 04/02/2012 - 13:28:31
DraggableViews - 7.x-2.x Release link 7.x-2.x 04/02/2012 - 14:30:54 04/02/2012 - 14:31:14 04/02/2012 - 14:33:00
Ogone | Ubercart payment - 6.x-1.x Release link 6.x-1.x 04/03/2012 - 09:29:38 04/03/2012 - 09:30:03 04/03/2012 - 09:30:16
Ogone | Ubercart payment - 6.x-2.x Release link 6.x-2.x 04/03/2012 - 09:29:38 04/03/2012 - 09:30:11 04/03/2012 - 09:30:19
Commerce Paybox - 7.x-1.0 Release link 7.x-1.0 04/03/2012 - 11:08:37 04/03/2012 - 11:10:05 04/03/2012 - 11:10:14
Node As Block - 6.x-1.x Release link 6.x-1.x 04/03/2012 - 14:48:37 04/03/2012 - 14:49:03 04/03/2012 - 14:49:16
Panels reference formatter - 7.x-1.x Release link 7.x-1.x 04/03/2012 - 21:31:32 04/03/2012 - 21:32:03 04/03/2012 - 21:32:56
Taskbar - 6.x-1.0-rc3 Release link 6.x-1.0-rc3 04/05/2012 - 10:30:55 04/05/2012 - 10:31:16 04/05/2012 - 10:31:26
Taskbar - 6.x-1.x Release link 6.x-1.x 04/05/2012 - 10:30:55 04/05/2012 - 10:31:27 04/05/2012 - 10:31:51
tracelytics - 7.x-1.x Release link 7.x-1.x 04/05/2012 - 13:27:37 04/05/2012 - 13:28:03 04/05/2012 - 13:28:28
Autosave - 7.x-2.x Release link 7.x-2.x 04/06/2012 - 00:40:46 04/06/2012 - 00:41:03 04/06/2012 - 00:41:28
Organic Group Statistics - 6.x-1.x Release link 6.x-1.x 04/07/2012 - 15:27:38 04/07/2012 - 15:28:03 04/07/2012 - 15:29:22
P6 Helper - 6.x-1.x Release link 6.x-1.x 04/08/2012 - 03:48:38 04/08/2012 - 03:49:03 04/08/2012 - 03:49:17
Token authentication - 7.x-1.x Release link 7.x-1.x 04/08/2012 - 06:58:37 04/08/2012 - 06:59:03 04/08/2012 - 06:59:28
Rules Factory UI - 7.x-1.0-alpha2 Release link 7.x-1.0-alpha2 04/09/2012 - 13:20:45 04/09/2012 - 13:37:49 04/09/2012 - 13:37:56
Role Expire - 7.x-1.x Release link 7.x-1.x 04/09/2012 - 16:03:41 04/09/2012 - 16:04:03 04/09/2012 - 16:04:49
tracelytics - 6.x-1.x Release link 6.x-1.x 04/09/2012 - 16:59:37 04/09/2012 - 17:00:03 04/09/2012 - 17:00:30
Just Another Social Module (JASM) - 7.x-1.3-beta3 Release link 7.x-1.3-beta3 04/10/2012 - 04:19:38 04/10/2012 - 04:20:03 04/10/2012 - 04:20:29
Taskbar - 7.x-1.x Release link 7.x-1.x 04/10/2012 - 15:22:38 04/10/2012 - 15:23:03 04/10/2012 - 15:23:52
Role Expire - 6.x-1.12 Release link 6.x-1.12 04/10/2012 - 16:23:37 04/10/2012 - 16:24:03 04/10/2012 - 16:24:18
mediaWrapper - 6.x-0.x Release link 6.x-0.x 04/10/2012 - 17:18:37 04/10/2012 - 17:19:03 04/10/2012 - 17:19:18
Xero API - 6.x-1.x Release link 6.x-1.x 04/11/2012 - 03:49:38 04/11/2012 - 03:50:03 04/11/2012 - 03:50:19
User points Nodes and Comments - 7.x-1.x Release link 7.x-1.x 04/11/2012 - 09:03:06 04/11/2012 - 09:04:00 04/11/2012 - 09:04:02
Media - 7.x-1.0 Release link 7.x-1.0 04/11/2012 - 10:10:46 04/11/2012 - 10:11:03 04/11/2012 - 10:12:03
Printer, email and PDF versions - 6.x-1.x Release link 6.x-1.x 04/11/2012 - 22:53:37 04/11/2012 - 22:54:03 04/11/2012 - 22:54:18
Printer, email and PDF versions - 7.x-1.x Release link 7.x-1.x 04/11/2012 - 22:53:37 04/11/2012 - 22:54:16 04/11/2012 - 22:54:34
Shoutcast Streaming Server Statistics - 6.x-3.x Release link 6.x-3.x 04/12/2012 - 02:36:38 04/12/2012 - 02:37:03 04/12/2012 - 02:37:19
Virtual Field - 7.x-1.x Release link 7.x-1.x 04/12/2012 - 08:45:39 04/12/2012 - 08:46:03 04/12/2012 - 08:46:44
Private Taxonomy Terms - 7.x-1.x Release link 7.x-1.x 04/12/2012 - 22:41:58 04/12/2012 - 22:42:03 04/12/2012 - 22:43:06
Tripletex - 7.x-1.x Release link 7.x-1.x 04/13/2012 - 15:29:32 04/13/2012 - 15:30:04 04/13/2012 - 15:32:13
Tripletex - 6.x-1.x Release link 6.x-1.x 04/13/2012 - 15:29:31 04/13/2012 - 15:32:04 04/13/2012 - 15:32:27
Devel Catcher - 7.x-1.x Release link 7.x-1.x 04/13/2012 - 19:35:31 04/13/2012 - 19:36:03 04/13/2012 - 19:36:33
Vote Up/Down - 6.x-3.x Release link 6.x-3.x 04/13/2012 - 20:51:40 04/13/2012 - 20:52:04 04/13/2012 - 20:52:36
SlideAd - 7.x-1.0 Release link 7.x-1.0 04/14/2012 - 13:32:30 04/14/2012 - 13:33:03 04/14/2012 - 13:33:28
Projekktor (HTML5 Video Player) - 7.x-1.x Release link 7.x-1.x 04/14/2012 - 17:01:48 04/14/2012 - 17:02:03 04/14/2012 - 17:02:30
Riddle - 6.x-1.x Release link 6.x-1.x 04/15/2012 - 07:20:31 04/15/2012 - 07:21:03 04/15/2012 - 07:21:19
i18n Views Filter by Current Language - 7.x-1.0 Release link 7.x-1.0 04/15/2012 - 09:35:30 04/15/2012 - 09:36:03 04/15/2012 - 09:36:29
OG Forum D7 - 7.x-1.0 Release link 7.x-1.0 04/15/2012 - 14:36:30 04/15/2012 - 14:37:03 04/15/2012 - 14:37:43
Controller - 6.x-2.0-alpha1 Release link 6.x-2.0-alpha1 04/16/2012 - 05:18:30 04/16/2012 - 05:19:03 04/16/2012 - 05:19:17
CRM Core - 7.x-1.x Release link 7.x-1.x 04/16/2012 - 14:17:32 04/16/2012 - 14:18:03 04/16/2012 - 14:19:49
i18n views filterbylanguage - 6.x-1.x Release link 6.x-1.x 04/17/2012 - 07:53:32 04/17/2012 - 07:54:03 04/17/2012 - 07:54:42
Entity Registrations - 7.x-1.0-alpha5 Release link 7.x-1.0-alpha5 04/17/2012 - 23:54:31 04/17/2012 - 23:55:36 04/17/2012 - 23:55:49
Entity bundle plugin - 7.x-1.x Release link 7.x-1.x 04/19/2012 - 14:47:30 04/19/2012 - 14:48:03 04/19/2012 - 14:48:28
Maximenu - 7.x-1.x Release link 7.x-1.x 04/19/2012 - 14:55:31 04/19/2012 - 15:07:15 04/19/2012 - 15:07:34
Tiny-IDS | a tiny intrusion detection system - 6.x-1.x Release link 6.x-1.x 04/19/2012 - 17:24:31 04/19/2012 - 17:25:04 04/19/2012 - 17:25:17
Tiny-IDS | a tiny intrusion detection system - 7.x-1.x Release link 7.x-1.x 04/19/2012 - 17:24:31 04/19/2012 - 17:25:17 04/19/2012 - 17:25:41
Add another - 7.x-2.x Release link 7.x-2.x 04/19/2012 - 20:01:45 04/19/2012 - 20:02:03 04/19/2012 - 20:02:39
Add another - 6.x-1.x Release link 6.x-1.x 04/19/2012 - 20:02:18 04/19/2012 - 20:02:43 04/19/2012 - 20:02:54
Temperature Field - 7.x-1.1 Release link 7.x-1.1 04/19/2012 - 20:04:31 04/19/2012 - 20:05:03 04/19/2012 - 20:05:27
Imageflow - 7.x-1.x Release link 7.x-1.x 04/19/2012 - 21:28:30 04/19/2012 - 21:29:04 04/19/2012 - 21:29:32
Update Custom Settings - 6.x-1.x Release link 6.x-1.x 04/20/2012 - 17:18:09 04/20/2012 - 17:19:03 04/20/2012 - 17:19:17
Update Custom Settings - 7.x-1.x Release link 7.x-1.x 04/20/2012 - 17:18:09 04/20/2012 - 17:19:17 04/20/2012 - 17:19:36
Unique Comments - 7.x-1.3 Release link 7.x-1.3 04/23/2012 - 07:29:09 04/23/2012 - 07:29:43 04/23/2012 - 07:29:49
Flickr API - 7.x-1.x Release link 7.x-1.x 04/23/2012 - 15:11:22 04/23/2012 - 15:12:03 04/23/2012 - 15:12:10
User Import - 6.x-2.x Release link 6.x-2.x 04/23/2012 - 21:26:10 04/23/2012 - 21:28:04 04/23/2012 - 21:28:18
User Import - 6.x-3.0-beta3 Release link 6.x-3.0-beta3 04/23/2012 - 21:26:10 04/23/2012 - 21:28:18 04/23/2012 - 21:28:39
Portables - 7.x-1.x Release link 7.x-1.x 04/26/2012 - 13:10:10 04/26/2012 - 13:11:03 04/26/2012 - 13:13:09
Dummy image - 7.x-1.x Release link 7.x-1.x 04/26/2012 - 18:49:09 04/26/2012 - 19:10:44 04/26/2012 - 19:11:00
Contact Hide Email - 7.x-1.x Release link 7.x-1.x 04/27/2012 - 15:21:21 04/27/2012 - 15:23:10 04/27/2012 - 15:23:17
Profile2 Registration Path - 7.x-1.8 Release link 7.x-1.8 04/27/2012 - 18:31:49 04/27/2012 - 18:37:11 04/27/2012 - 18:37:20
Media: Kiwi6 - 6.x-1.x Release link 6.x-1.x 04/30/2012 - 00:33:47 04/30/2012 - 00:34:02 04/30/2012 - 00:34:17
Media: Kiwi6 - 6.x-1.0-beta1 Release link 6.x-1.0-beta1 04/30/2012 - 00:36:46 04/30/2012 - 00:37:03 04/30/2012 - 00:37:16
Koponyeg - 7.x-1.0-alpha1 Release link 7.x-1.0-alpha1 04/30/2012 - 15:18:47 04/30/2012 - 15:20:02 04/30/2012 - 15:20:10
Kerberos Authentication - 6.x-2.1-beta1 Release link 6.x-2.1-beta1 04/30/2012 - 17:17:47 04/30/2012 - 17:18:03 04/30/2012 - 17:18:17
Kerberos Authentication - 7.x-2.2-beta1 Release link 7.x-2.2-beta1 04/30/2012 - 17:17:47 04/30/2012 - 17:18:11 04/30/2012 - 17:18:30
P6 Profile - 6.x-1.x Release link 6.x-1.x 05/01/2012 - 02:36:47 05/01/2012 - 02:50:42 05/01/2012 - 02:50:48
Views arg parent term - 7.x-1.x Release link 7.x-1.x 05/02/2012 - 09:11:07 05/02/2012 - 09:12:03 05/02/2012 - 09:13:01
Facebook Page Rules - 7.x-1.x Release link 7.x-1.x 05/02/2012 - 12:15:47 05/02/2012 - 12:16:03 05/02/2012 - 12:16:44
Koponyeg - 7.x-1.x Release link 7.x-1.x 05/02/2012 - 12:15:47 05/02/2012 - 12:16:44 05/02/2012 - 12:17:10
Node basket - 6.x-1.0 Release link 6.x-1.0 05/02/2012 - 12:59:47 05/02/2012 - 13:00:03 05/02/2012 - 13:00:18
PNG Behave! - 7.x-2.x Release link 7.x-2.x 05/02/2012 - 16:54:09 05/02/2012 - 16:55:03 05/02/2012 - 16:55:30
Simplenews Statistics - 7.x-1.x Release link 7.x-1.x 05/03/2012 - 10:16:03 05/03/2012 - 10:17:03 05/03/2012 - 10:17:43
scroll to top - 7.x-2.0-beta5 Release link 7.x-2.0-beta5 05/04/2012 - 14:44:47 05/04/2012 - 14:45:03 05/04/2012 - 14:45:29
Basic cart - 7.x-2.0-beta1 Release link 7.x-2.0-beta1 05/04/2012 - 19:24:47 05/04/2012 - 19:25:03 05/04/2012 - 19:25:29
Countries - 7.x-1.0 Release link 7.x-1.0 05/05/2012 - 00:21:33 05/05/2012 - 00:22:03 05/05/2012 - 00:22:30
Birthdays - 6.x-1.x Release link 6.x-1.x 05/05/2012 - 09:22:22 05/05/2012 - 09:23:32 05/05/2012 - 09:23:41
Commerce X-Pay - 7.x-1.x Release link 7.x-1.x 05/07/2012 - 09:04:51 05/07/2012 - 09:05:03 05/07/2012 - 09:05:41
Common Functionality - master Release link master 05/07/2012 - 17:51:38 05/07/2012 - 17:52:03 05/07/2012 - 17:52:30
UC Estcard - 6.x-1.x Release link 6.x-1.x 05/08/2012 - 08:48:47 05/08/2012 - 08:49:03 05/08/2012 - 08:49:30
UC Estcard - 6.x-1.0 Release link 6.x-1.0 05/08/2012 - 08:48:47 05/08/2012 - 08:49:03 05/08/2012 - 08:49:32
SlideAd - 7.x-1.x Release link 7.x-1.x 05/08/2012 - 13:13:47 05/08/2012 - 13:14:03 05/08/2012 - 13:14:29
Controller - 7.x-1.0-alpha1 Release link 7.x-1.0-alpha1 05/08/2012 - 20:37:47 05/08/2012 - 20:38:03 05/08/2012 - 20:38:30
Quiz Assignment - 6.x-1.6 Release link 6.x-1.6 05/09/2012 - 12:36:47 05/09/2012 - 12:37:04 05/09/2012 - 12:37:15
Trails - 7.x-1.x Release link 7.x-1.x 05/10/2012 - 13:01:18 05/10/2012 - 13:02:03 05/10/2012 - 13:02:46
Userpoints Login - 7.x-1.x Release link 7.x-1.x 05/10/2012 - 18:21:47 05/10/2012 - 18:22:03 05/10/2012 - 18:22:30
Userpoints Login - 6.x-1.x Release link 6.x-1.x 05/10/2012 - 19:54:47 05/10/2012 - 19:55:03 05/10/2012 - 19:55:17
Simple Package Tracking - 6.x-1.x Release link 6.x-1.x 05/11/2012 - 14:38:47 05/11/2012 - 14:39:03 05/11/2012 - 14:39:46
uc_dropdown_attributes - 7.x-1.x Release link 7.x-1.x 05/11/2012 - 20:22:04 05/11/2012 - 20:23:03 05/11/2012 - 20:24:57
Cookie Control - 7.x-1.x Release link 7.x-1.x 05/14/2012 - 13:47:47 05/14/2012 - 13:48:03 05/14/2012 - 13:48:29
Node displays - 6.x-2.x Release link 6.x-2.x 05/15/2012 - 00:57:47 05/15/2012 - 00:59:47 05/15/2012 - 00:59:49
Node Collection - 7.x-1.x Release link 7.x-1.x 05/15/2012 - 10:11:51 05/15/2012 - 10:12:12 05/15/2012 - 10:12:31
OG User Roles - 6.x-4.1 Release link 6.x-4.1 05/15/2012 - 12:22:47 05/15/2012 - 12:23:03 05/15/2012 - 12:24:10
Sweaver - 6.x-1.x Release link 6.x-1.x 05/15/2012 - 21:26:47 05/15/2012 - 21:27:03 05/15/2012 - 21:27:47
Views Field View - 7.x-1.0-rc2 Release link 7.x-1.0-rc2 05/16/2012 - 07:31:39 05/16/2012 - 07:32:03 05/16/2012 - 07:33:06
Tree - 7.x-1.x Release link 7.x-1.x 05/16/2012 - 08:56:47 05/16/2012 - 08:57:03 05/16/2012 - 08:58:01
Weather - 6.x-5.x Release link 6.x-5.x 05/16/2012 - 20:33:47 05/16/2012 - 20:39:31 05/16/2012 - 20:39:40
Encryption - 7.x-1.x Release link 7.x-1.x 05/19/2012 - 03:43:47 05/19/2012 - 03:44:04 05/19/2012 - 03:44:53
Encryption - 6.x-1.x Release link 6.x-1.x 05/19/2012 - 03:45:47 05/19/2012 - 03:46:04 05/19/2012 - 03:46:16
IP Login - 7.x-2.x Release link 7.x-2.x 05/19/2012 - 13:48:47 05/19/2012 - 13:49:03 05/19/2012 - 13:49:29
Detector - 7.x-1.x Release link 7.x-1.x 05/20/2012 - 23:06:47 05/20/2012 - 23:23:52 05/20/2012 - 23:24:01
Advertisement - 6.x-2.x Release link 6.x-2.x 05/21/2012 - 05:01:33 05/21/2012 - 05:02:31 05/21/2012 - 05:02:45
Advertisement - 7.x-1.x Release link 7.x-1.x 05/21/2012 - 05:01:33 05/21/2012 - 05:03:24 05/21/2012 - 05:03:38
Advertisement - 7.x-2.x Release link 7.x-2.x 05/21/2012 - 05:01:33 05/21/2012 - 05:04:06 05/21/2012 - 05:04:15
Advertisement - 6.x-3.x Release link 6.x-3.x 05/21/2012 - 05:01:33 05/21/2012 - 05:04:41 05/21/2012 - 05:04:55
Field conditional state - 7.x-1.x Release link 7.x-1.x 05/21/2012 - 07:25:47 05/21/2012 - 08:03:03 05/21/2012 - 08:03:12
Block Theme - 7.x-1.x Release link 7.x-1.x 05/21/2012 - 10:45:52 05/21/2012 - 11:37:36 05/21/2012 - 11:37:46
Embeddables - 7.x-1.x Release link 7.x-1.x 05/21/2012 - 21:59:47 05/21/2012 - 22:00:03 05/21/2012 - 22:00:52
Faktura - 7.x-1.x Release link 7.x-1.x 05/23/2012 - 07:17:48 05/23/2012 - 07:18:13 05/23/2012 - 07:21:29
Site map - 7.x-1.0 Release link 7.x-1.0 05/23/2012 - 14:30:59 05/23/2012 - 14:31:30 05/23/2012 - 14:31:41
Commerce Dispatch - 7.x-1.x Release link 7.x-1.x 05/23/2012 - 21:38:47 05/23/2012 - 21:55:40 05/23/2012 - 21:55:47
ThemeKey - 7.x-2.x Release link 7.x-2.x 05/24/2012 - 07:56:47 05/24/2012 - 07:57:01 05/24/2012 - 08:04:10
Node registration - 7.x-1.1-beta7 Release link 7.x-1.1-beta7 05/24/2012 - 10:17:47 05/24/2012 - 10:18:03 05/24/2012 - 10:23:26
VChess - 7.x-1.x Release link 7.x-1.x 05/24/2012 - 14:11:58 05/24/2012 - 14:12:50 05/24/2012 - 14:13:02
User Points Contributed modules - 6.x-1.x Release link 6.x-1.x 05/25/2012 - 06:29:48 05/25/2012 - 06:30:52 05/25/2012 - 06:31:39
User Points Contributed modules - 7.x-1.x Release link 7.x-1.x 05/25/2012 - 06:29:48 05/25/2012 - 06:38:58 05/25/2012 - 06:39:02
EntityFieldQuery Views Backend - 7.x-1.x Release link 7.x-1.x 05/27/2012 - 05:12:47 05/27/2012 - 05:13:03 05/27/2012 - 05:14:34
EntityFieldQuery Views Backend - 7.x-1.0-alpha1 Release link 7.x-1.0-alpha1 05/27/2012 - 05:12:47 05/27/2012 - 05:13:13 05/27/2012 - 05:14:37
Node Collection - 7.x-1.0 Release link 7.x-1.0 05/27/2012 - 16:46:47 05/27/2012 - 16:47:03 05/27/2012 - 16:49:50
Webform Select opts - 7.x-1.x Release link 7.x-1.x 05/28/2012 - 06:42:59 05/28/2012 - 06:43:04 05/28/2012 - 06:43:44
Media Browser Plus - 7.x-2.x Release link 7.x-2.x 05/28/2012 - 20:26:47 05/28/2012 - 20:27:03 05/28/2012 - 20:28:03
TabT - 7.x-1.x Release link 7.x-1.x 05/30/2012 - 08:47:47 05/30/2012 - 08:48:03 05/30/2012 - 08:48:31
Commerce Registry - 7.x-1.x Release link 7.x-1.x 05/31/2012 - 20:56:47 05/31/2012 - 21:13:34 05/31/2012 - 21:13:46
Access By Term - 7.x-1.x Release link 7.x-1.x 06/04/2012 - 10:29:09 06/04/2012 - 10:30:03 06/04/2012 - 10:31:12
Visual Website Optimizer - 7.x-1.x Release link 7.x-1.x 06/07/2012 - 18:40:09 06/07/2012 - 18:41:04 06/07/2012 - 18:41:34
Galleria - 7.x-1.0-beta3 Release link 7.x-1.0-beta3 06/07/2012 - 18:41:19 06/07/2012 - 18:42:03 06/07/2012 - 18:42:11
Multivariate - 7.x-1.x Release link 7.x-1.x 06/07/2012 - 19:22:10 06/07/2012 - 19:23:03 06/07/2012 - 19:23:43
Twitter Followers - 6.x-1.x Release link 6.x-1.x 06/08/2012 - 10:27:14 06/08/2012 - 10:28:22 06/08/2012 - 10:28:35
simpleSAMLphp Authentication - 6.x-2.x Release link 6.x-2.x 06/08/2012 - 14:50:11 06/08/2012 - 14:51:03 06/08/2012 - 14:51:18
simpleSAMLphp Authentication - 7.x-2.x Release link 7.x-2.x 06/08/2012 - 14:50:11 06/08/2012 - 14:51:18 06/08/2012 - 14:51:38
Google Fonts - 7.x-2.x Release link 7.x-2.x 06/08/2012 - 18:06:34 06/08/2012 - 18:07:04 06/08/2012 - 18:07:37
Administration Views - 6.x-1.x Release link 6.x-1.x 06/08/2012 - 22:39:09 06/08/2012 - 22:40:45 06/08/2012 - 22:40:53
Path breadcrumbs - 7.x-2.0-beta10 Release link 7.x-2.0-beta10 06/11/2012 - 12:23:10 06/11/2012 - 12:24:04 06/11/2012 - 12:24:35
Belgian eID IDP integration - 6.x-1.x Release link 6.x-1.x 06/11/2012 - 14:28:09 06/11/2012 - 14:29:04 06/11/2012 - 14:29:18
AudioRecorderField - 6.x-1.0-beta5 Release link 6.x-1.0-beta5 06/12/2012 - 13:59:10 06/12/2012 - 15:26:35 06/12/2012 - 15:26:46
Webform Select options - 7.x-2.x Release link 7.x-2.x 06/13/2012 - 17:38:10 06/13/2012 - 17:59:18 06/13/2012 - 17:59:26
DataBase Email Encryption - 7.x-1.0 Release link 7.x-1.0 06/14/2012 - 22:31:18 06/14/2012 - 22:32:03 06/14/2012 - 22:37:14
IMDB Voting - 6.x-1.0 Release link 6.x-1.0 06/14/2012 - 23:08:10 06/14/2012 - 23:09:03 06/14/2012 - 23:09:25
Commerce Minimum & Maximum Order Amount - 7.x-1.x Release link 7.x-1.x 06/15/2012 - 10:25:37 06/15/2012 - 10:26:16 06/15/2012 - 10:27:04
Date Popup Authored - 7.x-1.x Release link 7.x-1.x 06/16/2012 - 04:37:09 06/16/2012 - 04:38:01 06/16/2012 - 04:41:30
Web service client - 7.x-1.x Release link 7.x-1.x 06/16/2012 - 13:01:55 06/16/2012 - 13:02:04 06/16/2012 - 13:03:22
Thank You Commenter - 6.x-1.1 Release link 6.x-1.1 06/17/2012 - 12:12:10 06/17/2012 - 12:13:03 06/17/2012 - 12:15:13
User Priority Ranking - 7.x-1.x Release link 7.x-1.x 06/18/2012 - 20:24:10 06/18/2012 - 20:25:03 06/18/2012 - 20:25:30
Path breadcrumbs - 7.x-2.0-beta13 Release link 7.x-2.0-beta13 06/19/2012 - 21:51:49 06/19/2012 - 21:52:04 06/19/2012 - 21:52:31
P6 Helper - 7.x-1.1 Release link 7.x-1.1 06/20/2012 - 02:26:10 06/20/2012 - 02:27:03 06/20/2012 - 02:27:28
Path breadcrumbs - 7.x-2.x Release link 7.x-2.x 06/20/2012 - 06:58:10 06/20/2012 - 06:59:03 06/20/2012 - 06:59:37
Rules Factory UI - 7.x-1.0-beta1 Release link 7.x-1.0-beta1 06/20/2012 - 10:12:18 06/20/2012 - 10:13:05 06/20/2012 - 10:14:30
Media: TED - 7.x-1.x Release link 7.x-1.x 06/20/2012 - 13:01:35 06/20/2012 - 13:02:04 06/20/2012 - 13:02:52
Embedded Media Field - 7.x-1.0-alpha1 Release link 7.x-1.0-alpha1 06/20/2012 - 20:50:10 06/20/2012 - 20:51:03 06/20/2012 - 20:51:47
Splash - 6.x-2.x Release link 6.x-2.x 06/21/2012 - 02:28:10 06/21/2012 - 02:29:03 06/21/2012 - 02:29:19
Fieldable vocabularies - 7.x-1.x Release link 7.x-1.x 06/21/2012 - 04:03:39 06/21/2012 - 04:04:03 06/21/2012 - 04:05:01
Views Rollup - 6.x-3.0-alpha1 Release link 6.x-3.0-alpha1 06/21/2012 - 15:16:12 06/21/2012 - 15:16:31 06/21/2012 - 15:16:37
Views Rollup - 6.x-3.x Release link 6.x-3.x 06/21/2012 - 15:57:00 06/21/2012 - 15:57:03 06/21/2012 - 15:57:19
Guiders-JS - 7.x-1.5 Release link 7.x-1.5 06/22/2012 - 20:54:10 06/22/2012 - 20:55:03 06/22/2012 - 20:55:31
Guiders-JS - 7.x-1.4 Release link 7.x-1.4 06/22/2012 - 20:55:10 06/22/2012 - 20:56:00 06/22/2012 - 20:56:08
Node Notes - 7.x-1.0 Release link 7.x-1.0 06/25/2012 - 05:30:10 06/25/2012 - 05:31:03 06/25/2012 - 05:31:31
Node Notes - 7.x-1.1 Release link 7.x-1.1 06/25/2012 - 05:59:09 06/25/2012 - 06:00:03 06/25/2012 - 06:00:32
Rules Factory UI - 7.x-1.0-beta3 Release link 7.x-1.0-beta3 06/25/2012 - 23:39:10 06/25/2012 - 23:40:03 06/25/2012 - 23:41:38
Context Node Option Premium - 7.x-1.x Release link 7.x-1.x 06/26/2012 - 11:06:33 06/26/2012 - 11:07:03 06/26/2012 - 11:07:55
Controller - 6.x-2.x Release link 6.x-2.x 06/27/2012 - 00:22:10 06/27/2012 - 00:23:03 06/27/2012 - 00:23:20
Sms payments Mobio - 7.x-1.x Release link 7.x-1.x 06/27/2012 - 06:34:10 06/27/2012 - 06:35:03 06/27/2012 - 06:35:36
Thank You Commenter - 7.x-1.1 Release link 7.x-1.1 06/27/2012 - 08:12:35 06/27/2012 - 08:13:03 06/27/2012 - 08:13:30
Backup and Migrate - 6.x-2.x Release link 6.x-2.x 06/28/2012 - 13:18:15 06/28/2012 - 13:19:03 06/28/2012 - 13:19:23
Death By Captcha - 7.x-1.x Release link 7.x-1.x 06/28/2012 - 15:35:15 06/28/2012 - 15:36:03 06/28/2012 - 15:36:31
No request new password - 7.x-1.x Release link 7.x-1.x 06/28/2012 - 18:04:15 06/28/2012 - 18:05:03 06/28/2012 - 18:05:48
Rules Factory UI - 7.x-1.x Release link 7.x-1.x 07/01/2012 - 03:30:15 07/01/2012 - 03:31:03 07/01/2012 - 03:32:35
whami source adapter - 6.x-1.x Release link 6.x-1.x 07/01/2012 - 13:56:15 07/01/2012 - 13:57:02 07/01/2012 - 13:57:23
Commerce Finnish Payments - 7.x-1.x Release link 7.x-1.x 07/01/2012 - 17:19:15 07/01/2012 - 17:20:02 07/01/2012 - 17:21:03
Novalnet Payment Module - Ubercart - 6.x-2.2 Release link 6.x-2.2 07/02/2012 - 06:39:16 07/02/2012 - 06:40:02 07/02/2012 - 06:40:26
Colorbox - 7.x-1.x Release link 7.x-1.x 07/02/2012 - 21:06:15 07/02/2012 - 21:07:02 07/02/2012 - 21:07:30
Media Gallery - 7.x-1.x Release link 7.x-1.x 07/02/2012 - 21:07:15 07/02/2012 - 21:08:02 07/02/2012 - 21:08:09
Xtools For Drupal Core - 7.x-1.x Release link 7.x-1.x 07/02/2012 - 23:25:15 07/02/2012 - 23:26:02 07/02/2012 - 23:31:12
Media URL formatter - 7.x-1.x Release link 7.x-1.x 07/04/2012 - 13:37:15 07/04/2012 - 13:38:02 07/04/2012 - 13:38:10
Drupal Reset - 7.x-1.x Release link 7.x-1.x 07/04/2012 - 14:55:15 07/04/2012 - 14:56:02 07/04/2012 - 14:56:30
Zipcode (CCK) - 6.x-2.x Release link 6.x-2.x 07/04/2012 - 14:55:15 07/04/2012 - 14:56:11 07/04/2012 - 14:57:08
Drupal Reset - 6.x-1.x Release link 6.x-1.x 07/04/2012 - 15:21:27 07/04/2012 - 15:22:02 07/04/2012 - 15:22:17
Webform Tokens - 7.x-1.x Release link 7.x-1.x 07/04/2012 - 15:34:15 07/04/2012 - 15:35:02 07/04/2012 - 15:35:38
Internationalization - 6.x-1.x Release link 6.x-1.x 07/05/2012 - 17:14:16 07/05/2012 - 17:15:03 07/05/2012 - 17:17:53
EVA: Entity Views Attachment - 7.x-1.x Release link 7.x-1.x 07/06/2012 - 15:17:16 07/06/2012 - 15:18:02 07/06/2012 - 15:18:53
Pathauto persistent state - 7.x-1.x Release link 7.x-1.x 07/06/2012 - 17:42:15 07/06/2012 - 17:42:54 07/06/2012 - 17:43:01
Hostip - 8.x-1.x Release link 8.x-1.x 07/07/2012 - 10:42:31 07/07/2012 - 10:42:31 07/07/2012 - 10:42:55
fieldscheduler - 7.x-1.x Release link 7.x-1.x 07/08/2012 - 06:47:15 07/08/2012 - 06:48:02 07/08/2012 - 06:48:27
Terms of Use - 7.x-1.x Release link 7.x-1.x 07/08/2012 - 06:56:15 07/08/2012 - 06:57:02 07/08/2012 - 06:57:40
Phone - 7.x-1.x Release link 7.x-1.x 07/08/2012 - 12:36:15 07/08/2012 - 12:37:02 07/08/2012 - 12:39:40
Floating block - 7.x-1.x Release link 7.x-1.x 07/08/2012 - 18:33:15 07/08/2012 - 18:34:02 07/08/2012 - 18:34:26
Views Per-User Cache - 6.x-3.x Release link 6.x-3.x 07/09/2012 - 12:18:15 07/09/2012 - 12:19:02 07/09/2012 - 12:19:32
Postal Code Validation - 7.x-1.x Release link 7.x-1.x 07/09/2012 - 15:19:15 07/09/2012 - 15:20:02 07/09/2012 - 15:20:30
Archibald - 7.x-2.x Release link 7.x-2.x 07/09/2012 - 15:35:16 07/09/2012 - 15:36:02 07/09/2012 - 15:38:21
Extra Session Data API - 7.x-1.x Release link 7.x-1.x 07/10/2012 - 12:16:15 07/10/2012 - 12:17:03 07/10/2012 - 12:17:11
Icon Links - 7.x-1.0 Release link 7.x-1.0 07/10/2012 - 14:23:15 07/10/2012 - 14:24:02 07/10/2012 - 14:24:28
UC PayGate - 7.x-3.x Release link 7.x-3.x 07/12/2012 - 07:42:29 07/12/2012 - 07:43:03 07/12/2012 - 07:45:16
Buckaroo | Ubercart payment - 7.x-1.x Release link 7.x-1.x 07/12/2012 - 14:18:15 07/12/2012 - 14:19:02 07/12/2012 - 14:19:28
Better Revisions - 7.x-1.0-rc1 Release link 7.x-1.0-rc1 07/12/2012 - 15:37:15 07/12/2012 - 15:38:02 07/12/2012 - 15:38:27
Contact CC - 7.x-1.1 Release link 7.x-1.1 07/12/2012 - 15:41:26 07/12/2012 - 15:42:03 07/12/2012 - 15:42:29
Contact CC - 7.x-1.x Release link 7.x-1.x 07/12/2012 - 15:42:02 07/12/2012 - 15:42:29 07/12/2012 - 15:42:38
Conditional Rules - 7.x-1.0-beta1 Release link 7.x-1.0-beta1 07/12/2012 - 16:48:15 07/12/2012 - 16:49:02 07/12/2012 - 16:50:57
Counter - 7.x-1.x Release link 7.x-1.x 07/13/2012 - 12:24:15 07/13/2012 - 12:25:02 07/13/2012 - 12:25:27
Counter - 6.x-2.22 Release link 6.x-2.22 07/13/2012 - 12:25:15 07/13/2012 - 12:25:39 07/13/2012 - 12:25:45
Counter - 7.x-1.0-alpha6 Release link 7.x-1.0-alpha6 07/13/2012 - 12:25:15 07/13/2012 - 12:26:02 07/13/2012 - 12:26:14
Views Rules - 7.x-1.0-beta1 Release link 7.x-1.0-beta1 07/13/2012 - 13:08:15 07/13/2012 - 13:09:02 07/13/2012 - 13:11:31
Mailcheck - 7.x-1.0 Release link 7.x-1.0 07/14/2012 - 10:30:15 07/14/2012 - 10:31:02 07/14/2012 - 10:31:28
Coderwall - 7.x-1.0 Release link 7.x-1.0 07/14/2012 - 21:41:53 07/14/2012 - 21:42:02 07/14/2012 - 21:42:28
Registration Date - 7.x-1.x Release link 7.x-1.x 07/16/2012 - 16:21:25 07/16/2012 - 16:22:02 07/16/2012 - 16:22:55
Configuration builder - 7.x-1.0-beta1 Release link 7.x-1.0-beta1 07/17/2012 - 00:18:15 07/17/2012 - 00:19:02 07/17/2012 - 00:19:56
Configuration builder - 7.x-1.0-beta2 Release link 7.x-1.0-beta2 07/17/2012 - 00:18:15 07/17/2012 - 00:19:12 07/17/2012 - 00:20:11
Social Login - 7.x-1.0 Release link 7.x-1.0 07/17/2012 - 05:07:15 07/17/2012 - 05:08:03 07/17/2012 - 05:08:29
Spam - 6.x-1.x Release link 6.x-1.x 07/18/2012 - 06:14:16 07/18/2012 - 06:15:02 07/18/2012 - 06:15:22
Views Rules - 7.x-1.0-beta2 Release link 7.x-1.0-beta2 07/18/2012 - 10:37:28 07/18/2012 - 10:38:03 07/18/2012 - 10:40:20
Pusher API - 7.x-1.x Release link 7.x-1.x 07/18/2012 - 13:09:16 07/18/2012 - 13:10:03 07/18/2012 - 13:10:30
Bulk Media Upload - 7.x-1.x Release link 7.x-1.x 07/18/2012 - 15:23:09 07/18/2012 - 15:23:29 07/18/2012 - 15:23:39
GeoNames - 7.x-1.x Release link 7.x-1.x 07/19/2012 - 00:20:15 07/19/2012 - 00:21:02 07/19/2012 - 00:22:14
Mobile Tools - 7.x-3.x Release link 7.x-3.x 07/19/2012 - 05:31:36 07/19/2012 - 05:32:02 07/19/2012 - 05:33:30
Views Rules - 7.x-1.0-beta3 Release link 7.x-1.0-beta3 07/19/2012 - 07:45:40 07/19/2012 - 07:46:02 07/19/2012 - 07:49:18
TCKN kontrol - 7.x-1.2 Release link 7.x-1.2 07/19/2012 - 19:16:17 07/19/2012 - 19:17:03 07/19/2012 - 19:17:26
Blizzard Community Platform API - 7.x-2.0-unstable3 Release link 7.x-2.0-unstable3 07/19/2012 - 22:15:16 07/19/2012 - 22:16:20 07/19/2012 - 22:17:30
Lazyloader - 7.x-1.0 Release link 7.x-1.0 07/20/2012 - 11:38:15 07/20/2012 - 11:39:02 07/20/2012 - 11:39:08
Lazyloader - 7.x-1.x Release link 7.x-1.x 07/20/2012 - 11:39:15 07/20/2012 - 11:40:02 07/20/2012 - 11:40:29
Salesforce Web-to-Lead Webform Data Integration - 7.x-1.x Release link 7.x-1.x 07/20/2012 - 16:12:02 07/20/2012 - 16:13:02 07/20/2012 - 16:13:23
Internal Nodes - 7.x-1.x Release link 7.x-1.x 07/20/2012 - 20:01:48 07/20/2012 - 20:02:03 07/20/2012 - 20:02:49
Better Exposed Filters - 6.x-2.x Release link 6.x-2.x 07/20/2012 - 20:43:15 07/20/2012 - 20:44:02 07/20/2012 - 20:45:10
Maintenance 200 - 7.x-1.x Release link 7.x-1.x 07/20/2012 - 22:41:34 07/20/2012 - 22:42:02 07/20/2012 - 22:42:39
Login one time - 7.x-2.x Release link 7.x-2.x 07/21/2012 - 06:07:15 07/21/2012 - 06:08:02 07/21/2012 - 06:08:29
Signed Nodes - 7.x-1.x Release link 7.x-1.x 07/21/2012 - 13:01:38 07/21/2012 - 13:02:02 07/21/2012 - 13:02:28
Signed Nodes - 7.x-1.1 Release link 7.x-1.1 07/21/2012 - 13:19:15 07/21/2012 - 13:20:02 07/21/2012 - 13:20:28
ProfilePlus - 7.x-1.x Release link 7.x-1.x 07/21/2012 - 13:39:16 07/21/2012 - 13:40:02 07/21/2012 - 13:40:32
Menu Depth Limit - 7.x-1.x Release link 7.x-1.x 07/21/2012 - 19:56:15 07/21/2012 - 19:57:02 07/21/2012 - 19:57:31
Social Login - 7.x-1.x Release link 7.x-1.x 07/22/2012 - 03:41:37 07/22/2012 - 03:42:02 07/22/2012 - 03:42:30
Social Login - 7.x-1.2 Release link 7.x-1.2 07/22/2012 - 03:42:15 07/22/2012 - 03:42:55 07/22/2012 - 03:43:01
Address Field Vietnam - 7.x-1.x Release link 7.x-1.x 07/22/2012 - 08:32:15 07/22/2012 - 08:33:02 07/22/2012 - 08:33:29
Views Rules - 7.x-1.0-rc1 Release link 7.x-1.0-rc1 07/22/2012 - 14:20:15 07/22/2012 - 14:21:02 07/22/2012 - 14:24:00
Field Empty Text - 7.x-1.0-alpha3 Release link 7.x-1.0-alpha3 07/22/2012 - 17:03:15 07/22/2012 - 17:04:03 07/22/2012 - 17:04:29
Auto archiver - 6.x-1.x Release link 6.x-1.x 07/22/2012 - 20:08:15 07/22/2012 - 20:12:01 07/22/2012 - 20:12:07
Engagement - 7.x-1.x Release link 7.x-1.x 07/22/2012 - 20:32:15 07/22/2012 - 20:33:02 07/22/2012 - 20:33:28
Lazyloader - 7.x-1.2 Release link 7.x-1.2 07/23/2012 - 06:39:15 07/23/2012 - 06:40:02 07/23/2012 - 06:40:26
AWS SDK for PHP - 7.x-5.x Release link 7.x-5.x 07/23/2012 - 06:51:26 07/23/2012 - 06:52:02 07/23/2012 - 06:52:36
Feeds - 7.x-2.0-alpha5 Release link 7.x-2.0-alpha5 07/23/2012 - 07:56:36 07/23/2012 - 07:57:03 07/23/2012 - 07:59:57
Weibo Autopost - 6.x-2.x Release link 6.x-2.x 07/23/2012 - 14:02:16 07/23/2012 - 14:03:03 07/23/2012 - 14:03:15
Weibo Autopost - 7.x-1.x Release link 7.x-1.x 07/23/2012 - 16:01:41 07/23/2012 - 16:02:03 07/23/2012 - 16:02:32
Userpoints terms - 7.x-1.x Release link 7.x-1.x 07/23/2012 - 20:02:18 07/23/2012 - 20:03:16 07/23/2012 - 20:03:33
Node Ownership - 7.x-1.x Release link 7.x-1.x 07/23/2012 - 21:37:15 07/23/2012 - 21:38:02 07/23/2012 - 21:38:31
Rename Admin Paths - 7.x-2.x Release link 7.x-2.x 07/23/2012 - 23:24:15 07/23/2012 - 23:25:02 07/23/2012 - 23:25:31
Pager for Content type - 7.x-1.x Release link 7.x-1.x 07/24/2012 - 08:28:15 07/24/2012 - 08:29:02 07/24/2012 - 08:29:30
Ubercart License Keys - 6.x-1.x Release link 6.x-1.x 07/24/2012 - 13:32:08 07/24/2012 - 13:33:02 07/24/2012 - 13:34:12
PHP - 8.x-1.x Release link 8.x-1.x 07/25/2012 - 12:22:15 07/25/2012 - 12:23:03 07/25/2012 - 12:23:32
Better Exposed Filters - 6.x-3.x Release link 6.x-3.x 07/25/2012 - 18:46:15 07/25/2012 - 18:47:03 07/25/2012 - 18:48:19
Accessible Skip Links - 7.x-1.0-alpha1 Release link 7.x-1.0-alpha1 07/26/2012 - 18:24:15 07/26/2012 - 18:25:02 07/26/2012 - 18:25:25
Accessible Skip Links - 7.x-1.x Release link 7.x-1.x 07/26/2012 - 19:17:15 07/26/2012 - 19:38:11 07/26/2012 - 19:38:19
Internal Nodes - 7.x-1.2 Release link 7.x-1.2 07/26/2012 - 20:13:15 07/26/2012 - 20:15:20 07/26/2012 - 20:15:40
Block Commenter - 7.x-1.x Release link 7.x-1.x 07/27/2012 - 12:52:15 07/27/2012 - 12:53:03 07/27/2012 - 12:53:32
MASt - 7.x-1.x Release link 7.x-1.x 07/27/2012 - 15:08:15 07/27/2012 - 15:09:03 07/27/2012 - 15:10:56
Accessible Skip Links - 7.x-1.0-alpha2 Release link 7.x-1.0-alpha2 07/27/2012 - 15:23:15 07/27/2012 - 15:24:25 07/27/2012 - 15:24:32
Inline Devel - 7.x-1.x Release link 7.x-1.x 07/28/2012 - 21:42:15 07/28/2012 - 21:45:39 07/28/2012 - 21:45:48
Login Redirect - 7.x-1.0 Release link 7.x-1.0 07/29/2012 - 05:47:15 07/29/2012 - 05:48:03 07/29/2012 - 05:48:26
Author Pane - 7.x-2.0-beta1 Release link 7.x-2.0-beta1 07/30/2012 - 11:41:58 07/30/2012 - 11:42:02 07/30/2012 - 11:42:32
Author Pane - 6.x-2.x Release link 6.x-2.x 07/30/2012 - 11:42:15 07/30/2012 - 11:42:46 07/30/2012 - 11:42:53
Author Pane - 6.x-2.3 Release link 6.x-2.3 07/30/2012 - 11:42:15 07/30/2012 - 11:43:02 07/30/2012 - 11:43:11
Taxonomy Term Reference Sortable Widget - 7.x-1.0 Release link 7.x-1.0 07/30/2012 - 14:24:15 07/30/2012 - 14:25:02 07/30/2012 - 14:25:27
Taxonomy Term Reference Sortable Widget - 7.x-1.0 Release link 7.x-1.0 07/30/2012 - 14:56:16 07/30/2012 - 14:57:02 07/30/2012 - 14:57:15
Chessboard Renderer - 7.x-1.2 Release link 7.x-1.2 07/30/2012 - 16:57:15 07/30/2012 - 16:58:02 07/30/2012 - 16:59:05
Bot Rules - 7.x-1.x Release link 7.x-1.x 07/30/2012 - 19:02:35 07/30/2012 - 19:03:02 07/30/2012 - 19:03:42
Responsive Web Design Images - 7.x-1.x Release link 7.x-1.x 07/30/2012 - 23:06:15 07/31/2012 - 00:03:37 07/31/2012 - 00:03:44
NodeMaker Announcements - 7.x-1.x Release link 7.x-1.x 07/31/2012 - 01:34:15 07/31/2012 - 01:35:02 07/31/2012 - 01:35:26
Edge - 7.x-1.x Release link 7.x-1.x 07/31/2012 - 02:54:15 07/31/2012 - 02:55:02 07/31/2012 - 02:55:32
Inline Entity Form - 7.x-1.x Release link 7.x-1.x 07/31/2012 - 07:39:15 07/31/2012 - 07:40:02 07/31/2012 - 07:40:27
WebRupee - 7.x-1.x Release link 7.x-1.x 07/31/2012 - 08:40:15 07/31/2012 - 08:41:03 07/31/2012 - 08:41:27
Commerce Button-Lösung - 7.x-1.x Release link 7.x-1.x 08/01/2012 - 13:56:15 08/01/2012 - 14:14:14 08/01/2012 - 14:14:22
Message notify - 7.x-1.x Release link 7.x-1.x 08/01/2012 - 19:51:54 08/01/2012 - 19:53:57 08/01/2012 - 19:54:04
Agreement - 6.x-2.2 Release link 6.x-2.2 08/01/2012 - 23:52:05 08/01/2012 - 23:53:02 08/01/2012 - 23:53:35
Webform2vTiger - 7.x-1.x Release link 7.x-1.x 08/02/2012 - 07:10:17 08/02/2012 - 07:11:02 08/02/2012 - 07:12:11
Image Captcha Refresh - 7.x-1.0 Release link 7.x-1.0 08/02/2012 - 10:49:15 08/02/2012 - 10:50:33 08/02/2012 - 10:50:42
Facebook Photo Sync - 6.x-1.x Release link 6.x-1.x 08/03/2012 - 00:51:52 08/03/2012 - 00:52:02 08/03/2012 - 00:53:02
Facebook Photo Sync - 7.x-1.x Release link 7.x-1.x 08/03/2012 - 00:54:16 08/03/2012 - 00:55:02 08/03/2012 - 00:55:30
Adminer - 7.x-1.x Release link 7.x-1.x 08/03/2012 - 09:25:15 08/03/2012 - 09:34:20 08/03/2012 - 09:34:44
Nodequeue - 6.x-2.x Release link 6.x-2.x 08/03/2012 - 12:16:15 08/03/2012 - 12:17:02 08/03/2012 - 12:18:30
Commerce EasyPaybg - 7.x-1.x Release link 7.x-1.x 08/04/2012 - 05:10:16 08/04/2012 - 05:11:03 08/04/2012 - 05:12:24
Entity Translation - 7.x-1.0-alpha2 Release link 7.x-1.0-alpha2 08/04/2012 - 10:23:16 08/04/2012 - 10:24:03 08/04/2012 - 10:25:27
Alternative Database Cache - 7.x-1.x Release link 7.x-1.x 08/05/2012 - 02:28:15 08/05/2012 - 02:29:02 08/05/2012 - 02:29:39
Scribd Input Filter - 7.x-1.3 Release link 7.x-1.3 08/05/2012 - 22:19:15 08/05/2012 - 22:20:03 08/05/2012 - 22:20:36
Idea Informer Widget - 7.x-1.0-alpha1 Release link 7.x-1.0-alpha1 08/05/2012 - 22:20:15 08/05/2012 - 22:21:01 08/05/2012 - 22:21:07
Picasa Slideshow Input Filter - 7.x-1.0-alpha4 Release link 7.x-1.0-alpha4 08/05/2012 - 22:20:15 08/05/2012 - 22:21:02 08/05/2012 - 22:21:33
Userreport - 7.x-1.0-alpha1 Release link 7.x-1.0-alpha1 08/05/2012 - 22:21:26 08/05/2012 - 22:22:02 08/05/2012 - 22:22:08
JageDown - 7.x-1.x Release link 7.x-1.x 08/06/2012 - 03:41:26 08/06/2012 - 03:42:31 08/06/2012 - 03:42:40
Postal Code - 7.x-1.x Release link 7.x-1.x 08/06/2012 - 09:54:15 08/06/2012 - 10:18:59 08/06/2012 - 10:19:05
Configuration Management - 7.x-1.x Release link 7.x-1.x 08/06/2012 - 14:41:58 08/06/2012 - 14:42:02 08/06/2012 - 14:43:49
Hierarchical Select - 6.x-3.x Release link 6.x-3.x 08/06/2012 - 20:50:15 08/06/2012 - 20:51:03 08/06/2012 - 20:52:24
Drupal Code Sniffer - 7.x-1.x Release link 7.x-1.x 08/06/2012 - 22:59:15 08/06/2012 - 23:00:02 08/06/2012 - 23:00:35
Javascript Tool - 7.x-1.x Release link 7.x-1.x 08/07/2012 - 05:38:16 08/07/2012 - 05:39:02 08/07/2012 - 05:39:27
Javascript Tool - 7.x-1.0 Release link 7.x-1.0 08/07/2012 - 05:38:16 08/07/2012 - 05:39:03 08/07/2012 - 05:39:29
Broken tests - 8.x-1.x Release link 8.x-1.x 08/07/2012 - 06:19:08 08/07/2012 - 06:20:02 08/07/2012 - 06:20:27
pgn4web - 7.x-1.1 Release link 7.x-1.1 08/07/2012 - 06:34:15 08/07/2012 - 06:35:38 08/07/2012 - 06:35:47
PostInstall - 7.x-1.x Release link 7.x-1.x 08/07/2012 - 10:27:15 08/07/2012 - 10:28:32 08/07/2012 - 10:28:41
Commerce EasyPaybg - 7.x-1.0-alpha1 Release link 7.x-1.0-alpha1 08/07/2012 - 10:38:17 08/07/2012 - 10:39:02 08/07/2012 - 10:40:21
Term per role - 7.x-1.1 Release link 7.x-1.1 08/07/2012 - 12:55:15 08/07/2012 - 12:55:53 08/07/2012 - 12:55:59
Backup and Migrate SFTP - 7.x-1.x Release link 7.x-1.x 08/07/2012 - 15:38:15 08/07/2012 - 15:39:30 08/07/2012 - 15:39:38
Simple Mobile Redirect - 7.x-1.1 Release link 7.x-1.1 08/07/2012 - 20:56:16 08/07/2012 - 20:57:02 08/07/2012 - 20:57:30
Mica - 7.x-4.x Release link 7.x-4.x 08/08/2012 - 15:07:28 08/08/2012 - 15:08:03 08/08/2012 - 15:08:58
code migrate - 6.x-1.0 Release link 6.x-1.0 08/09/2012 - 16:26:16 08/09/2012 - 16:27:03 08/09/2012 - 16:27:24
Javascript Tool - 6.x-1.x Release link 6.x-1.x 08/11/2012 - 07:32:49 08/11/2012 - 07:33:02 08/11/2012 - 07:33:25
IP Login - 6.x-2.x Release link 6.x-2.x 08/12/2012 - 19:36:15 08/12/2012 - 19:37:02 08/12/2012 - 19:37:20
Yandex.Maps - 7.x-1.x Release link 7.x-1.x 08/13/2012 - 05:05:15 08/13/2012 - 05:06:02 08/13/2012 - 05:06:28
Panels Extra Styles - 7.x-1.x Release link 7.x-1.x 08/13/2012 - 05:20:15 08/13/2012 - 05:21:02 08/13/2012 - 05:22:04
Feedback Simple - 7.x-1.x Release link 7.x-1.x 08/13/2012 - 05:26:16 08/13/2012 - 05:27:02 08/13/2012 - 05:27:35
Feedback Simple - 7.x-1.4 Release link 7.x-1.4 08/13/2012 - 05:27:15 08/13/2012 - 05:28:02 08/13/2012 - 05:28:10
plupload video - 7.x-1.x Release link 7.x-1.x 08/13/2012 - 06:00:16 08/13/2012 - 06:01:02 08/13/2012 - 06:01:29
Fotomoto - 7.x-1.0 Release link 7.x-1.0 08/13/2012 - 07:47:16 08/13/2012 - 07:48:02 08/13/2012 - 07:48:33
Manager access - 7.x-1.1 Release link 7.x-1.1 08/13/2012 - 15:39:15 08/13/2012 - 15:40:03 08/13/2012 - 15:40:48
Manager access - 7.x-1.x Release link 7.x-1.x 08/13/2012 - 15:45:15 08/13/2012 - 15:46:03 08/13/2012 - 15:46:27
Allocated Seating - 6.x-1.x Release link 6.x-1.x 08/13/2012 - 20:49:15 08/13/2012 - 20:50:01 08/13/2012 - 20:50:10
World of Warcraft API - 7.x-1.x Release link 7.x-1.x 08/13/2012 - 22:16:16 08/13/2012 - 22:17:47 08/13/2012 - 22:17:58
More Boxes - 7.x-1.x Release link 7.x-1.x 08/14/2012 - 04:59:15 08/14/2012 - 05:00:02 08/14/2012 - 05:01:31
API - 6.x-1.x Release link 6.x-1.x 08/14/2012 - 07:43:16 08/14/2012 - 07:44:02 08/14/2012 - 07:47:07
Agreement - 6.x-2.x Release link 6.x-2.x 08/14/2012 - 16:07:15 08/14/2012 - 16:16:58 08/14/2012 - 16:17:03
Node Option Premium - 7.x-1.x Release link 7.x-1.x 08/15/2012 - 15:41:27 08/15/2012 - 15:42:02 08/15/2012 - 15:42:28
FileField Sources Plupload - 7.x-1.x Release link 7.x-1.x 08/16/2012 - 03:39:16 08/16/2012 - 03:40:46 08/16/2012 - 03:40:54
Yandex.Share - 7.x-1.0-alpha1 Release link 7.x-1.0-alpha1 08/16/2012 - 07:11:36 08/16/2012 - 07:12:33 08/16/2012 - 07:12:41
kanban - 7.x-1.x Release link 7.x-1.x 08/16/2012 - 10:21:28 08/16/2012 - 10:46:40 08/16/2012 - 10:46:50
reCAPTCHA - 6.x-1.x Release link 6.x-1.x 08/16/2012 - 18:36:16 08/16/2012 - 18:37:34 08/16/2012 - 18:37:45
i18n page views - 6.x-0.x Release link 6.x-0.x 08/17/2012 - 08:34:31 08/17/2012 - 08:35:03 08/17/2012 - 08:35:28
Wildfire Email Marketing Platform - 7.x-2.x Release link 7.x-2.x 08/17/2012 - 10:55:16 08/17/2012 - 10:59:59 08/17/2012 - 11:00:17
Syndicator - 6.x-1.x Release link 6.x-1.x 08/18/2012 - 00:56:29 08/18/2012 - 01:00:37 08/18/2012 - 01:02:04
Node Revision Administration - 7.x-1.x Release link 7.x-1.x 08/17/2012 - 20:21:32 08/18/2012 - 01:02:05 08/18/2012 - 01:02:14
Syndicator - 7.x-1.x Release link 7.x-1.x 08/18/2012 - 00:56:29 08/18/2012 - 01:29:02 08/18/2012 - 01:29:14
Module configure links - 7.x-1.x Release link 7.x-1.x 08/18/2012 - 06:23:05 08/18/2012 - 06:24:03 08/18/2012 - 06:24:46
Module configure links - 7.x-1.0 Release link 7.x-1.0 08/18/2012 - 06:56:16 08/18/2012 - 06:57:03 08/18/2012 - 06:57:57
e-Commerce - 7.x-1.x Release link 7.x-1.x 08/19/2012 - 18:27:16 08/19/2012 - 18:33:14 08/19/2012 - 18:35:48
OpenLayers - 6.x-2.x Release link 6.x-2.x 08/19/2012 - 19:14:15 08/19/2012 - 19:16:18 08/19/2012 - 19:16:36
Better Revisions - 7.x-1.x Release link 7.x-1.x 08/19/2012 - 21:58:28 08/19/2012 - 21:59:02 08/19/2012 - 21:59:32
Textimage - 7.x-2.0-alpha2 Release link 7.x-2.0-alpha2 08/20/2012 - 14:31:28 08/20/2012 - 14:59:45 08/20/2012 - 14:59:53
Simple Field Formatter - 7.x-1.x Release link 7.x-1.x 08/20/2012 - 21:19:15 08/20/2012 - 21:21:02 08/20/2012 - 21:21:13
JSON-LD - 7.x-1.x Release link 7.x-1.x 08/20/2012 - 21:35:16 08/20/2012 - 21:52:20 08/20/2012 - 21:52:29
Wysiwyg Exclude Field - 7.x-1.x Release link 7.x-1.x 08/20/2012 - 22:24:16 08/20/2012 - 22:26:43 08/20/2012 - 22:26:52
SoundManager2 - 7.x-2.x Release link 7.x-2.x 08/21/2012 - 02:20:15 08/21/2012 - 02:21:03 08/21/2012 - 02:21:27
Inline - 7.x-2.x Release link 7.x-2.x 08/21/2012 - 15:25:15 08/21/2012 - 15:27:27 08/21/2012 - 15:27:37
Entity RDF - 7.x-1.x Release link 7.x-1.x 08/21/2012 - 22:43:16 08/21/2012 - 22:44:02 08/21/2012 - 22:47:08
Block Commenter - 6.x-1.1 Release link 6.x-1.1 08/22/2012 - 08:26:15 08/22/2012 - 08:27:02 08/22/2012 - 08:29:55
Entity List Display - 7.x-1.x Release link 7.x-1.x 08/22/2012 - 11:13:34 08/22/2012 - 11:14:02 08/22/2012 - 11:14:49
Display Suite - 7.x-2.x Release link 7.x-2.x 08/22/2012 - 12:13:16 08/22/2012 - 12:14:02 08/22/2012 - 12:21:08
Ajax links API - 7.x-1.0 Release link 7.x-1.0 08/22/2012 - 12:40:17 08/22/2012 - 12:41:03 08/22/2012 - 12:41:29
Ajax links API - 6.x-1.0 Release link 6.x-1.0 08/22/2012 - 12:40:17 08/22/2012 - 12:41:02 08/22/2012 - 12:43:44
Controller - 7.x-1.0-alpha4 Release link 7.x-1.0-alpha4 08/22/2012 - 18:42:30 08/22/2012 - 18:43:01 08/22/2012 - 18:45:50
Pullquote - 7.x-1.x Release link 7.x-1.x 08/22/2012 - 23:21:28 08/22/2012 - 23:22:02 08/22/2012 - 23:22:29
Unsubscribe - 7.x-1.0-alpha1 Release link 7.x-1.0-alpha1 08/23/2012 - 05:46:16 08/23/2012 - 05:47:01 08/23/2012 - 05:49:51
Lightweight Directory Access Protocol (LDAP) - 7.x-1.x Release link 7.x-1.x 08/23/2012 - 13:18:16 08/23/2012 - 13:19:02 08/23/2012 - 13:36:59
Newsletter - 7.x-2.x Release link 7.x-2.x 08/23/2012 - 16:04:16 08/23/2012 - 16:05:02 08/23/2012 - 16:14:27
Controller - 7.x-1.x Release link 7.x-1.x 08/23/2012 - 21:15:15 08/23/2012 - 21:16:02 08/23/2012 - 21:18:57
Unsubscribe - 7.x-1.0-alpha2 Release link 7.x-1.0-alpha2 08/24/2012 - 02:49:15 08/24/2012 - 02:50:02 08/24/2012 - 02:52:54
Controller - 7.x-1.0-alpha5 Release link 7.x-1.0-alpha5 08/24/2012 - 19:02:18 08/24/2012 - 19:03:02 08/24/2012 - 19:03:33
Quick SimpleTest - 7.x-1.x Release link 7.x-1.x 08/25/2012 - 16:25:15 08/25/2012 - 16:26:02 08/25/2012 - 16:26:42
Resolve IP - 7.x-1.0-beta3 Release link 7.x-1.0-beta3 08/26/2012 - 17:45:15 08/26/2012 - 17:46:02 08/26/2012 - 17:46:31
OG Forum D7 - 7.x-1.2 Release link 7.x-1.2 08/27/2012 - 06:28:15 08/27/2012 - 06:29:02 08/27/2012 - 06:29:40
Chain Menu Access API - 7.x-1.x Release link 7.x-1.x 08/27/2012 - 07:26:15 08/27/2012 - 07:27:02 08/27/2012 - 07:27:43
Relation Unique - 7.x-1.x Release link 7.x-1.x 08/27/2012 - 21:27:15 08/27/2012 - 21:28:02 08/27/2012 - 21:29:25
Drupal Firewall - 7.x-1.1 Release link 7.x-1.1 08/29/2012 - 13:56:56 08/29/2012 - 13:57:04 08/29/2012 - 13:57:31
Path redirect import - 7.x-1.x Release link 7.x-1.x 08/29/2012 - 18:09:16 08/29/2012 - 18:10:02 08/29/2012 - 18:10:41
Nodewords Translate - 6.x-2.0-alpha1 Release link 6.x-2.0-alpha1 08/29/2012 - 18:13:15 08/29/2012 - 18:14:02 08/29/2012 - 18:14:30
Version Control / Project* integration - 7.x-1.x Release link 7.x-1.x 08/29/2012 - 20:04:16 08/29/2012 - 20:36:16 08/29/2012 - 20:37:22
Coder - 7.x-1.x Release link 7.x-1.x 08/30/2012 - 14:24:15 08/30/2012 - 14:25:02 08/30/2012 - 14:25:25
Chain Menu Access API - 7.x-2.x Release link 7.x-2.x 08/30/2012 - 14:47:17 08/30/2012 - 14:48:02 08/30/2012 - 14:48:45
Views content cache - 6.x-2.x Release link 6.x-2.x 08/31/2012 - 06:19:16 08/31/2012 - 06:20:02 08/31/2012 - 06:21:26
Sweaver - 7.x-1.x Release link 7.x-1.x 08/31/2012 - 17:04:15 08/31/2012 - 17:15:42 08/31/2012 - 17:17:26
Hidden comment - 7.x-1.x Release link 7.x-1.x 08/31/2012 - 19:33:15 08/31/2012 - 20:11:54 08/31/2012 - 20:12:30
Sage Pay Server Integration for Ubercart - 6.x-1.x Release link 6.x-1.x 08/31/2012 - 20:16:16 08/31/2012 - 20:19:16 08/31/2012 - 20:20:15
Project Estimator - 7.x-1.x Release link 7.x-1.x 09/01/2012 - 15:29:16 09/01/2012 - 15:30:02 09/01/2012 - 15:30:31
Project Estimator - 6.x-1.x Release link 6.x-1.x 09/01/2012 - 15:30:15 09/01/2012 - 15:30:31 09/01/2012 - 15:30:47
Tic Tac Toe - 6.x-1.x Release link 6.x-1.x 09/01/2012 - 15:31:33 09/01/2012 - 15:32:02 09/01/2012 - 15:32:21
Views Record Count - 6.x-1.0 Release link 6.x-1.0 09/01/2012 - 15:31:33 09/01/2012 - 15:32:02 09/01/2012 - 15:32:37
Tic Tac Toe - 7.x-1.x Release link 7.x-1.x 09/01/2012 - 15:31:33 09/01/2012 - 15:32:21 09/01/2012 - 15:32:52
Tic Tac Toe - 6.x-1.0 Release link 6.x-1.0 09/01/2012 - 15:35:15 09/01/2012 - 15:36:03 09/01/2012 - 15:36:20
Domain roles - 7.x-1.x Release link 7.x-1.x 09/02/2012 - 13:18:15 09/02/2012 - 13:19:02 09/02/2012 - 13:19:28
Views Node Options Icons - 6.x-1.x Release link 6.x-1.x 09/02/2012 - 19:38:16 09/02/2012 - 19:39:03 09/02/2012 - 19:39:17
Nodetype Info Tab - 6.x-1.x Release link 6.x-1.x 09/02/2012 - 19:41:44 09/02/2012 - 19:42:03 09/02/2012 - 19:42:15
FAQ_Ask - 7.x-1.0-alpha1 Release link 7.x-1.0-alpha1 09/03/2012 - 08:13:05 09/03/2012 - 08:14:04 09/03/2012 - 08:15:07
Sassy - 7.x-2.x Release link 7.x-2.x 09/03/2012 - 16:46:16 09/03/2012 - 16:47:02 09/03/2012 - 16:47:55
Read only mode - 7.x-1.0 Release link 7.x-1.0 09/04/2012 - 12:43:15 09/04/2012 - 12:44:02 09/04/2012 - 12:44:10
Ubercart Systempay Credit Card Payment - 6.x-1.0 Release link 6.x-1.0 09/04/2012 - 14:41:27 09/04/2012 - 14:42:02 09/04/2012 - 14:43:36
mydigipass - 6.x-1.0 Release link 6.x-1.0 09/04/2012 - 17:04:33 09/04/2012 - 17:05:03 09/04/2012 - 17:05:17
Ubercart Systempay Credit Card Payment - 6.x-1.1 Release link 6.x-1.1 09/04/2012 - 17:51:26 09/04/2012 - 17:58:21 09/04/2012 - 17:58:28
Download - 7.x-2.4-beta1 Release link 7.x-2.4-beta1 09/04/2012 - 20:39:16 09/04/2012 - 20:40:02 09/04/2012 - 20:40:30
Workbench Media - 7.x-2.x Release link 7.x-2.x 09/05/2012 - 15:09:16 09/05/2012 - 15:10:03 09/05/2012 - 15:10:30
Workbench Media - 7.x-1.x Release link 7.x-1.x 09/05/2012 - 15:09:16 09/05/2012 - 15:10:03 09/05/2012 - 15:10:54
Namecards - 7.x-1.x Release link 7.x-1.x 09/06/2012 - 13:25:16 09/06/2012 - 13:26:02 09/06/2012 - 13:27:55
WhatCounts API - 6.x-1.x Release link 6.x-1.x 09/07/2012 - 15:51:45 09/07/2012 - 15:52:03 09/07/2012 - 15:52:19
WhatCounts API - 7.x-1.x Release link 7.x-1.x 09/07/2012 - 15:51:45 09/07/2012 - 15:52:11 09/07/2012 - 15:52:29
URL field - 8.x-1.x Release link 8.x-1.x 09/08/2012 - 16:33:15 09/08/2012 - 16:34:03 09/08/2012 - 16:34:28
User Points - 7.x-1.0 Release link 7.x-1.0 09/08/2012 - 23:50:55 09/08/2012 - 23:51:03 09/08/2012 - 23:53:17
Watchcat - 7.x-1.x Release link 7.x-1.x 09/09/2012 - 13:19:15 09/09/2012 - 13:20:03 09/09/2012 - 13:20:50
Random Weight - 7.x-1.0 Release link 7.x-1.0 09/10/2012 - 10:14:16 09/10/2012 - 10:15:03 09/10/2012 - 10:15:35
Better Revisions - 7.x-1.1 Release link 7.x-1.1 09/10/2012 - 20:59:16 09/10/2012 - 21:00:30 09/10/2012 - 21:00:36
Auto create Group - 7.x-1.x Release link 7.x-1.x 09/11/2012 - 05:44:15 09/11/2012 - 05:45:02 09/11/2012 - 05:45:31
Static field - 7.x-1.x Release link 7.x-1.x 09/11/2012 - 09:01:46 09/11/2012 - 09:02:03 09/11/2012 - 09:02:30
Browser update - 6.x-1.1 Release link 6.x-1.1 09/11/2012 - 14:33:15 09/11/2012 - 14:34:03 09/11/2012 - 14:34:20
Browser update - 7.x-1.0-beta1 Release link 7.x-1.0-beta1 09/11/2012 - 14:33:15 09/11/2012 - 14:34:03 09/11/2012 - 14:34:29
Redis - 7.x-2.0-alpha10 Release link 7.x-2.0-alpha10 09/11/2012 - 18:43:15 09/11/2012 - 18:44:02 09/11/2012 - 18:44:32
Auto create Group - 6.x-1.0 Release link 6.x-1.0 09/12/2012 - 05:48:15 09/12/2012 - 05:49:03 09/12/2012 - 05:49:22
Redis - 7.x-2.0-alpha11 Release link 7.x-2.0-alpha11 09/12/2012 - 16:48:15 09/12/2012 - 16:49:03 09/12/2012 - 16:49:39
Payment paypal - 7.x-1.x Release link 7.x-1.x 09/12/2012 - 20:01:48 09/12/2012 - 20:02:03 09/12/2012 - 20:02:57
Subs roles - 7.x-1.x Release link 7.x-1.x 09/12/2012 - 20:03:31 09/12/2012 - 20:04:03 09/12/2012 - 20:04:43
Node Revision Delete - 7.x-1.1 Release link 7.x-1.1 09/13/2012 - 12:11:39 09/13/2012 - 12:12:03 09/13/2012 - 12:12:31
SSH Key - 6.x-2.x Release link 6.x-2.x 09/13/2012 - 15:14:15 09/13/2012 - 15:14:52 09/13/2012 - 15:14:55
Search Autocomplete - 7.x-3.0-rc4 Release link 7.x-3.0-rc4 09/13/2012 - 17:50:15 09/13/2012 - 17:51:02 09/13/2012 - 17:51:31
Question/Answer - 7.x-1.x Release link 7.x-1.x 09/13/2012 - 21:01:40 09/13/2012 - 21:02:03 09/13/2012 - 21:02:11
Subs checkout - 7.x-1.x Release link 7.x-1.x 09/14/2012 - 17:45:16 09/14/2012 - 17:46:03 09/14/2012 - 17:46:12
Payment credit card - 7.x-1.x Release link 7.x-1.x 09/14/2012 - 17:46:16 09/14/2012 - 17:47:02 09/14/2012 - 17:47:27
Webform Validation - 6.x-1.5 Release link 6.x-1.5 09/14/2012 - 20:27:16 09/14/2012 - 20:28:35 09/14/2012 - 20:28:44
Webform Validation - 7.x-1.1 Release link 7.x-1.1 09/14/2012 - 20:27:16 09/14/2012 - 20:29:37 09/14/2012 - 20:29:46
CCK Featurelist Field - 6.x-1.x Release link 6.x-1.x 09/15/2012 - 13:34:15 09/15/2012 - 13:35:03 09/15/2012 - 13:35:33
Subs payment payment - 7.x-1.x Release link 7.x-1.x 09/15/2012 - 20:02:17 09/15/2012 - 20:03:02 09/15/2012 - 20:03:48
Views Sexy Throbber - 7.x-2.0 Release link 7.x-2.0 09/16/2012 - 11:11:37 09/16/2012 - 11:12:02 09/16/2012 - 11:13:07
Views Sexy Throbber - 7.x-1.x Release link 7.x-1.x 09/16/2012 - 11:11:37 09/16/2012 - 11:12:03 09/16/2012 - 11:13:07
Link - 8.x-1.x Release link 8.x-1.x 09/16/2012 - 18:32:12 09/16/2012 - 18:33:03 09/16/2012 - 18:33:42
VKontakte CrossPoster - 7.x-2.0-rc1 Release link 7.x-2.0-rc1 09/16/2012 - 20:41:25 09/16/2012 - 20:42:03 09/16/2012 - 20:42:30
Wysiwyg Fields - 7.x-1.x Release link 7.x-1.x 09/17/2012 - 01:30:16 09/17/2012 - 01:31:03 09/17/2012 - 01:31:36
Setup - 7.x-1.0-beta1 Release link 7.x-1.0-beta1 09/17/2012 - 01:30:16 09/17/2012 - 01:31:13 09/17/2012 - 01:31:38
Views Field View - 7.x-1.0 Release link 7.x-1.0 09/17/2012 - 17:26:16 09/17/2012 - 17:27:03 09/17/2012 - 17:28:21
Dashboardify - 7.x-1.x Release link 7.x-1.x 09/17/2012 - 19:40:16 09/17/2012 - 19:40:49 09/17/2012 - 19:40:57
Inline - 8.x-2.x Release link 8.x-2.x 09/17/2012 - 20:51:26 09/17/2012 - 20:52:03 09/17/2012 - 20:52:40
Sub-pathauto (Sub-path URL Aliases) - 7.x-1.x Release link 7.x-1.x 09/18/2012 - 17:41:29 09/18/2012 - 17:48:04 09/18/2012 - 17:48:11
mouseflow - 7.x-1.1 Release link 7.x-1.1 09/18/2012 - 17:31:30 09/18/2012 - 17:48:26 09/18/2012 - 17:48:37
CAS Attributes - 6.x-3.x Release link 6.x-3.x 09/18/2012 - 23:41:19 09/18/2012 - 23:42:11 09/18/2012 - 23:42:41
WebducateAPI - 7.x-1.x Release link 7.x-1.x 09/19/2012 - 01:13:05 09/19/2012 - 01:14:03 09/19/2012 - 01:14:30
DruStack - 7.x-1.x Release link 7.x-1.x 09/19/2012 - 15:45:12 09/19/2012 - 15:46:03 09/19/2012 - 15:46:29
P6 Base - 7.x-1.x Release link 7.x-1.x 09/20/2012 - 00:40:05 09/20/2012 - 00:41:03 09/20/2012 - 00:41:35
Content Analysis - 7.x-1.0-beta5 Release link 7.x-1.0-beta5 09/20/2012 - 13:35:06 09/20/2012 - 13:36:04 09/20/2012 - 13:36:37
Session cookie lifetime - 7.x-1.1 Release link 7.x-1.1 09/20/2012 - 14:10:06 09/20/2012 - 14:11:03 09/20/2012 - 14:11:55
Acquia Search - 6.x-1.x Release link 6.x-1.x 09/20/2012 - 15:57:25 09/20/2012 - 15:58:03 09/20/2012 - 15:59:28
Apache Solr Multilingual - 7.x-1.x Release link 7.x-1.x 09/20/2012 - 17:17:23 09/20/2012 - 17:18:03 09/20/2012 - 17:21:35
Linenumbers - 7.x-1.x Release link 7.x-1.x 09/20/2012 - 22:54:06 09/20/2012 - 22:55:02 09/20/2012 - 22:55:33
Gamertags - 7.x-2.x Release link 7.x-2.x 09/21/2012 - 10:19:06 09/21/2012 - 10:20:02 09/21/2012 - 10:20:51
User Import Framework Plus - 7.x-1.x Release link 7.x-1.x 09/21/2012 - 13:22:45 09/21/2012 - 13:23:03 09/21/2012 - 13:23:56
Acquia Search - 6.x-3.x Release link 6.x-3.x 09/21/2012 - 15:41:29 09/21/2012 - 15:42:02 09/21/2012 - 15:42:32
Wysiwyg - 6.x-2.x Release link 6.x-2.x 09/21/2012 - 16:44:06 09/21/2012 - 16:45:30 09/21/2012 - 16:45:41
Image Field Cross Slide Slideshow - 7.x-1.x Release link 7.x-1.x 09/22/2012 - 06:30:06 09/22/2012 - 06:31:02 09/22/2012 - 06:31:31
Views - 6.x-2.x Release link 6.x-2.x 09/22/2012 - 10:26:06 09/22/2012 - 10:27:02 09/22/2012 - 10:28:12
File Entity Paths - 7.x-2.0-alpha2 Release link 7.x-2.0-alpha2 09/24/2012 - 11:41:43 09/24/2012 - 11:42:03 09/24/2012 - 11:42:44
PDF Archive - 7.x-1.0-rc1 Release link 7.x-1.0-rc1 09/25/2012 - 05:40:06 09/25/2012 - 05:41:02 09/25/2012 - 05:41:58
Forum Access - 6.x-1.x Release link 6.x-1.x 09/25/2012 - 09:14:06 09/25/2012 - 09:15:02 09/25/2012 - 09:17:22
Unsubscribe - 7.x-1.0-beta1 Release link 7.x-1.0-beta1 09/25/2012 - 22:20:05 09/25/2012 - 22:21:29 09/25/2012 - 22:21:36
Unsubscribe - 7.x-1.x Release link 7.x-1.x 09/25/2012 - 22:34:23 09/25/2012 - 22:42:45 09/25/2012 - 22:42:52
Chaos tool suite (ctools) - 8.x-1.x Release link 8.x-1.x 09/25/2012 - 22:35:06 09/25/2012 - 22:42:16 09/25/2012 - 22:43:30
Countries - 7.x-2.0-beta2 Release link 7.x-2.0-beta2 09/26/2012 - 04:31:30 09/26/2012 - 04:32:03 09/26/2012 - 04:32:32
Countries - 7.x-2.0 Release link 7.x-2.0 09/26/2012 - 04:31:30 09/26/2012 - 04:32:15 09/26/2012 - 04:34:22
Webform prepopulate block - 7.x-3.x Release link 7.x-3.x 09/26/2012 - 05:31:47 09/26/2012 - 05:32:03 09/26/2012 - 05:33:04
Image CAPTCHA Refresh - 7.x-1.x Release link 7.x-1.x 09/26/2012 - 07:41:53 09/26/2012 - 07:42:03 09/26/2012 - 07:42:36
Domain Meta Tags - 6.x-1.x Release link 6.x-1.x 09/27/2012 - 11:35:04 09/27/2012 - 11:35:04 09/27/2012 - 11:35:35
Static field - 7.x-1.0 Release link 7.x-1.0 09/27/2012 - 21:51:56 09/27/2012 - 21:52:03 09/27/2012 - 21:52:30
Mozilla Persona - 7.x-1.0-beta1 Release link 7.x-1.0-beta1 09/28/2012 - 03:17:06 09/28/2012 - 03:18:03 09/28/2012 - 03:18:29
Mozilla Persona - 7.x-1.0-beta2 Release link 7.x-1.0-beta2 09/28/2012 - 03:47:06 09/28/2012 - 03:48:03 09/28/2012 - 03:48:30
Mozilla Persona - 7.x-1.0-beta3 Release link 7.x-1.0-beta3 09/28/2012 - 07:17:52 09/28/2012 - 07:18:05 09/28/2012 - 07:18:30
Privatemsg - 6.x-2.x Release link 6.x-2.x 09/28/2012 - 21:22:25 09/28/2012 - 21:25:34 09/28/2012 - 21:25:48
Mozilla Persona - 7.x-1.0-beta4 Release link 7.x-1.0-beta4 09/28/2012 - 22:20:06 09/28/2012 - 22:20:47 09/28/2012 - 22:21:01
Mozilla Persona - 7.x-1.0-beta5 Release link 7.x-1.0-beta5 10/01/2012 - 02:39:06 10/01/2012 - 02:56:42 10/01/2012 - 02:56:49
Mozilla Persona - 7.x-1.0-beta6 Release link 7.x-1.0-beta6 10/01/2012 - 17:16:09 10/01/2012 - 17:53:06 10/01/2012 - 17:53:12
CCK Multiple Field Remove - 7.x-1.1 Release link 7.x-1.1 10/02/2012 - 09:56:06 10/02/2012 - 09:57:03 10/02/2012 - 09:57:30
OG Vocabulary - 6.x-1.x Release link 6.x-1.x 10/02/2012 - 10:44:07 10/02/2012 - 10:45:03 10/02/2012 - 10:45:38
AdInsight Clarity - 7.x-1.x Release link 7.x-1.x 10/02/2012 - 20:48:06 10/02/2012 - 20:49:03 10/02/2012 - 20:49:41
Campaign Monitor Integrated - 6.x-1.0 Release link 6.x-1.0 10/03/2012 - 13:59:06 10/03/2012 - 14:00:03 10/03/2012 - 14:01:00
Display Suite - 8.x-1.x Release link 8.x-1.x 10/03/2012 - 18:47:05 10/03/2012 - 18:51:43 10/03/2012 - 18:52:00
CKEditor Link - A plugin to easily create links to Drupal internal paths - 7.x-2.x Release link 7.x-2.x 10/04/2012 - 13:23:40 10/04/2012 - 13:24:03 10/04/2012 - 13:24:34
CKEditor Link - A plugin to easily create links to Drupal internal paths - 6.x-2.x Release link 6.x-2.x 10/04/2012 - 13:23:40 10/04/2012 - 13:24:34 10/04/2012 - 13:24:45
Picture - 8.x-1.x Release link 8.x-1.x 10/04/2012 - 13:28:15 10/04/2012 - 13:29:02 10/04/2012 - 13:29:33
Social Login - 6.x-1.2 Release link 6.x-1.2 10/04/2012 - 16:53:05 10/04/2012 - 16:54:03 10/04/2012 - 16:54:21
Social Login - 6.x-1.x Release link 6.x-1.x 10/04/2012 - 17:11:32 10/04/2012 - 17:12:03 10/04/2012 - 17:12:27
Feeds JSONPath Parser - 7.x-1.x Release link 7.x-1.x 10/06/2012 - 06:58:06 10/06/2012 - 06:59:03 10/06/2012 - 07:00:25
Area Print - 6.x-1.x Release link 6.x-1.x 10/06/2012 - 16:11:31 10/06/2012 - 16:12:03 10/06/2012 - 16:12:22
File Entity Paths - 7.x-2.0-alpha3 Release link 7.x-2.0-alpha3 10/07/2012 - 18:30:06 10/07/2012 - 18:31:02 10/07/2012 - 18:32:23
MMW Addemar - 6.x-0.3 Release link 6.x-0.3 10/08/2012 - 11:18:07 10/08/2012 - 11:18:40 10/08/2012 - 11:18:50
Commerce Periship - 7.x-1.x Release link 7.x-1.x 10/08/2012 - 19:15:05 10/08/2012 - 19:16:03 10/08/2012 - 19:16:38
ELMS - 6.x-1.x Release link 6.x-1.x 10/08/2012 - 19:56:12 10/08/2012 - 19:57:03 10/08/2012 - 20:06:41
MMW Agenda - 6.x-0.2 Release link 6.x-0.2 10/08/2012 - 21:06:39 10/08/2012 - 21:07:03 10/08/2012 - 21:07:17
File entity (fieldable files) - 7.x-2.0-unstable6 Release link 7.x-2.0-unstable6 10/09/2012 - 05:04:06 10/09/2012 - 05:05:03 10/09/2012 - 05:06:05
MMW Panels - 6.x-0.3 Release link 6.x-0.3 10/09/2012 - 12:38:06 10/09/2012 - 12:39:21 10/09/2012 - 12:39:28
MMW ToTop - 6.x-0.2 Release link 6.x-0.2 10/09/2012 - 14:28:06 10/09/2012 - 14:29:19 10/09/2012 - 14:29:30
Aurora - 7.x-1.x Release link 7.x-1.x 10/09/2012 - 18:17:06 10/09/2012 - 18:18:59 10/09/2012 - 18:19:08
Webform Service - 7.x-4.x Release link 7.x-4.x 10/09/2012 - 21:12:31 10/09/2012 - 21:13:02 10/09/2012 - 21:13:31
State Machine - 7.x-3.x Release link 7.x-3.x 10/09/2012 - 21:30:06 10/09/2012 - 21:31:03 10/09/2012 - 21:33:29
PDF Archive - 7.x-1.x Release link 7.x-1.x 10/10/2012 - 00:43:06 10/10/2012 - 00:44:03 10/10/2012 - 00:44:32
PDF Archive - 7.x-1.0-rc2 Release link 7.x-1.0-rc2 10/10/2012 - 00:43:06 10/10/2012 - 00:44:03 10/10/2012 - 00:45:00
Video - 6.x-4.x Release link 6.x-4.x 10/10/2012 - 12:37:06 10/10/2012 - 12:40:37 10/10/2012 - 12:43:00
Quiz - 7.x-4.0-alpha9 Release link 7.x-4.0-alpha9 10/10/2012 - 14:38:07 10/10/2012 - 14:42:37 10/10/2012 - 14:43:32
Custom Help Text - 6.x-1.1 Release link 6.x-1.1 10/10/2012 - 14:47:07 10/10/2012 - 14:47:58 10/10/2012 - 14:48:08
Breakpoints - 8.x-1.x Release link 8.x-1.x 10/10/2012 - 16:11:10 10/10/2012 - 16:12:04 10/10/2012 - 16:13:05
Meta tags term view - 7.x-1.x Release link 7.x-1.x 10/10/2012 - 16:58:05 10/10/2012 - 16:59:03 10/10/2012 - 16:59:34
Alexa Widgets - 7.x-1.0 Release link 7.x-1.0 10/11/2012 - 00:10:21 10/11/2012 - 00:11:02 10/11/2012 - 00:11:17
Localization server - 6.x-2.x Release link 6.x-2.x 10/11/2012 - 09:24:42 10/11/2012 - 09:25:03 10/11/2012 - 09:25:24
Localization server - 6.x-1.x Release link 6.x-1.x 10/11/2012 - 09:24:43 10/11/2012 - 09:25:02 10/11/2012 - 09:26:06
Load content via JQuery Ajax - 7.x-1.3 Release link 7.x-1.3 10/11/2012 - 12:05:06 10/11/2012 - 12:06:02 10/11/2012 - 12:06:39
Load content via JQuery Ajax - 6.x-1.1 Release link 6.x-1.1 10/11/2012 - 12:06:29 10/11/2012 - 12:06:39 10/11/2012 - 12:07:07
LESS CSS Preprocessor - 7.x-3.x Release link 7.x-3.x 10/12/2012 - 22:00:07 10/12/2012 - 22:01:02 10/12/2012 - 22:01:31
jQuery Twitter Search - 7.x-2.0 Release link 7.x-2.0 10/13/2012 - 07:04:49 10/13/2012 - 07:05:02 10/13/2012 - 07:05:34
jQuery Twitter Search - 7.x-2.x Release link 7.x-2.x 10/13/2012 - 07:04:49 10/13/2012 - 07:05:03 10/13/2012 - 07:05:54
Simple Pin Map - 7.x-1.0 Release link 7.x-1.0 10/13/2012 - 07:21:58 10/13/2012 - 07:22:02 10/13/2012 - 07:22:39
Mail Editor - 6.x-1.x Release link 6.x-1.x 10/13/2012 - 19:24:06 10/13/2012 - 19:25:02 10/13/2012 - 19:25:25
Jslideto - 7.x-1.x Release link 7.x-1.x 10/14/2012 - 11:18:03 10/14/2012 - 11:18:03 10/14/2012 - 11:18:41
Site map - 7.x-1.x Release link 7.x-1.x 10/14/2012 - 22:00:06 10/14/2012 - 22:01:02 10/14/2012 - 22:01:44
Views Rules - 7.x-1.0 Release link 7.x-1.0 10/15/2012 - 03:50:06 10/15/2012 - 03:51:02 10/15/2012 - 03:53:20
File Entity Paths - 7.x-2.x Release link 7.x-2.x 10/16/2012 - 15:16:08 10/16/2012 - 15:17:03 10/16/2012 - 15:18:41
Revision scheduler - 7.x-1.x Release link 7.x-1.x 10/16/2012 - 17:35:06 10/16/2012 - 17:36:02 10/16/2012 - 17:36:48
Domain finder - 7.x-1.x Release link 7.x-1.x 10/17/2012 - 06:32:06 10/17/2012 - 06:33:03 10/17/2012 - 06:33:39
DruStack - 7.x-15.x Release link 7.x-15.x 10/17/2012 - 07:56:06 10/17/2012 - 07:57:02 10/17/2012 - 07:57:41
Commerce pick-pack pont - 7.x-1.x Release link 7.x-1.x 10/17/2012 - 09:53:16 10/17/2012 - 09:54:03 10/17/2012 - 09:54:33
Quiz - 7.x-4.0-alpha10 Release link 7.x-4.0-alpha10 10/17/2012 - 14:37:07 10/17/2012 - 14:38:03 10/17/2012 - 14:39:19
Viewport Calculator - 7.x-1.0 Release link 7.x-1.0 10/17/2012 - 23:11:32 10/17/2012 - 23:35:15 10/17/2012 - 23:35:43
ceaZine - 7.x-1.0 Release link 7.x-1.0 10/18/2012 - 07:39:06 10/18/2012 - 07:39:33 10/18/2012 - 07:40:02
SnapEngage - 7.x-1.0 Release link 7.x-1.0 10/18/2012 - 09:09:06 10/18/2012 - 09:15:03 10/18/2012 - 09:16:07
Twitter Profile - 7.x-1.2 Release link 7.x-1.2 10/18/2012 - 19:11:48 10/18/2012 - 19:12:02 10/18/2012 - 19:12:31
Twitter Profile - 7.x-1.x Release link 7.x-1.x 10/18/2012 - 19:11:48 10/18/2012 - 19:12:31 10/18/2012 - 19:13:00
Aegir Rules - 6.x-1.x Release link 6.x-1.x 10/19/2012 - 02:54:07 10/19/2012 - 02:55:03 10/19/2012 - 02:55:20
ACL - 6.x-1.x Release link 6.x-1.x 10/19/2012 - 07:38:29 10/19/2012 - 07:39:03 10/19/2012 - 07:39:23
Load content via JQuery Ajax - 7.x-1.4 Release link 7.x-1.4 10/19/2012 - 10:12:15 10/19/2012 - 10:13:03 10/19/2012 - 10:13:31
Feeds - 6.x-1.0-beta12 Release link 6.x-1.0-beta12 10/19/2012 - 14:19:08 10/19/2012 - 14:20:03 10/19/2012 - 14:22:38
FAQ_Ask - 7.x-1.x Release link 7.x-1.x 10/20/2012 - 16:20:06 10/20/2012 - 16:21:02 10/20/2012 - 16:22:22
TinyBox (Simple Splash) - 7.x-1.0-alpha1 Release link 7.x-1.0-alpha1 10/21/2012 - 03:11:44 10/21/2012 - 03:12:02 10/21/2012 - 03:12:44
TinyBox (Simple Splash) - 6.x-1.0-alpha3 Release link 6.x-1.0-alpha3 10/21/2012 - 15:26:07 10/21/2012 - 15:26:26 10/21/2012 - 15:26:44
TinyBox (Simple Splash) - 7.x-1.0-alpha2 Release link 7.x-1.0-alpha2 10/21/2012 - 15:26:07 10/21/2012 - 15:26:44 10/21/2012 - 15:27:12
Entity reference - 8.x-1.x Release link 8.x-1.x 10/21/2012 - 19:31:25 10/21/2012 - 19:32:02 10/21/2012 - 19:32:56
User verification - 6.x-1.x Release link 6.x-1.x 10/22/2012 - 12:55:06 10/22/2012 - 12:56:03 10/22/2012 - 12:56:42
OG Linkchecker - 7.x-1.0-rc1 Release link 7.x-1.0-rc1 10/22/2012 - 16:28:06 10/22/2012 - 16:28:32 10/22/2012 - 16:29:19
Menu Subtitle - 7.x-1.0-alpha2 Release link 7.x-1.0-alpha2 10/22/2012 - 17:38:06 10/22/2012 - 17:39:03 10/22/2012 - 17:39:30
Lights Out - 7.x-1.0 Release link 7.x-1.0 10/22/2012 - 21:39:06 10/22/2012 - 22:21:30 10/22/2012 - 22:21:58
Profile2 Registration Path - 7.x-1.12 Release link 7.x-1.12 10/23/2012 - 23:46:07 10/23/2012 - 23:47:03 10/23/2012 - 23:47:43
Profile2 Registration Path - 7.x-2.0-beta3 Release link 7.x-2.0-beta3 10/23/2012 - 23:46:07 10/23/2012 - 23:47:44 10/23/2012 - 23:48:15
Commerce Checkout.fi - 7.x-1.x Release link 7.x-1.x 10/24/2012 - 06:58:08 10/24/2012 - 06:59:02 10/24/2012 - 07:00:41
User Import - 7.x-1.0-beta1 Release link 7.x-1.0-beta1 10/24/2012 - 09:26:06 10/24/2012 - 09:27:02 10/24/2012 - 09:28:07
Webform Phone Number - 7.x-1.7 Release link 7.x-1.7 10/24/2012 - 15:21:48 10/24/2012 - 15:22:03 10/24/2012 - 15:22:35
Context Permissions - 7.x-1.x Release link 7.x-1.x 10/25/2012 - 23:51:33 10/25/2012 - 23:52:04 10/25/2012 - 23:52:33
Context Permissions - 7.x-1.0 Release link 7.x-1.0 10/25/2012 - 23:51:33 10/25/2012 - 23:51:48 10/25/2012 - 23:53:05
Commerce EBS Payment Gateway - 7.x-1.x Release link 7.x-1.x 10/26/2012 - 15:11:51 10/26/2012 - 15:11:53 10/26/2012 - 15:13:38
Views data export - 6.x-3.x Release link 6.x-3.x 10/27/2012 - 14:48:06 10/27/2012 - 14:52:06 10/27/2012 - 14:52:26
Premium content - 7.x-1.x Release link 7.x-1.x 10/27/2012 - 21:14:07 10/27/2012 - 21:16:05 10/27/2012 - 21:16:12
Domain finder - 7.x-1.1 Release link 7.x-1.1 10/28/2012 - 15:27:07 10/28/2012 - 15:34:36 10/28/2012 - 15:34:43
Views Sexy Throbber - 7.x-2.x Release link 7.x-2.x 10/28/2012 - 17:07:06 10/28/2012 - 17:08:03 10/28/2012 - 17:08:53
Views Slideshow - 7.x-3.0 Release link 7.x-3.0 10/28/2012 - 19:41:34 10/28/2012 - 19:42:04 10/28/2012 - 19:43:06
Views Slideshow - 7.x-3.x Release link 7.x-3.x 10/28/2012 - 19:41:34 10/28/2012 - 19:42:20 10/28/2012 - 19:43:07
Simple Node Archive Blocks - 6.x-1.0 Release link 6.x-1.0 10/29/2012 - 12:51:41 10/29/2012 - 12:52:03 10/29/2012 - 12:52:25
Simple Node Archive Blocks - 7.x-1.0 Release link 7.x-1.0 10/29/2012 - 12:51:41 10/29/2012 - 12:52:05 10/29/2012 - 12:52:56
TranslateThis Button - 7.x-1.x Release link 7.x-1.x 10/29/2012 - 21:58:07 10/29/2012 - 23:01:23 10/29/2012 - 23:01:32
CAS roles - 7.x-1.0 Release link 7.x-1.0 10/29/2012 - 22:59:06 10/29/2012 - 23:09:19 10/29/2012 - 23:09:27
JQuery Loadinganimation - 7.x-1.1 Release link 7.x-1.1 10/30/2012 - 21:15:07 10/30/2012 - 21:42:26 10/30/2012 - 21:43:04
JQuery Loadinganimation - 6.x-1.x Release link 6.x-1.x 10/30/2012 - 22:05:07 10/30/2012 - 22:06:03 10/30/2012 - 22:06:25
JQuery Loadinganimation - 6.x-1.1 Release link 6.x-1.1 10/30/2012 - 22:43:05 10/30/2012 - 22:44:03 10/30/2012 - 22:44:23
Field Permissions - 7.x-1.0-beta2 Release link 7.x-1.0-beta2 10/31/2012 - 16:20:06 10/31/2012 - 16:21:02 10/31/2012 - 16:22:02
Queue Mail - 6.x-1.x Release link 6.x-1.x 10/31/2012 - 21:02:13 10/31/2012 - 21:02:21 10/31/2012 - 21:02:50
Migrate - 6.x-2.x Release link 6.x-2.x 10/31/2012 - 21:56:12 10/31/2012 - 21:57:03 10/31/2012 - 21:59:31
UC Order Subscription (D6) - 6.x-1.x Release link 6.x-1.x 11/01/2012 - 03:48:07 11/01/2012 - 03:49:03 11/01/2012 - 03:50:37
tim.plunkett's sandbox: VDC - vdc Release link vdc 11/01/2012 - 20:35:49 11/01/2012 - 20:49:19 11/01/2012 - 21:29:14
Moderation Log - 7.x-1.x Release link 7.x-1.x 11/02/2012 - 01:14:07 11/02/2012 - 04:34:12 11/02/2012 - 04:34:44
NodeStream Enterprise - 7.x-2.x Release link 7.x-2.x 11/02/2012 - 03:17:12 11/02/2012 - 06:10:47 11/02/2012 - 06:23:09
Menu Subtitle - 7.x-1.0-alpha3 Release link 7.x-1.0-alpha3 11/02/2012 - 10:46:36 11/02/2012 - 10:47:03 11/02/2012 - 10:47:38
Spaces OG Clone - 6.x-1.x Release link 6.x-1.x 11/02/2012 - 12:08:06 11/02/2012 - 12:09:03 11/02/2012 - 12:10:36
{syntaxhighlighter} to PRE Converter - 7.x-1.x Release link 7.x-1.x 11/04/2012 - 07:57:08 11/04/2012 - 07:58:02 11/04/2012 - 07:58:41
Geonames Field - 7.x-1.x Release link 7.x-1.x 11/04/2012 - 19:27:07 11/04/2012 - 19:28:03 11/04/2012 - 19:29:46
Improve Error Reporting for PHP - 7.x-1.x Release link 7.x-1.x 11/05/2012 - 02:10:07 11/05/2012 - 02:11:01 11/05/2012 - 02:14:24
Load content via JQuery Ajax - 7.x-1.5 Release link 7.x-1.5 11/05/2012 - 04:29:07 11/05/2012 - 04:30:01 11/05/2012 - 04:33:26
GMap Module - 6.x-1.x Release link 6.x-1.x 11/05/2012 - 13:21:32 11/05/2012 - 13:22:01 11/05/2012 - 13:29:21
Load content via JQuery Ajax - 6.x-1.2 Release link 6.x-1.2 11/06/2012 - 11:08:01 11/06/2012 - 11:08:03 11/06/2012 - 11:08:29
Logo Block - 7.x-1.x Release link 7.x-1.x 11/07/2012 - 11:18:56 11/07/2012 - 11:19:02 11/07/2012 - 11:19:35
Menu Views - 7.x-2.0-rc2 Release link 7.x-2.0-rc2 11/07/2012 - 23:37:56 11/07/2012 - 23:38:02 11/07/2012 - 23:39:03
Talk - 7.x-1.x Release link 7.x-1.x 11/08/2012 - 03:29:55 11/08/2012 - 03:30:09 11/08/2012 - 03:30:45
Keyword Highlighter - 7.x-1.x Release link 7.x-1.x 11/09/2012 - 11:59:57 11/09/2012 - 12:00:03 11/09/2012 - 12:00:35
Keyword Highlighter - 7.x-1.x Release link 7.x-1.x 11/09/2012 - 11:59:31 11/09/2012 - 12:00:03 11/09/2012 - 12:00:36
Title - 7.x-1.0-alpha3 Release link 7.x-1.0-alpha3 11/09/2012 - 15:21:23 11/09/2012 - 15:22:02 11/09/2012 - 15:23:12
Workbench Email - 7.x-1.0 Release link 7.x-1.0 11/10/2012 - 01:06:56 11/10/2012 - 01:07:02 11/10/2012 - 01:07:47
i18n page views - 7.x-1.x Release link 7.x-1.x 11/10/2012 - 21:07:55 11/10/2012 - 21:08:02 11/10/2012 - 21:09:22
Piwik Web analytics - 6.x-1.x Release link 6.x-1.x 11/10/2012 - 22:17:56 11/10/2012 - 22:18:02 11/10/2012 - 22:18:19
Piwik Web analytics - 7.x-1.x Release link 7.x-1.x 11/10/2012 - 22:17:56 11/10/2012 - 22:18:03 11/10/2012 - 22:18:45
Organic groups - 6.x-2.x Release link 6.x-2.x 11/11/2012 - 02:41:14 11/11/2012 - 02:42:03 11/11/2012 - 02:43:40
Area Print - 7.x-1.x Release link 7.x-1.x 11/11/2012 - 18:29:56 11/11/2012 - 18:30:03 11/11/2012 - 18:30:30
Menu target - 7.x-1.0 Release link 7.x-1.0 11/12/2012 - 10:47:57 11/12/2012 - 10:48:03 11/12/2012 - 10:48:35
Poll Override - 6.x-0.x Release link 6.x-0.x 11/13/2012 - 08:21:10 11/13/2012 - 08:22:04 11/13/2012 - 08:22:23
Load content via JQuery Ajax - 7.x-1.6 Release link 7.x-1.6 11/14/2012 - 12:59:57 11/14/2012 - 13:00:03 11/14/2012 - 13:00:40
Title - 7.x-1.0-alpha2 Release link 7.x-1.0-alpha2 11/14/2012 - 14:55:56 11/14/2012 - 15:03:47 11/14/2012 - 15:04:50
Title - 7.x-1.0-alpha4 Release link 7.x-1.0-alpha4 11/14/2012 - 14:55:56 11/14/2012 - 15:05:22 11/14/2012 - 15:06:02
Title - 7.x-1.0-alpha1 Release link 7.x-1.0-alpha1 11/14/2012 - 15:06:08 11/14/2012 - 15:06:08 11/14/2012 - 15:06:09
Security Kit - 7.x-1.4 Release link 7.x-1.4 11/16/2012 - 05:33:56 11/16/2012 - 05:34:02 11/16/2012 - 05:37:51
Redirect Match - 7.x-1.x Release link 7.x-1.x 11/16/2012 - 07:32:20 11/16/2012 - 07:33:02 11/16/2012 - 07:33:35
Image - 7.x-1.x Release link 7.x-1.x 11/17/2012 - 09:11:31 11/17/2012 - 09:12:03 11/17/2012 - 09:12:27
Conditional Rules - 7.x-1.x Release link 7.x-1.x 11/17/2012 - 23:25:56 11/17/2012 - 23:26:02 11/17/2012 - 23:28:13
Share This Thing - 7.x-1.0-alpha1 Release link 7.x-1.0-alpha1 11/18/2012 - 08:16:23 11/18/2012 - 08:17:02 11/18/2012 - 08:18:24
Units API - 7.x-1.x Release link 7.x-1.x 11/18/2012 - 22:27:56 11/18/2012 - 22:57:24 11/18/2012 - 22:58:26
Share This Thing - 7.x-1.0-alpha2 Release link 7.x-1.0-alpha2 11/19/2012 - 00:23:56 11/19/2012 - 00:24:02 11/19/2012 - 00:24:29
iContact - 6.x-2.x Release link 6.x-2.x 11/19/2012 - 02:08:55 11/19/2012 - 02:09:02 11/19/2012 - 02:09:26
Units API - 7.x-1.0 Release link 7.x-1.0 11/19/2012 - 06:07:56 11/19/2012 - 06:08:02 11/19/2012 - 06:09:02
Token Filter - 7.x-1.x Release link 7.x-1.x 11/19/2012 - 10:28:55 11/19/2012 - 10:29:02 11/19/2012 - 10:29:34
Share This Thing - 7.x-1.x Release link 7.x-1.x 11/19/2012 - 17:11:14 11/19/2012 - 17:21:06 11/19/2012 - 17:21:52
Author location node views - 6.x-1.0 Release link 6.x-1.0 11/19/2012 - 17:58:56 11/19/2012 - 17:59:36 11/19/2012 - 17:59:53
Simplenews Scheduler - 6.x-2.x Release link 6.x-2.x 11/19/2012 - 21:54:56 11/19/2012 - 21:55:03 11/19/2012 - 21:56:26
Legacy Redirect - 8.x-1.0-rc1 Release link 8.x-1.0-rc1 11/20/2012 - 04:16:02 11/20/2012 - 05:09:03 11/20/2012 - 05:10:06
Word Link - 7.x-1.0 Release link 7.x-1.0 11/20/2012 - 06:28:56 11/20/2012 - 06:29:02 11/20/2012 - 06:29:37
Unit Conversion Formatters - 7.x-1.x Release link 7.x-1.x 11/20/2012 - 06:34:55 11/20/2012 - 06:35:03 11/20/2012 - 06:35:57
Views link area - 7.x-1.x Release link 7.x-1.x 11/20/2012 - 11:56:22 11/20/2012 - 12:03:45 11/20/2012 - 12:04:40
Author location node views - 6.x-1.x Release link 6.x-1.x 11/20/2012 - 12:33:11 11/20/2012 - 12:34:02 11/20/2012 - 12:34:53
OPAC - 7.x-1.x Release link 7.x-1.x 11/21/2012 - 15:59:56 11/21/2012 - 16:01:19 11/21/2012 - 16:02:18
OPAC - 7.x-1.0-alpha1 Release link 7.x-1.0-alpha1 11/21/2012 - 16:01:46 11/21/2012 - 16:02:18 11/21/2012 - 16:03:27
HelloBar - 7.x-1.0 Release link 7.x-1.0 11/22/2012 - 13:14:57 11/22/2012 - 13:14:58 11/22/2012 - 13:16:21
Word Link - 7.x-1.1 Release link 7.x-1.1 11/22/2012 - 19:33:55 11/22/2012 - 22:56:19 11/22/2012 - 22:56:51
Word Link - 7.x-1.1-alpha1 Release link 7.x-1.1-alpha1 11/22/2012 - 19:33:55 11/22/2012 - 22:56:51 11/22/2012 - 22:57:22
Word Link - 7.x-1.2 Release link 7.x-1.2 11/23/2012 - 06:12:56 11/23/2012 - 06:12:57 11/23/2012 - 06:13:28
Download Userpoints - 7.x-1.0-beta1 Release link 7.x-1.0-beta1 11/24/2012 - 15:27:56 11/24/2012 - 15:56:48 11/24/2012 - 15:57:20
Domain ip - 7.x-1.x Release link 7.x-1.x 11/25/2012 - 00:05:56 11/25/2012 - 00:06:54 11/25/2012 - 00:07:38
Feeds entity reference - 7.x-1.x Release link 7.x-1.x 11/25/2012 - 19:08:55 11/25/2012 - 19:09:02 11/25/2012 - 19:09:33
Apache Solr Term Proximity - 7.x-1.x Release link 7.x-1.x 11/26/2012 - 18:28:55 11/26/2012 - 19:16:23 11/26/2012 - 19:16:54
Counter - 6.x-2.23 Release link 6.x-2.23 11/26/2012 - 22:08:56 11/26/2012 - 23:09:46 11/26/2012 - 23:10:08
Simple Pin Map - 7.x-1.3 Release link 7.x-1.3 11/27/2012 - 00:32:08 11/27/2012 - 00:32:09 11/27/2012 - 00:32:46
FAQ_Ask - 6.x-2.x Release link 6.x-2.x 11/27/2012 - 21:52:55 11/27/2012 - 21:54:02 11/27/2012 - 21:55:12
Dynamic properties - 7.x-1.x Release link 7.x-1.x 11/28/2012 - 00:07:22 11/28/2012 - 00:12:10 11/28/2012 - 00:13:24
Delete ubercart orders using VBO - 7.x-1.x Release link 7.x-1.x 11/28/2012 - 12:32:40 11/28/2012 - 12:33:02 11/28/2012 - 12:33:46
Bulk Delete Ubercart orders - 7.x-1.0 Release link 7.x-1.0 11/29/2012 - 11:08:59 11/29/2012 - 11:09:00 11/29/2012 - 11:09:28
Address Field Static Map - 7.x-1.x Release link 7.x-1.x 11/30/2012 - 14:16:56 11/30/2012 - 14:17:43 11/30/2012 - 14:18:47
Countdown Timer Field - 7.x-1.0 Release link 7.x-1.0 11/30/2012 - 17:11:13 11/30/2012 - 17:11:50 11/30/2012 - 17:12:20
Menu Minipanels - 6.x-1.x Release link 6.x-1.x 12/01/2012 - 05:43:05 12/01/2012 - 05:43:51 12/01/2012 - 05:44:32
Menu Minipanels - 7.x-1.x Release link 7.x-1.x 12/01/2012 - 05:43:05 12/01/2012 - 05:43:50 12/01/2012 - 05:44:45
Path breadcrumbs - 7.x-3.x Release link 7.x-3.x 12/01/2012 - 12:49:56 12/01/2012 - 12:50:50 12/01/2012 - 12:52:12
Signup Code - 6.x-1.0 Release link 6.x-1.0 12/02/2012 - 02:15:57 12/02/2012 - 02:16:51 12/02/2012 - 02:18:03
Ubercart MIGS Gateway - 7.x-2.x Release link 7.x-2.x 12/03/2012 - 08:17:57 12/03/2012 - 08:18:02 12/03/2012 - 08:20:34
Form API Validation - 7.x-2.x Release link 7.x-2.x 12/03/2012 - 13:54:56 12/03/2012 - 13:55:03 12/03/2012 - 13:55:31
SnapEngage - 8.x-1.x Release link 8.x-1.x 12/03/2012 - 16:01:23 12/03/2012 - 16:01:46 12/03/2012 - 16:03:36
Simple Pin Map - 7.x-1.4 Release link 7.x-1.4 12/04/2012 - 02:41:12 12/04/2012 - 02:41:46 12/04/2012 - 02:42:17
Views Now - 6.x-1.1 Release link 6.x-1.1 12/04/2012 - 19:32:56 12/04/2012 - 19:33:03 12/04/2012 - 19:33:32
Persistent URL - 7.x-1.x Release link 7.x-1.x 12/04/2012 - 20:13:56 12/04/2012 - 20:14:02 12/04/2012 - 20:15:02
Taxonomy Orderable Tags autocomplete widget - 7.x-1.0 Release link 7.x-1.0 12/05/2012 - 06:28:56 12/05/2012 - 06:29:02 12/05/2012 - 06:29:32
Node Class - 7.x-1.1 Release link 7.x-1.1 12/05/2012 - 11:11:51 12/05/2012 - 11:12:03 12/05/2012 - 11:12:34
Ipgeobase API - 7.x-1.x Release link 7.x-1.x 12/05/2012 - 14:21:14 12/05/2012 - 14:21:44 12/05/2012 - 14:22:12
L2J Connect - 7.x-1.x Release link 7.x-1.x 12/06/2012 - 02:59:55 12/06/2012 - 03:00:43 12/06/2012 - 03:01:11
Project Hosting - 7.x-1.x Release link 7.x-1.x 12/06/2012 - 08:37:57 12/06/2012 - 08:38:03 12/06/2012 - 08:41:00
Commerce Estcard - 7.x-1.0 Release link 7.x-1.0 12/07/2012 - 19:06:26 12/07/2012 - 19:06:39 12/07/2012 - 19:08:02
User points Nodes and Comments - 6.x-1.x Release link 6.x-1.x 12/07/2012 - 21:04:56 12/07/2012 - 21:05:38 12/07/2012 - 21:05:52
Commerce Estonian payments - 7.x-1.x Release link 7.x-1.x 12/07/2012 - 23:52:57 12/08/2012 - 00:04:32 12/08/2012 - 00:06:20
DruStack - 7.x-16.x Release link 7.x-16.x 12/08/2012 - 06:13:33 12/08/2012 - 06:13:34 12/08/2012 - 06:14:05
Commerce Examples - 7.x-1.x Release link 7.x-1.x 12/09/2012 - 05:29:58 12/09/2012 - 05:30:03 12/09/2012 - 05:33:03
Twysi - 7.x-1.x Release link 7.x-1.x 12/10/2012 - 09:31:32 12/10/2012 - 09:32:03 12/10/2012 - 09:32:45
Node Access Relation - 7.x-1.x Release link 7.x-1.x 12/10/2012 - 20:14:55 12/10/2012 - 20:15:02 12/10/2012 - 20:15:41
Encryption - 7.x-2.x Release link 7.x-2.x 12/11/2012 - 16:59:56 12/11/2012 - 17:00:01 12/11/2012 - 17:01:20
Link Title - 7.x-1.1 Release link 7.x-1.1 12/12/2012 - 10:39:56 12/12/2012 - 10:39:58 12/12/2012 - 10:40:25
Seedbox - 7.x-1.x Release link 7.x-1.x 12/13/2012 - 09:09:56 12/13/2012 - 09:09:56 12/13/2012 - 09:10:24
Contact Attach - 7.x-1.x Release link 7.x-1.x 12/13/2012 - 19:28:56 12/13/2012 - 19:28:57 12/13/2012 - 19:29:56
Video Embed Dailymotion - 7.x-1.0 Release link 7.x-1.0 12/14/2012 - 00:45:56 12/14/2012 - 00:45:57 12/14/2012 - 00:46:47
Views Rules - 7.x-1.x Release link 7.x-1.x 12/14/2012 - 02:27:56 12/14/2012 - 02:27:58 12/14/2012 - 02:30:41
BetterTip - 7.x-2.x Release link 7.x-2.x 12/14/2012 - 04:56:55 12/14/2012 - 04:56:58 12/14/2012 - 04:57:26
BetterTip - 7.x-2.1 Release link 7.x-2.1 12/14/2012 - 07:12:08 12/14/2012 - 07:12:58 12/14/2012 - 07:13:30
Video Embed Dailymotion - 7.x-1.x Release link 7.x-1.x 12/14/2012 - 14:07:56 12/14/2012 - 14:08:00 12/14/2012 - 14:08:27
BetterTip - 7.x-2.1 Release link 7.x-2.1 12/15/2012 - 05:35:56 12/15/2012 - 05:36:00 12/15/2012 - 05:36:26
Pagerer - 7.x-1.0-beta3 Release link 7.x-1.0-beta3 12/15/2012 - 18:11:58 12/15/2012 - 18:12:01 12/15/2012 - 18:12:30
Fragment - 7.x-2.x Release link 7.x-2.x 12/15/2012 - 18:39:56 12/15/2012 - 18:40:00 12/15/2012 - 18:40:32
Entity Autocomplete - 7.x-1.x Release link 7.x-1.x 12/15/2012 - 22:03:55 12/15/2012 - 22:04:00 12/15/2012 - 22:04:48
Textimage - 7.x-2.0-beta1 Release link 7.x-2.0-beta1 12/16/2012 - 11:38:55 12/16/2012 - 11:39:40 12/16/2012 - 11:39:50
Pagerer - 7.x-1.0 Release link 7.x-1.0 12/16/2012 - 12:37:55 12/16/2012 - 12:38:50 12/16/2012 - 12:39:04
Video Embed Rutube - 7.x-1.0 Release link 7.x-1.0 12/16/2012 - 21:31:11 12/16/2012 - 21:32:03 12/16/2012 - 21:32:49
Video Embed Rutube - 7.x-1.x Release link 7.x-1.x 12/16/2012 - 21:51:37 12/16/2012 - 21:52:05 12/16/2012 - 21:52:30
Text list formatter - 7.x-1.x Release link 7.x-1.x 12/18/2012 - 09:46:55 12/18/2012 - 09:47:04 12/18/2012 - 09:47:44
Build modes - 6.x-1.x Release link 6.x-1.x 12/18/2012 - 10:53:56 12/18/2012 - 10:54:06 12/18/2012 - 10:54:40
Word Link - 7.x-1.3-alpha1 Release link 7.x-1.3-alpha1 12/18/2012 - 20:15:56 12/18/2012 - 20:16:21 12/18/2012 - 20:16:49
Better comments administration - 7.x-1.0 Release link 7.x-1.0 12/19/2012 - 00:15:56 12/19/2012 - 00:16:27 12/19/2012 - 00:17:47
Image Link Formatter - 7.x-1.x Release link 7.x-1.x 12/19/2012 - 10:47:56 12/19/2012 - 10:48:45 12/19/2012 - 10:49:11
Image Link Formatter - 7.x-1.0 Release link 7.x-1.0 12/19/2012 - 10:47:56 12/19/2012 - 10:48:46 12/19/2012 - 10:49:18
Two-factor Authentication - 7.x-1.x Release link 7.x-1.x 12/19/2012 - 14:24:55 12/19/2012 - 14:28:35 12/19/2012 - 14:28:46
Default Content - 7.x-2.x Release link 7.x-2.x 12/19/2012 - 15:27:55 12/19/2012 - 15:28:51 12/19/2012 - 15:28:59
DruStack - 7.x-17.x Release link 7.x-17.x 12/20/2012 - 08:41:25 12/20/2012 - 08:42:20 12/20/2012 - 08:42:42
Moneybird - 7.x-1.0 Release link 7.x-1.0 12/21/2012 - 12:42:56 12/21/2012 - 12:43:02 12/21/2012 - 12:47:02
Style Guide - 7.x-1.0 Release link 7.x-1.0 12/21/2012 - 18:21:42 12/21/2012 - 18:22:09 12/21/2012 - 18:22:19
Style Guide - 6.x-1.x Release link 6.x-1.x 12/21/2012 - 18:31:14 12/21/2012 - 18:32:09 12/21/2012 - 18:32:16
Code Filter - 7.x-1.x Release link 7.x-1.x 12/22/2012 - 18:48:55 12/22/2012 - 18:49:03 12/22/2012 - 18:49:33
Commerce Epaybg - 7.x-1.0-alpha2 Release link 7.x-1.0-alpha2 12/23/2012 - 09:37:56 12/23/2012 - 09:38:11 12/23/2012 - 09:39:44
Word Link - 7.x-1.3 Release link 7.x-1.3 12/23/2012 - 17:05:55 12/23/2012 - 17:06:19 12/23/2012 - 17:06:33
Video Embed Myspace - 7.x-1.0 Release link 7.x-1.0 12/24/2012 - 05:19:56 12/24/2012 - 05:20:03 12/24/2012 - 05:21:17
BlogAPI Alternative - 7.x-1.x Release link 7.x-1.x 12/24/2012 - 12:44:56 12/24/2012 - 12:45:50 12/24/2012 - 12:46:27
Simple Anti-Spam - 7.x-1.x Release link 7.x-1.x 12/25/2012 - 10:23:57 12/25/2012 - 10:24:25 12/25/2012 - 10:24:53
Geolocation Views - 7.x-1.x Release link 7.x-1.x 12/25/2012 - 10:23:57 12/25/2012 - 10:24:32 12/25/2012 - 10:25:07
Commerce Yandex.Money - 7.x-1.x Release link 7.x-1.x 12/25/2012 - 10:23:57 12/25/2012 - 10:24:24 12/25/2012 - 10:25:39
Commerce Reporting - 7.x-3.x Release link 7.x-3.x 12/25/2012 - 13:44:57 12/25/2012 - 13:45:04 12/25/2012 - 13:48:44
Slideshare - 6.x-1.0-beta4 Release link 6.x-1.0-beta4 12/26/2012 - 16:56:55 12/26/2012 - 16:57:09 12/26/2012 - 16:57:50
SnapEngage - 7.x-1.1 Release link 7.x-1.1 12/27/2012 - 16:58:56 12/27/2012 - 18:56:22 12/27/2012 - 18:57:10
Profiler Builder - 7.x-1.0-alpha2 Release link 7.x-1.0-alpha2 12/27/2012 - 22:29:56 12/27/2012 - 22:46:52 12/27/2012 - 22:47:16
Outline Designer - 7.x-2.x Release link 7.x-2.x 12/27/2012 - 22:31:32 12/27/2012 - 22:48:52 12/27/2012 - 22:49:01
Profiler Builder - 7.x-1.x Release link 7.x-1.x 12/27/2012 - 22:31:32 12/27/2012 - 22:49:01 12/27/2012 - 22:49:09
Admin role - 7.x-1.x Release link 7.x-1.x 12/29/2012 - 17:41:18 12/29/2012 - 17:42:52 12/29/2012 - 17:42:54
Flux Slider - 7.x-1.1 Release link 7.x-1.1 12/30/2012 - 09:37:56 12/30/2012 - 09:38:46 12/30/2012 - 09:39:06
iContact - 7.x-2.x Release link 7.x-2.x 12/31/2012 - 18:21:11 12/31/2012 - 18:21:33 12/31/2012 - 18:21:59
Pushtape Music - 7.x-1.x Release link 7.x-1.x 01/01/2013 - 08:21:39 01/01/2013 - 08:21:55 01/01/2013 - 08:23:57
Format Headers - 7.x-1.0 Release link 7.x-1.0 01/01/2013 - 16:56:55 01/01/2013 - 16:57:03 01/01/2013 - 16:57:33
Format Headers - 7.x-1.1 Release link 7.x-1.1 01/02/2013 - 05:57:56 01/02/2013 - 05:58:03 01/02/2013 - 05:58:32
WP Migrate - 6.x-1.0-beta1 Release link 6.x-1.0-beta1 01/02/2013 - 12:06:25 01/02/2013 - 12:53:06 01/02/2013 - 12:53:16
Flag Cool Note - 7.x-1.3 Release link 7.x-1.3 01/02/2013 - 13:25:55 01/02/2013 - 13:26:29 01/02/2013 - 13:27:41
Social network user detection - 7.x-1.x Release link 7.x-1.x 01/02/2013 - 14:06:54 01/02/2013 - 14:07:30 01/02/2013 - 14:08:01
Windows Azure Authentication - 7.x-1.0 Release link 7.x-1.0 01/02/2013 - 19:42:39 01/02/2013 - 23:14:20 01/02/2013 - 23:14:29
User Limit - 6.x-1.x Release link 6.x-1.x 01/03/2013 - 01:58:55 01/03/2013 - 02:00:21 01/03/2013 - 02:00:33
Go - url redirects - 6.x-1.x Release link 6.x-1.x 01/03/2013 - 14:32:54 01/03/2013 - 16:28:58 01/03/2013 - 16:29:08
Go - url redirects - 7.x-1.x Release link 7.x-1.x 01/03/2013 - 14:32:54 01/03/2013 - 16:29:41 01/03/2013 - 16:29:50
Email Registration - 6.x-1.x Release link 6.x-1.x 01/03/2013 - 18:19:54 01/03/2013 - 18:20:14 01/03/2013 - 18:20:33
Opengraph Filter - 7.x-1.0-beta1 Release link 7.x-1.0-beta1 01/03/2013 - 21:55:55 01/03/2013 - 22:22:27 01/03/2013 - 22:22:40
Applications and Postings - 7.x-1.x Release link 7.x-1.x 01/03/2013 - 22:03:55 01/03/2013 - 22:24:09 01/03/2013 - 22:24:26
Superior Colors - 7.x-1.x Release link 7.x-1.x 01/04/2013 - 00:11:43 01/04/2013 - 00:12:25 01/04/2013 - 00:12:52
Course relationships - 6.x-1.x Release link 6.x-1.x 01/04/2013 - 16:06:58 01/04/2013 - 16:07:49 01/04/2013 - 16:11:23
Supersized - 7.x-1.0-alpha1 Release link 7.x-1.0-alpha1 01/04/2013 - 17:54:41 01/04/2013 - 18:18:26 01/04/2013 - 18:18:39
IPBridge - 7.x-1.0-beta1 Release link 7.x-1.0-beta1 01/04/2013 - 21:42:55 01/05/2013 - 00:34:03 01/05/2013 - 00:34:14
Auto Product Display - 7.x-1.x Release link 7.x-1.x 01/05/2013 - 02:27:55 01/05/2013 - 02:44:59 01/05/2013 - 02:45:12
Flag - 6.x-2.x Release link 6.x-2.x 01/05/2013 - 08:49:56 01/05/2013 - 08:49:57 01/05/2013 - 08:50:23
Video Embed Metacafe - 7.x-1.0 Release link 7.x-1.0 01/05/2013 - 16:41:10 01/05/2013 - 16:42:03 01/05/2013 - 16:43:01
Econt shipping method for Ubercart - 6.x-1.x Release link 6.x-1.x 01/05/2013 - 19:49:56 01/05/2013 - 19:50:04 01/05/2013 - 19:51:56
VT Commerce Catalog - 7.x-1.x Release link 7.x-1.x 01/05/2013 - 23:16:55 01/05/2013 - 23:17:37 01/05/2013 - 23:17:50
Custom Submit Messages - 6.x-1.0-alpha6 Release link 6.x-1.0-alpha6 01/06/2013 - 01:25:56 01/06/2013 - 01:25:57 01/06/2013 - 01:26:25
BlogAPI Alternative - 6.x-1.x Release link 6.x-1.x 01/06/2013 - 02:48:02 01/06/2013 - 02:48:03 01/06/2013 - 02:48:24
Word Link - 7.x-1.3-rc1 Release link 7.x-1.3-rc1 01/06/2013 - 02:47:33 01/06/2013 - 02:47:56 01/06/2013 - 02:48:29
Certify - 6.x-2.x Release link 6.x-2.x 01/07/2013 - 10:29:56 01/07/2013 - 10:29:58 01/07/2013 - 10:30:41
Imagefield CSS - 7.x-1.0 Release link 7.x-1.0 01/07/2013 - 10:36:55 01/07/2013 - 10:36:58 01/07/2013 - 10:37:24
References dialog - 7.x-1.x Release link 7.x-1.x 01/08/2013 - 03:11:24 01/08/2013 - 03:11:57 01/08/2013 - 03:13:26
Tablesorter - 7.x-1.0 Release link 7.x-1.0 01/08/2013 - 07:33:58 01/08/2013 - 07:33:57 01/08/2013 - 07:34:26
PDF using mPDF - 7.x-1.x Release link 7.x-1.x 01/08/2013 - 11:31:17 01/08/2013 - 11:32:03 01/08/2013 - 11:32:34
Which feature? - 7.x-1.0-beta1 Release link 7.x-1.0-beta1 01/08/2013 - 22:51:37 01/08/2013 - 22:52:35 01/08/2013 - 22:52:45
One Type - 7.x-1.0-alpha2 Release link 7.x-1.0-alpha2 01/08/2013 - 22:54:58 01/08/2013 - 22:56:43 01/08/2013 - 22:58:22
FERank - 7.x-1.0 Release link 7.x-1.0 01/08/2013 - 23:57:58 01/08/2013 - 23:58:01 01/08/2013 - 23:58:28
River of Tweets - 7.x-1.x Release link 7.x-1.x 01/09/2013 - 11:31:04 01/09/2013 - 11:31:04 01/09/2013 - 11:31:32
Multi Submit - 6.x-1.x